<?xml version="1.0" encoding="UTF-8" standalone="no" ?>
<gpx xmlns="http://www.topografix.com/GPX/1/1" xmlns:xsi="http://www.w3.org/2001/XMLSchema-instance" xsi:schemaLocation="http://www.topografix.com/GPX/1/1 http://www.topografix.com/GPX/1/1/gpx.xsd" version="1.1" creator="VisuGPX - https://www.visugpx.com">
  <metadata>
    <name>Descente Risoul Embrun Guillestre</name>
    <desc><![CDATA[on peut partir de Vars ou de Risoul]]></desc>
  </metadata>
  <trk>
    <name><![CDATA[110809c-Risoul-Embrun-Guillestre]]></name>
    <trkseg>
      <trkpt lat="44.62232" lon="6.63228">
        <ele>1862.547119</ele>
        <time>2011-08-09T10:09:23Z</time>
      </trkpt>
      <trkpt lat="44.62223" lon="6.63247">
        <ele>1860.791138</ele>
        <time>2011-08-09T10:09:53Z</time>
      </trkpt>
      <trkpt lat="44.6222" lon="6.63253">
        <ele>1860.145386</ele>
        <time>2011-08-09T10:09:55Z</time>
      </trkpt>
      <trkpt lat="44.62198" lon="6.63295">
        <ele>1857.226074</ele>
        <time>2011-08-09T10:10:05Z</time>
      </trkpt>
      <trkpt lat="44.62182" lon="6.63297">
        <ele>1859.225342</ele>
        <time>2011-08-09T10:10:11Z</time>
      </trkpt>
      <trkpt lat="44.62163" lon="6.63292">
        <ele>1862.115967</ele>
        <time>2011-08-09T10:10:19Z</time>
      </trkpt>
      <trkpt lat="44.62145" lon="6.63293">
        <ele>1864.578613</ele>
        <time>2011-08-09T10:10:27Z</time>
      </trkpt>
      <trkpt lat="44.62135" lon="6.63313">
        <ele>1864.254395</ele>
        <time>2011-08-09T10:10:37Z</time>
      </trkpt>
      <trkpt lat="44.62127" lon="6.63332">
        <ele>1863.746582</ele>
        <time>2011-08-09T10:10:43Z</time>
      </trkpt>
      <trkpt lat="44.62115" lon="6.63343">
        <ele>1864.762939</ele>
        <time>2011-08-09T10:12:10Z</time>
      </trkpt>
      <trkpt lat="44.62103" lon="6.6336">
        <ele>1866.86145</ele>
        <time>2011-08-09T10:12:18Z</time>
      </trkpt>
      <trkpt lat="44.62097" lon="6.63378">
        <ele>1868.263428</ele>
        <time>2011-08-09T10:12:26Z</time>
      </trkpt>
      <trkpt lat="44.62092" lon="6.63398">
        <ele>1869.443115</ele>
        <time>2011-08-09T10:12:34Z</time>
      </trkpt>
      <trkpt lat="44.62083" lon="6.63382">
        <ele>1870.008545</ele>
        <time>2011-08-09T10:18:22Z</time>
      </trkpt>
      <trkpt lat="44.62082" lon="6.63362">
        <ele>1869.639282</ele>
        <time>2011-08-09T10:18:34Z</time>
      </trkpt>
      <trkpt lat="44.6208" lon="6.63337">
        <ele>1869.082153</ele>
        <time>2011-08-09T10:18:40Z</time>
      </trkpt>
      <trkpt lat="44.62063" lon="6.63327">
        <ele>1871.435303</ele>
        <time>2011-08-09T10:18:46Z</time>
      </trkpt>
      <trkpt lat="44.62048" lon="6.6333">
        <ele>1872.822632</ele>
        <time>2011-08-09T10:18:54Z</time>
      </trkpt>
      <trkpt lat="44.62028" lon="6.6333">
        <ele>1874.596802</ele>
        <time>2011-08-09T10:20:25Z</time>
      </trkpt>
      <trkpt lat="44.6201" lon="6.63328">
        <ele>1876.243408</ele>
        <time>2011-08-09T10:20:42Z</time>
      </trkpt>
      <trkpt lat="44.6199" lon="6.63327">
        <ele>1878.477173</ele>
        <time>2011-08-09T10:21:00Z</time>
      </trkpt>
      <trkpt lat="44.61972" lon="6.63325">
        <ele>1880.940918</ele>
        <time>2011-08-09T10:21:18Z</time>
      </trkpt>
      <trkpt lat="44.61953" lon="6.63325">
        <ele>1883.35376</ele>
        <time>2011-08-09T10:21:38Z</time>
      </trkpt>
      <trkpt lat="44.61928" lon="6.63325">
        <ele>1887.158203</ele>
        <time>2011-08-09T10:22:02Z</time>
      </trkpt>
      <trkpt lat="44.61908" lon="6.63325">
        <ele>1890.339233</ele>
        <time>2011-08-09T10:22:22Z</time>
      </trkpt>
      <trkpt lat="44.61883" lon="6.63322">
        <ele>1894.177856</ele>
        <time>2011-08-09T10:22:46Z</time>
      </trkpt>
      <trkpt lat="44.61862" lon="6.6332">
        <ele>1897.477295</ele>
        <time>2011-08-09T10:23:04Z</time>
      </trkpt>
      <trkpt lat="44.61842" lon="6.63318">
        <ele>1900.144165</ele>
        <time>2011-08-09T10:23:22Z</time>
      </trkpt>
      <trkpt lat="44.61822" lon="6.63317">
        <ele>1902.81604</ele>
        <time>2011-08-09T10:23:40Z</time>
      </trkpt>
      <trkpt lat="44.61808" lon="6.63313">
        <ele>1904.894165</ele>
        <time>2011-08-09T10:23:50Z</time>
      </trkpt>
      <trkpt lat="44.61792" lon="6.63315">
        <ele>1907.483398</ele>
        <time>2011-08-09T10:24:08Z</time>
      </trkpt>
      <trkpt lat="44.6177" lon="6.63313">
        <ele>1910.860962</ele>
        <time>2011-08-09T10:24:28Z</time>
      </trkpt>
      <trkpt lat="44.61752" lon="6.63313">
        <ele>1913.777344</ele>
        <time>2011-08-09T10:24:46Z</time>
      </trkpt>
      <trkpt lat="44.6172" lon="6.63308">
        <ele>1918.363647</ele>
        <time>2011-08-09T10:25:14Z</time>
      </trkpt>
      <trkpt lat="44.61702" lon="6.63307">
        <ele>1920.798218</ele>
        <time>2011-08-09T10:25:31Z</time>
      </trkpt>
      <trkpt lat="44.61685" lon="6.63305">
        <ele>1923.074463</ele>
        <time>2011-08-09T10:25:49Z</time>
      </trkpt>
      <trkpt lat="44.61668" lon="6.63305">
        <ele>1927.224121</ele>
        <time>2011-08-09T10:26:07Z</time>
      </trkpt>
      <trkpt lat="44.61632" lon="6.63298">
        <ele>1936.983765</ele>
        <time>2011-08-09T10:26:37Z</time>
      </trkpt>
      <trkpt lat="44.61617" lon="6.63298">
        <ele>1941.315063</ele>
        <time>2011-08-09T10:26:55Z</time>
      </trkpt>
      <trkpt lat="44.61595" lon="6.63297">
        <ele>1947.688599</ele>
        <time>2011-08-09T10:27:15Z</time>
      </trkpt>
      <trkpt lat="44.61575" lon="6.63295">
        <ele>1952.592896</ele>
        <time>2011-08-09T10:27:33Z</time>
      </trkpt>
      <trkpt lat="44.61553" lon="6.63292">
        <ele>1958.161865</ele>
        <time>2011-08-09T10:27:51Z</time>
      </trkpt>
      <trkpt lat="44.61537" lon="6.63292">
        <ele>1960.716797</ele>
        <time>2011-08-09T10:28:09Z</time>
      </trkpt>
      <trkpt lat="44.61517" lon="6.63288">
        <ele>1964.041626</ele>
        <time>2011-08-09T10:28:27Z</time>
      </trkpt>
      <trkpt lat="44.61498" lon="6.63288">
        <ele>1966.4823</ele>
        <time>2011-08-09T10:28:45Z</time>
      </trkpt>
      <trkpt lat="44.6148" lon="6.63288">
        <ele>1968.725464</ele>
        <time>2011-08-09T10:29:03Z</time>
      </trkpt>
      <trkpt lat="44.61462" lon="6.63287">
        <ele>1971.172729</ele>
        <time>2011-08-09T10:29:21Z</time>
      </trkpt>
      <trkpt lat="44.61442" lon="6.63285">
        <ele>1973.423462</ele>
        <time>2011-08-09T10:29:39Z</time>
      </trkpt>
      <trkpt lat="44.61423" lon="6.63283">
        <ele>1975.491211</ele>
        <time>2011-08-09T10:29:56Z</time>
      </trkpt>
      <trkpt lat="44.61405" lon="6.63282">
        <ele>1977.785156</ele>
        <time>2011-08-09T10:30:14Z</time>
      </trkpt>
      <trkpt lat="44.6139" lon="6.6328">
        <ele>1979.79834</ele>
        <time>2011-08-09T10:30:26Z</time>
      </trkpt>
      <trkpt lat="44.61375" lon="6.63278">
        <ele>1981.800537</ele>
        <time>2011-08-09T10:30:38Z</time>
      </trkpt>
      <trkpt lat="44.61358" lon="6.63278">
        <ele>1983.916016</ele>
        <time>2011-08-09T10:30:55Z</time>
      </trkpt>
      <trkpt lat="44.61337" lon="6.63275">
        <ele>1986.883301</ele>
        <time>2011-08-09T10:31:15Z</time>
      </trkpt>
      <trkpt lat="44.61317" lon="6.63273">
        <ele>1989.56311</ele>
        <time>2011-08-09T10:31:33Z</time>
      </trkpt>
      <trkpt lat="44.61297" lon="6.63272">
        <ele>1992.277588</ele>
        <time>2011-08-09T10:31:51Z</time>
      </trkpt>
      <trkpt lat="44.61277" lon="6.6327">
        <ele>1994.891602</ele>
        <time>2011-08-09T10:32:09Z</time>
      </trkpt>
      <trkpt lat="44.61257" lon="6.63268">
        <ele>1997.200928</ele>
        <time>2011-08-09T10:32:27Z</time>
      </trkpt>
      <trkpt lat="44.6122" lon="6.63257">
        <ele>2004.312866</ele>
        <time>2011-08-09T10:32:50Z</time>
      </trkpt>
      <trkpt lat="44.612" lon="6.63255">
        <ele>2008.982422</ele>
        <time>2011-08-09T10:33:08Z</time>
      </trkpt>
      <trkpt lat="44.61173" lon="6.6325">
        <ele>2015.937988</ele>
        <time>2011-08-09T10:33:32Z</time>
      </trkpt>
      <trkpt lat="44.61158" lon="6.63252">
        <ele>2019.284912</ele>
        <time>2011-08-09T10:33:52Z</time>
      </trkpt>
      <trkpt lat="44.61142" lon="6.63252">
        <ele>2023.30249</ele>
        <time>2011-08-09T10:34:10Z</time>
      </trkpt>
      <trkpt lat="44.61127" lon="6.6325">
        <ele>2027.245239</ele>
        <time>2011-08-09T10:34:51Z</time>
      </trkpt>
      <trkpt lat="44.61105" lon="6.63248">
        <ele>2032.829956</ele>
        <time>2011-08-09T10:35:11Z</time>
      </trkpt>
      <trkpt lat="44.61083" lon="6.63247">
        <ele>2037.565186</ele>
        <time>2011-08-09T10:35:33Z</time>
      </trkpt>
      <trkpt lat="44.61063" lon="6.63243">
        <ele>2041.99353</ele>
        <time>2011-08-09T10:35:51Z</time>
      </trkpt>
      <trkpt lat="44.61048" lon="6.63242">
        <ele>2044.699219</ele>
        <time>2011-08-09T10:36:03Z</time>
      </trkpt>
      <trkpt lat="44.6103" lon="6.63245">
        <ele>2047.152954</ele>
        <time>2011-08-09T10:39:12Z</time>
      </trkpt>
      <trkpt lat="44.61013" lon="6.6325">
        <ele>2049.215332</ele>
        <time>2011-08-09T10:39:16Z</time>
      </trkpt>
      <trkpt lat="44.61" lon="6.63268">
        <ele>2047.977539</ele>
        <time>2011-08-09T10:39:24Z</time>
      </trkpt>
      <trkpt lat="44.60988" lon="6.63285">
        <ele>2046.415161</ele>
        <time>2011-08-09T10:39:28Z</time>
      </trkpt>
      <trkpt lat="44.60973" lon="6.63302">
        <ele>2045.182373</ele>
        <time>2011-08-09T10:39:32Z</time>
      </trkpt>
      <trkpt lat="44.60953" lon="6.63317">
        <ele>2044.755737</ele>
        <time>2011-08-09T10:39:36Z</time>
      </trkpt>
      <trkpt lat="44.60915" lon="6.63343">
        <ele>2044.317139</ele>
        <time>2011-08-09T10:39:42Z</time>
      </trkpt>
      <trkpt lat="44.60893" lon="6.6337">
        <ele>2043.029785</ele>
        <time>2011-08-09T10:39:46Z</time>
      </trkpt>
      <trkpt lat="44.60882" lon="6.63382">
        <ele>2043.442749</ele>
        <time>2011-08-09T10:39:48Z</time>
      </trkpt>
      <trkpt lat="44.60872" lon="6.63402">
        <ele>2042.442261</ele>
        <time>2011-08-09T10:39:52Z</time>
      </trkpt>
      <trkpt lat="44.60887" lon="6.63422">
        <ele>2039.029663</ele>
        <time>2011-08-09T10:39:56Z</time>
      </trkpt>
      <trkpt lat="44.6091" lon="6.6343">
        <ele>2036.674683</ele>
        <time>2011-08-09T10:40:00Z</time>
      </trkpt>
      <trkpt lat="44.60928" lon="6.6343">
        <ele>2035.441772</ele>
        <time>2011-08-09T10:40:04Z</time>
      </trkpt>
      <trkpt lat="44.60945" lon="6.63425">
        <ele>2034.534424</ele>
        <time>2011-08-09T10:40:08Z</time>
      </trkpt>
      <trkpt lat="44.60962" lon="6.63413">
        <ele>2033.761597</ele>
        <time>2011-08-09T10:40:12Z</time>
      </trkpt>
      <trkpt lat="44.60973" lon="6.63402">
        <ele>2033.074097</ele>
        <time>2011-08-09T10:40:14Z</time>
      </trkpt>
      <trkpt lat="44.60988" lon="6.63392">
        <ele>2032.112305</ele>
        <time>2011-08-09T10:40:16Z</time>
      </trkpt>
      <trkpt lat="44.61012" lon="6.63392">
        <ele>2029.860962</ele>
        <time>2011-08-09T10:40:20Z</time>
      </trkpt>
      <trkpt lat="44.61038" lon="6.63388">
        <ele>2026.665405</ele>
        <time>2011-08-09T10:40:24Z</time>
      </trkpt>
      <trkpt lat="44.61053" lon="6.63385">
        <ele>2024.809204</ele>
        <time>2011-08-09T10:40:26Z</time>
      </trkpt>
      <trkpt lat="44.61068" lon="6.6338">
        <ele>2023.363403</ele>
        <time>2011-08-09T10:40:28Z</time>
      </trkpt>
      <trkpt lat="44.61085" lon="6.63375">
        <ele>2021.662109</ele>
        <time>2011-08-09T10:40:30Z</time>
      </trkpt>
      <trkpt lat="44.61168" lon="6.63348">
        <ele>2010.40332</ele>
        <time>2011-08-09T10:40:40Z</time>
      </trkpt>
      <trkpt lat="44.61185" lon="6.6334">
        <ele>2007.338745</ele>
        <time>2011-08-09T10:40:42Z</time>
      </trkpt>
      <trkpt lat="44.61237" lon="6.63315">
        <ele>1999.512451</ele>
        <time>2011-08-09T10:40:50Z</time>
      </trkpt>
      <trkpt lat="44.61262" lon="6.6332">
        <ele>1997.175415</ele>
        <time>2011-08-09T10:40:54Z</time>
      </trkpt>
      <trkpt lat="44.61288" lon="6.63325">
        <ele>1994.232788</ele>
        <time>2011-08-09T10:40:58Z</time>
      </trkpt>
      <trkpt lat="44.6131" lon="6.6332">
        <ele>1990.860596</ele>
        <time>2011-08-09T10:41:02Z</time>
      </trkpt>
      <trkpt lat="44.61322" lon="6.6331">
        <ele>1989.00354</ele>
        <time>2011-08-09T10:41:06Z</time>
      </trkpt>
      <trkpt lat="44.61328" lon="6.63288">
        <ele>1987.822266</ele>
        <time>2011-08-09T10:41:12Z</time>
      </trkpt>
      <trkpt lat="44.61317" lon="6.63277">
        <ele>1989.375366</ele>
        <time>2011-08-09T10:41:19Z</time>
      </trkpt>
      <trkpt lat="44.61305" lon="6.63267">
        <ele>1991.491089</ele>
        <time>2011-08-09T10:42:01Z</time>
      </trkpt>
      <trkpt lat="44.61298" lon="6.63285">
        <ele>1991.917114</ele>
        <time>2011-08-09T10:46:31Z</time>
      </trkpt>
      <trkpt lat="44.61285" lon="6.63293">
        <ele>1993.971191</ele>
        <time>2011-08-09T10:46:37Z</time>
      </trkpt>
      <trkpt lat="44.61272" lon="6.63307">
        <ele>1995.872437</ele>
        <time>2011-08-09T10:46:43Z</time>
      </trkpt>
      <trkpt lat="44.6126" lon="6.63318">
        <ele>1997.301514</ele>
        <time>2011-08-09T10:46:49Z</time>
      </trkpt>
      <trkpt lat="44.61217" lon="6.63358">
        <ele>2004.674683</ele>
        <time>2011-08-09T10:47:07Z</time>
      </trkpt>
      <trkpt lat="44.61175" lon="6.63397">
        <ele>2012.228638</ele>
        <time>2011-08-09T10:47:25Z</time>
      </trkpt>
      <trkpt lat="44.6111" lon="6.63457">
        <ele>2021.868896</ele>
        <time>2011-08-09T10:47:55Z</time>
      </trkpt>
      <trkpt lat="44.61095" lon="6.63468">
        <ele>2023.880005</ele>
        <time>2011-08-09T10:48:01Z</time>
      </trkpt>
      <trkpt lat="44.61083" lon="6.6348">
        <ele>2026.098633</ele>
        <time>2011-08-09T10:48:07Z</time>
      </trkpt>
      <trkpt lat="44.6107" lon="6.63492">
        <ele>2028.003784</ele>
        <time>2011-08-09T10:48:13Z</time>
      </trkpt>
      <trkpt lat="44.61058" lon="6.63503">
        <ele>2029.454834</ele>
        <time>2011-08-09T10:48:19Z</time>
      </trkpt>
      <trkpt lat="44.61045" lon="6.63515">
        <ele>2030.998047</ele>
        <time>2011-08-09T10:48:25Z</time>
      </trkpt>
      <trkpt lat="44.61018" lon="6.6354">
        <ele>2035.033447</ele>
        <time>2011-08-09T10:48:37Z</time>
      </trkpt>
      <trkpt lat="44.60643" lon="6.63875">
        <ele>2124.138916</ele>
        <time>2011-08-09T10:51:25Z</time>
      </trkpt>
      <trkpt lat="44.60442" lon="6.64063">
        <ele>2168.088135</ele>
        <time>2011-08-09T10:52:59Z</time>
      </trkpt>
      <trkpt lat="44.60325" lon="6.64168">
        <ele>2193.412109</ele>
        <time>2011-08-09T10:53:51Z</time>
      </trkpt>
      <trkpt lat="44.6024" lon="6.64247">
        <ele>2230.502686</ele>
        <time>2011-08-09T10:54:31Z</time>
      </trkpt>
      <trkpt lat="44.60218" lon="6.64263">
        <ele>2244.025391</ele>
        <time>2011-08-09T10:54:41Z</time>
      </trkpt>
      <trkpt lat="44.60203" lon="6.64277">
        <ele>2255.534912</ele>
        <time>2011-08-09T10:54:49Z</time>
      </trkpt>
      <trkpt lat="44.60192" lon="6.6429">
        <ele>2267.071533</ele>
        <time>2011-08-09T10:54:55Z</time>
      </trkpt>
      <trkpt lat="44.60178" lon="6.64305">
        <ele>2280.969971</ele>
        <time>2011-08-09T10:55:03Z</time>
      </trkpt>
      <trkpt lat="44.60163" lon="6.64318">
        <ele>2295.945801</ele>
        <time>2011-08-09T10:55:11Z</time>
      </trkpt>
      <trkpt lat="44.60148" lon="6.6433">
        <ele>2306.051514</ele>
        <time>2011-08-09T10:55:19Z</time>
      </trkpt>
      <trkpt lat="44.60135" lon="6.64343">
        <ele>2312.483887</ele>
        <time>2011-08-09T10:55:27Z</time>
      </trkpt>
      <trkpt lat="44.60045" lon="6.64422">
        <ele>2352.90332</ele>
        <time>2011-08-09T10:56:09Z</time>
      </trkpt>
      <trkpt lat="44.60028" lon="6.64435">
        <ele>2358.517334</ele>
        <time>2011-08-09T10:56:17Z</time>
      </trkpt>
      <trkpt lat="44.60012" lon="6.6445">
        <ele>2365.050537</ele>
        <time>2011-08-09T10:56:25Z</time>
      </trkpt>
      <trkpt lat="44.59998" lon="6.64463">
        <ele>2371.083008</ele>
        <time>2011-08-09T10:56:31Z</time>
      </trkpt>
      <trkpt lat="44.59938" lon="6.64517">
        <ele>2397.033691</ele>
        <time>2011-08-09T10:56:58Z</time>
      </trkpt>
      <trkpt lat="44.59908" lon="6.64545">
        <ele>2410.436523</ele>
        <time>2011-08-09T10:57:11Z</time>
      </trkpt>
      <trkpt lat="44.59835" lon="6.64613">
        <ele>2437.322021</ele>
        <time>2011-08-09T10:57:46Z</time>
      </trkpt>
      <trkpt lat="44.59748" lon="6.64693">
        <ele>2472.858398</ele>
        <time>2011-08-09T10:58:31Z</time>
      </trkpt>
      <trkpt lat="44.59662" lon="6.64768">
        <ele>2524.143066</ele>
        <time>2011-08-09T10:59:14Z</time>
      </trkpt>
      <trkpt lat="44.59648" lon="6.64778">
        <ele>2529.881348</ele>
        <time>2011-08-09T10:59:20Z</time>
      </trkpt>
      <trkpt lat="44.59635" lon="6.64788">
        <ele>2532.990967</ele>
        <time>2011-08-09T10:59:26Z</time>
      </trkpt>
      <trkpt lat="44.59623" lon="6.648">
        <ele>2532.096436</ele>
        <time>2011-08-09T11:03:16Z</time>
      </trkpt>
      <trkpt lat="44.59607" lon="6.64793">
        <ele>2532.07666</ele>
        <time>2011-08-09T11:03:26Z</time>
      </trkpt>
      <trkpt lat="44.5959" lon="6.64778">
        <ele>2531.11377</ele>
        <time>2011-08-09T11:03:32Z</time>
      </trkpt>
      <trkpt lat="44.5958" lon="6.64762">
        <ele>2529.503174</ele>
        <time>2011-08-09T11:03:36Z</time>
      </trkpt>
      <trkpt lat="44.59572" lon="6.64747">
        <ele>2528.983887</ele>
        <time>2011-08-09T11:03:40Z</time>
      </trkpt>
      <trkpt lat="44.59563" lon="6.6473">
        <ele>2529.331299</ele>
        <time>2011-08-09T11:03:46Z</time>
      </trkpt>
      <trkpt lat="44.59552" lon="6.64688">
        <ele>2527.443115</ele>
        <time>2011-08-09T11:03:58Z</time>
      </trkpt>
      <trkpt lat="44.59552" lon="6.64665">
        <ele>2525.81665</ele>
        <time>2011-08-09T11:04:04Z</time>
      </trkpt>
      <trkpt lat="44.5955" lon="6.6464">
        <ele>2524.079346</ele>
        <time>2011-08-09T11:04:11Z</time>
      </trkpt>
      <trkpt lat="44.59535" lon="6.6463">
        <ele>2521.419922</ele>
        <time>2011-08-09T11:04:17Z</time>
      </trkpt>
      <trkpt lat="44.59552" lon="6.6464">
        <ele>2524.275146</ele>
        <time>2011-08-09T11:06:35Z</time>
      </trkpt>
      <trkpt lat="44.59553" lon="6.64662">
        <ele>2525.718994</ele>
        <time>2011-08-09T11:06:39Z</time>
      </trkpt>
      <trkpt lat="44.59552" lon="6.64685">
        <ele>2527.21167</ele>
        <time>2011-08-09T11:06:43Z</time>
      </trkpt>
      <trkpt lat="44.59558" lon="6.64708">
        <ele>2529.260742</ele>
        <time>2011-08-09T11:06:47Z</time>
      </trkpt>
      <trkpt lat="44.5955" lon="6.64728">
        <ele>2528.893799</ele>
        <time>2011-08-09T11:06:53Z</time>
      </trkpt>
      <trkpt lat="44.59535" lon="6.64732">
        <ele>2527.425537</ele>
        <time>2011-08-09T11:06:59Z</time>
      </trkpt>
      <trkpt lat="44.59517" lon="6.64728">
        <ele>2526.092773</ele>
        <time>2011-08-09T11:07:05Z</time>
      </trkpt>
      <trkpt lat="44.59483" lon="6.64723">
        <ele>2521.898926</ele>
        <time>2011-08-09T11:07:11Z</time>
      </trkpt>
      <trkpt lat="44.59468" lon="6.64732">
        <ele>2519.720703</ele>
        <time>2011-08-09T11:07:15Z</time>
      </trkpt>
      <trkpt lat="44.59453" lon="6.64742">
        <ele>2518.181885</ele>
        <time>2011-08-09T11:07:17Z</time>
      </trkpt>
      <trkpt lat="44.59418" lon="6.64763">
        <ele>2519.264404</ele>
        <time>2011-08-09T11:07:23Z</time>
      </trkpt>
      <trkpt lat="44.59387" lon="6.64783">
        <ele>2517.743164</ele>
        <time>2011-08-09T11:07:28Z</time>
      </trkpt>
      <trkpt lat="44.5935" lon="6.6481">
        <ele>2515.640625</ele>
        <time>2011-08-09T11:07:34Z</time>
      </trkpt>
      <trkpt lat="44.59333" lon="6.64833">
        <ele>2517.938232</ele>
        <time>2011-08-09T11:07:38Z</time>
      </trkpt>
      <trkpt lat="44.59317" lon="6.64857">
        <ele>2510.078125</ele>
        <time>2011-08-09T11:07:42Z</time>
      </trkpt>
      <trkpt lat="44.59298" lon="6.64875">
        <ele>2503.556885</ele>
        <time>2011-08-09T11:07:46Z</time>
      </trkpt>
      <trkpt lat="44.5928" lon="6.64882">
        <ele>2500.023926</ele>
        <time>2011-08-09T11:07:50Z</time>
      </trkpt>
      <trkpt lat="44.59258" lon="6.64875">
        <ele>2492.858154</ele>
        <time>2011-08-09T11:07:54Z</time>
      </trkpt>
      <trkpt lat="44.59237" lon="6.64862">
        <ele>2485.332764</ele>
        <time>2011-08-09T11:07:58Z</time>
      </trkpt>
      <trkpt lat="44.59213" lon="6.6485">
        <ele>2477.687256</ele>
        <time>2011-08-09T11:08:02Z</time>
      </trkpt>
      <trkpt lat="44.59188" lon="6.64845">
        <ele>2469.105713</ele>
        <time>2011-08-09T11:08:06Z</time>
      </trkpt>
      <trkpt lat="44.59162" lon="6.6485">
        <ele>2461.364502</ele>
        <time>2011-08-09T11:08:10Z</time>
      </trkpt>
      <trkpt lat="44.5914" lon="6.64862">
        <ele>2458.081055</ele>
        <time>2011-08-09T11:08:12Z</time>
      </trkpt>
      <trkpt lat="44.59125" lon="6.64872">
        <ele>2457.825195</ele>
        <time>2011-08-09T11:08:14Z</time>
      </trkpt>
      <trkpt lat="44.5909" lon="6.64895">
        <ele>2453.958496</ele>
        <time>2011-08-09T11:08:21Z</time>
      </trkpt>
      <trkpt lat="44.591" lon="6.64875">
        <ele>2454.671631</ele>
        <time>2011-08-09T11:08:49Z</time>
      </trkpt>
      <trkpt lat="44.59117" lon="6.64858">
        <ele>2453.484131</ele>
        <time>2011-08-09T11:08:55Z</time>
      </trkpt>
      <trkpt lat="44.59133" lon="6.6484">
        <ele>2452.460693</ele>
        <time>2011-08-09T11:08:59Z</time>
      </trkpt>
      <trkpt lat="44.59148" lon="6.64818">
        <ele>2451.519287</ele>
        <time>2011-08-09T11:09:03Z</time>
      </trkpt>
      <trkpt lat="44.59168" lon="6.64797">
        <ele>2450.603027</ele>
        <time>2011-08-09T11:09:07Z</time>
      </trkpt>
      <trkpt lat="44.59187" lon="6.64783">
        <ele>2451.268555</ele>
        <time>2011-08-09T11:09:09Z</time>
      </trkpt>
      <trkpt lat="44.5921" lon="6.64767">
        <ele>2452.209473</ele>
        <time>2011-08-09T11:09:13Z</time>
      </trkpt>
      <trkpt lat="44.59233" lon="6.64743">
        <ele>2451.640869</ele>
        <time>2011-08-09T11:09:17Z</time>
      </trkpt>
      <trkpt lat="44.59245" lon="6.6473">
        <ele>2451.113037</ele>
        <time>2011-08-09T11:09:19Z</time>
      </trkpt>
      <trkpt lat="44.59253" lon="6.64715">
        <ele>2449.045654</ele>
        <time>2011-08-09T11:09:21Z</time>
      </trkpt>
      <trkpt lat="44.59262" lon="6.64695">
        <ele>2445.104492</ele>
        <time>2011-08-09T11:09:23Z</time>
      </trkpt>
      <trkpt lat="44.59268" lon="6.64677">
        <ele>2444.75</ele>
        <time>2011-08-09T11:09:25Z</time>
      </trkpt>
      <trkpt lat="44.59282" lon="6.64637">
        <ele>2442.736328</ele>
        <time>2011-08-09T11:09:29Z</time>
      </trkpt>
      <trkpt lat="44.59287" lon="6.64615">
        <ele>2442.030273</ele>
        <time>2011-08-09T11:09:32Z</time>
      </trkpt>
      <trkpt lat="44.59287" lon="6.64592">
        <ele>2439.546143</ele>
        <time>2011-08-09T11:09:34Z</time>
      </trkpt>
      <trkpt lat="44.59287" lon="6.6457">
        <ele>2437.181641</ele>
        <time>2011-08-09T11:09:36Z</time>
      </trkpt>
      <trkpt lat="44.59285" lon="6.64548">
        <ele>2433.556396</ele>
        <time>2011-08-09T11:09:38Z</time>
      </trkpt>
      <trkpt lat="44.59288" lon="6.64527">
        <ele>2431.75708</ele>
        <time>2011-08-09T11:09:40Z</time>
      </trkpt>
      <trkpt lat="44.59295" lon="6.64505">
        <ele>2430.797607</ele>
        <time>2011-08-09T11:09:42Z</time>
      </trkpt>
      <trkpt lat="44.59308" lon="6.64472">
        <ele>2425.532227</ele>
        <time>2011-08-09T11:09:46Z</time>
      </trkpt>
      <trkpt lat="44.59317" lon="6.64453">
        <ele>2423.377441</ele>
        <time>2011-08-09T11:10:06Z</time>
      </trkpt>
      <trkpt lat="44.59328" lon="6.64438">
        <ele>2422.762695</ele>
        <time>2011-08-09T11:10:10Z</time>
      </trkpt>
      <trkpt lat="44.59347" lon="6.64425">
        <ele>2423.796875</ele>
        <time>2011-08-09T11:10:14Z</time>
      </trkpt>
      <trkpt lat="44.59368" lon="6.64422">
        <ele>2424.832275</ele>
        <time>2011-08-09T11:10:18Z</time>
      </trkpt>
      <trkpt lat="44.59382" lon="6.64417">
        <ele>2424.679199</ele>
        <time>2011-08-09T11:10:20Z</time>
      </trkpt>
      <trkpt lat="44.59443" lon="6.64395">
        <ele>2424.367676</ele>
        <time>2011-08-09T11:10:31Z</time>
      </trkpt>
      <trkpt lat="44.59463" lon="6.6437">
        <ele>2421.1875</ele>
        <time>2011-08-09T11:10:35Z</time>
      </trkpt>
      <trkpt lat="44.59483" lon="6.64345">
        <ele>2417.675537</ele>
        <time>2011-08-09T11:10:39Z</time>
      </trkpt>
      <trkpt lat="44.595" lon="6.64328">
        <ele>2419.949463</ele>
        <time>2011-08-09T11:10:43Z</time>
      </trkpt>
      <trkpt lat="44.59515" lon="6.64307">
        <ele>2419.101807</ele>
        <time>2011-08-09T11:10:47Z</time>
      </trkpt>
      <trkpt lat="44.59532" lon="6.64285">
        <ele>2418.679199</ele>
        <time>2011-08-09T11:10:51Z</time>
      </trkpt>
      <trkpt lat="44.59547" lon="6.64257">
        <ele>2418.025391</ele>
        <time>2011-08-09T11:10:55Z</time>
      </trkpt>
      <trkpt lat="44.5957" lon="6.64208">
        <ele>2413.451416</ele>
        <time>2011-08-09T11:11:01Z</time>
      </trkpt>
      <trkpt lat="44.59577" lon="6.64188">
        <ele>2411.671631</ele>
        <time>2011-08-09T11:11:03Z</time>
      </trkpt>
      <trkpt lat="44.59582" lon="6.64167">
        <ele>2408.156006</ele>
        <time>2011-08-09T11:11:05Z</time>
      </trkpt>
      <trkpt lat="44.59582" lon="6.64143">
        <ele>2405.238037</ele>
        <time>2011-08-09T11:11:07Z</time>
      </trkpt>
      <trkpt lat="44.59572" lon="6.64102">
        <ele>2402.334717</ele>
        <time>2011-08-09T11:11:11Z</time>
      </trkpt>
      <trkpt lat="44.59573" lon="6.64072">
        <ele>2398.875488</ele>
        <time>2011-08-09T11:11:15Z</time>
      </trkpt>
      <trkpt lat="44.59592" lon="6.64045">
        <ele>2397.067627</ele>
        <time>2011-08-09T11:11:19Z</time>
      </trkpt>
      <trkpt lat="44.59612" lon="6.64023">
        <ele>2396.31543</ele>
        <time>2011-08-09T11:11:23Z</time>
      </trkpt>
      <trkpt lat="44.59622" lon="6.6401">
        <ele>2394.550293</ele>
        <time>2011-08-09T11:11:25Z</time>
      </trkpt>
      <trkpt lat="44.5965" lon="6.63978">
        <ele>2387.167725</ele>
        <time>2011-08-09T11:11:31Z</time>
      </trkpt>
      <trkpt lat="44.5966" lon="6.63963">
        <ele>2383.039063</ele>
        <time>2011-08-09T11:11:35Z</time>
      </trkpt>
      <trkpt lat="44.59667" lon="6.63933">
        <ele>2374.80957</ele>
        <time>2011-08-09T11:11:39Z</time>
      </trkpt>
      <trkpt lat="44.59668" lon="6.63913">
        <ele>2369.380859</ele>
        <time>2011-08-09T11:11:41Z</time>
      </trkpt>
      <trkpt lat="44.59673" lon="6.63847">
        <ele>2367.164307</ele>
        <time>2011-08-09T11:11:48Z</time>
      </trkpt>
      <trkpt lat="44.59678" lon="6.63828">
        <ele>2371.311523</ele>
        <time>2011-08-09T11:11:50Z</time>
      </trkpt>
      <trkpt lat="44.59683" lon="6.63808">
        <ele>2376.287354</ele>
        <time>2011-08-09T11:11:54Z</time>
      </trkpt>
      <trkpt lat="44.59672" lon="6.63818">
        <ele>2372.451904</ele>
        <time>2011-08-09T11:12:30Z</time>
      </trkpt>
      <trkpt lat="44.59662" lon="6.6384">
        <ele>2366.986328</ele>
        <time>2011-08-09T11:12:36Z</time>
      </trkpt>
      <trkpt lat="44.59647" lon="6.63863">
        <ele>2365.83252</ele>
        <time>2011-08-09T11:12:40Z</time>
      </trkpt>
      <trkpt lat="44.5963" lon="6.6389">
        <ele>2365.554932</ele>
        <time>2011-08-09T11:12:44Z</time>
      </trkpt>
      <trkpt lat="44.5961" lon="6.63922">
        <ele>2366.428711</ele>
        <time>2011-08-09T11:12:48Z</time>
      </trkpt>
      <trkpt lat="44.59595" lon="6.63932">
        <ele>2365.372559</ele>
        <time>2011-08-09T11:12:50Z</time>
      </trkpt>
      <trkpt lat="44.59568" lon="6.63943">
        <ele>2361.973633</ele>
        <time>2011-08-09T11:12:52Z</time>
      </trkpt>
      <trkpt lat="44.5953" lon="6.63962">
        <ele>2358.666016</ele>
        <time>2011-08-09T11:12:58Z</time>
      </trkpt>
      <trkpt lat="44.5953" lon="6.63938">
        <ele>2352.162598</ele>
        <time>2011-08-09T11:13:06Z</time>
      </trkpt>
      <trkpt lat="44.5955" lon="6.63925">
        <ele>2352.918701</ele>
        <time>2011-08-09T11:13:13Z</time>
      </trkpt>
      <trkpt lat="44.59565" lon="6.63913">
        <ele>2353.497314</ele>
        <time>2011-08-09T11:13:17Z</time>
      </trkpt>
      <trkpt lat="44.59548" lon="6.63903">
        <ele>2346.824707</ele>
        <time>2011-08-09T11:13:23Z</time>
      </trkpt>
      <trkpt lat="44.59522" lon="6.63912">
        <ele>2342.811279</ele>
        <time>2011-08-09T11:13:27Z</time>
      </trkpt>
      <trkpt lat="44.595" lon="6.63915">
        <ele>2338.90332</ele>
        <time>2011-08-09T11:13:31Z</time>
      </trkpt>
      <trkpt lat="44.5948" lon="6.63925">
        <ele>2334.987793</ele>
        <time>2011-08-09T11:13:35Z</time>
      </trkpt>
      <trkpt lat="44.59463" lon="6.63955">
        <ele>2336.250977</ele>
        <time>2011-08-09T11:13:39Z</time>
      </trkpt>
      <trkpt lat="44.5945" lon="6.63982">
        <ele>2339.36499</ele>
        <time>2011-08-09T11:13:43Z</time>
      </trkpt>
      <trkpt lat="44.59437" lon="6.6399">
        <ele>2337.553467</ele>
        <time>2011-08-09T11:13:45Z</time>
      </trkpt>
      <trkpt lat="44.59422" lon="6.63992">
        <ele>2332.97998</ele>
        <time>2011-08-09T11:13:47Z</time>
      </trkpt>
      <trkpt lat="44.59405" lon="6.63995">
        <ele>2328.347168</ele>
        <time>2011-08-09T11:13:49Z</time>
      </trkpt>
      <trkpt lat="44.5939" lon="6.63997">
        <ele>2325.579102</ele>
        <time>2011-08-09T11:13:51Z</time>
      </trkpt>
      <trkpt lat="44.59375" lon="6.63993">
        <ele>2321.841309</ele>
        <time>2011-08-09T11:13:53Z</time>
      </trkpt>
      <trkpt lat="44.59353" lon="6.64008">
        <ele>2319.563232</ele>
        <time>2011-08-09T11:13:57Z</time>
      </trkpt>
      <trkpt lat="44.59343" lon="6.64027">
        <ele>2320.131348</ele>
        <time>2011-08-09T11:13:59Z</time>
      </trkpt>
      <trkpt lat="44.59333" lon="6.64042">
        <ele>2320.213867</ele>
        <time>2011-08-09T11:14:01Z</time>
      </trkpt>
      <trkpt lat="44.5932" lon="6.64048">
        <ele>2318.775635</ele>
        <time>2011-08-09T11:14:03Z</time>
      </trkpt>
      <trkpt lat="44.59297" lon="6.64038">
        <ele>2315.488037</ele>
        <time>2011-08-09T11:14:07Z</time>
      </trkpt>
      <trkpt lat="44.59278" lon="6.64025">
        <ele>2312.078613</ele>
        <time>2011-08-09T11:14:11Z</time>
      </trkpt>
      <trkpt lat="44.59268" lon="6.64012">
        <ele>2308.821045</ele>
        <time>2011-08-09T11:14:13Z</time>
      </trkpt>
      <trkpt lat="44.59265" lon="6.63988">
        <ele>2305.237549</ele>
        <time>2011-08-09T11:14:17Z</time>
      </trkpt>
      <trkpt lat="44.59275" lon="6.63967">
        <ele>2304.149414</ele>
        <time>2011-08-09T11:14:23Z</time>
      </trkpt>
      <trkpt lat="44.59285" lon="6.63938">
        <ele>2302.402588</ele>
        <time>2011-08-09T11:14:27Z</time>
      </trkpt>
      <trkpt lat="44.5927" lon="6.63912">
        <ele>2297.963379</ele>
        <time>2011-08-09T11:14:32Z</time>
      </trkpt>
      <trkpt lat="44.59257" lon="6.63918">
        <ele>2296.625977</ele>
        <time>2011-08-09T11:14:34Z</time>
      </trkpt>
      <trkpt lat="44.59245" lon="6.63932">
        <ele>2295.959473</ele>
        <time>2011-08-09T11:14:36Z</time>
      </trkpt>
      <trkpt lat="44.59215" lon="6.6396">
        <ele>2294.280762</ele>
        <time>2011-08-09T11:14:42Z</time>
      </trkpt>
      <trkpt lat="44.59195" lon="6.63947">
        <ele>2289.324707</ele>
        <time>2011-08-09T11:14:46Z</time>
      </trkpt>
      <trkpt lat="44.59177" lon="6.63942">
        <ele>2285.49585</ele>
        <time>2011-08-09T11:14:50Z</time>
      </trkpt>
      <trkpt lat="44.59158" lon="6.6396">
        <ele>2284.390381</ele>
        <time>2011-08-09T11:14:54Z</time>
      </trkpt>
      <trkpt lat="44.59148" lon="6.63973">
        <ele>2284.325439</ele>
        <time>2011-08-09T11:14:56Z</time>
      </trkpt>
      <trkpt lat="44.59138" lon="6.63988">
        <ele>2284.577148</ele>
        <time>2011-08-09T11:14:58Z</time>
      </trkpt>
      <trkpt lat="44.5913" lon="6.64003">
        <ele>2284.691162</ele>
        <time>2011-08-09T11:15:00Z</time>
      </trkpt>
      <trkpt lat="44.59108" lon="6.64035">
        <ele>2283.392822</ele>
        <time>2011-08-09T11:15:06Z</time>
      </trkpt>
      <trkpt lat="44.59105" lon="6.64057">
        <ele>2284.865967</ele>
        <time>2011-08-09T11:15:12Z</time>
      </trkpt>
      <trkpt lat="44.59092" lon="6.64068">
        <ele>2284.016602</ele>
        <time>2011-08-09T11:15:18Z</time>
      </trkpt>
      <trkpt lat="44.59077" lon="6.64075">
        <ele>2283.276123</ele>
        <time>2011-08-09T11:15:24Z</time>
      </trkpt>
      <trkpt lat="44.5906" lon="6.6408">
        <ele>2282.470947</ele>
        <time>2011-08-09T11:15:30Z</time>
      </trkpt>
      <trkpt lat="44.59038" lon="6.64082">
        <ele>2280.628906</ele>
        <time>2011-08-09T11:15:36Z</time>
      </trkpt>
      <trkpt lat="44.59022" lon="6.6408">
        <ele>2278.515625</ele>
        <time>2011-08-09T11:15:40Z</time>
      </trkpt>
      <trkpt lat="44.59003" lon="6.64083">
        <ele>2277.266357</ele>
        <time>2011-08-09T11:15:44Z</time>
      </trkpt>
      <trkpt lat="44.58978" lon="6.64097">
        <ele>2276.718506</ele>
        <time>2011-08-09T11:15:48Z</time>
      </trkpt>
      <trkpt lat="44.58947" lon="6.64117">
        <ele>2276.390381</ele>
        <time>2011-08-09T11:15:54Z</time>
      </trkpt>
      <trkpt lat="44.58923" lon="6.6412">
        <ele>2272.810303</ele>
        <time>2011-08-09T11:15:59Z</time>
      </trkpt>
      <trkpt lat="44.5891" lon="6.64115">
        <ele>2269.286133</ele>
        <time>2011-08-09T11:16:01Z</time>
      </trkpt>
      <trkpt lat="44.5889" lon="6.64135">
        <ele>2270.01709</ele>
        <time>2011-08-09T11:16:05Z</time>
      </trkpt>
      <trkpt lat="44.58887" lon="6.64153">
        <ele>2272.983887</ele>
        <time>2011-08-09T11:16:07Z</time>
      </trkpt>
      <trkpt lat="44.58883" lon="6.64173">
        <ele>2275.407715</ele>
        <time>2011-08-09T11:16:09Z</time>
      </trkpt>
      <trkpt lat="44.58863" lon="6.64183">
        <ele>2272.914063</ele>
        <time>2011-08-09T11:16:13Z</time>
      </trkpt>
      <trkpt lat="44.58842" lon="6.64175">
        <ele>2271.433838</ele>
        <time>2011-08-09T11:16:17Z</time>
      </trkpt>
      <trkpt lat="44.58818" lon="6.6416">
        <ele>2269.346191</ele>
        <time>2011-08-09T11:16:21Z</time>
      </trkpt>
      <trkpt lat="44.58795" lon="6.64155">
        <ele>2269.228027</ele>
        <time>2011-08-09T11:16:25Z</time>
      </trkpt>
      <trkpt lat="44.58782" lon="6.64162">
        <ele>2270.869873</ele>
        <time>2011-08-09T11:16:27Z</time>
      </trkpt>
      <trkpt lat="44.58768" lon="6.64165">
        <ele>2271.907227</ele>
        <time>2011-08-09T11:16:29Z</time>
      </trkpt>
      <trkpt lat="44.58743" lon="6.6416">
        <ele>2272.224121</ele>
        <time>2011-08-09T11:16:33Z</time>
      </trkpt>
      <trkpt lat="44.5873" lon="6.64155">
        <ele>2272.210693</ele>
        <time>2011-08-09T11:16:37Z</time>
      </trkpt>
      <trkpt lat="44.58725" lon="6.64137">
        <ele>2271.134277</ele>
        <time>2011-08-09T11:16:49Z</time>
      </trkpt>
      <trkpt lat="44.58735" lon="6.64115">
        <ele>2268.865967</ele>
        <time>2011-08-09T11:16:55Z</time>
      </trkpt>
      <trkpt lat="44.58743" lon="6.64095">
        <ele>2266.367676</ele>
        <time>2011-08-09T11:17:01Z</time>
      </trkpt>
      <trkpt lat="44.58752" lon="6.64077">
        <ele>2265.063721</ele>
        <time>2011-08-09T11:17:05Z</time>
      </trkpt>
      <trkpt lat="44.58762" lon="6.64058">
        <ele>2263.679443</ele>
        <time>2011-08-09T11:17:10Z</time>
      </trkpt>
      <trkpt lat="44.58772" lon="6.64037">
        <ele>2261.783936</ele>
        <time>2011-08-09T11:17:14Z</time>
      </trkpt>
      <trkpt lat="44.58773" lon="6.64007">
        <ele>2261.232422</ele>
        <time>2011-08-09T11:17:18Z</time>
      </trkpt>
      <trkpt lat="44.58762" lon="6.63972">
        <ele>2263.586182</ele>
        <time>2011-08-09T11:17:22Z</time>
      </trkpt>
      <trkpt lat="44.58752" lon="6.63952">
        <ele>2265.05542</ele>
        <time>2011-08-09T11:17:24Z</time>
      </trkpt>
      <trkpt lat="44.58742" lon="6.63933">
        <ele>2266.046143</ele>
        <time>2011-08-09T11:17:26Z</time>
      </trkpt>
      <trkpt lat="44.5872" lon="6.6389">
        <ele>2266.594971</ele>
        <time>2011-08-09T11:17:30Z</time>
      </trkpt>
      <trkpt lat="44.58715" lon="6.63863">
        <ele>2265.031982</ele>
        <time>2011-08-09T11:17:32Z</time>
      </trkpt>
      <trkpt lat="44.58708" lon="6.63842">
        <ele>2264.186035</ele>
        <time>2011-08-09T11:17:34Z</time>
      </trkpt>
      <trkpt lat="44.58697" lon="6.63823">
        <ele>2264.931885</ele>
        <time>2011-08-09T11:17:36Z</time>
      </trkpt>
      <trkpt lat="44.58688" lon="6.63807">
        <ele>2265.697998</ele>
        <time>2011-08-09T11:17:38Z</time>
      </trkpt>
      <trkpt lat="44.58688" lon="6.63787">
        <ele>2264.88501</ele>
        <time>2011-08-09T11:17:40Z</time>
      </trkpt>
      <trkpt lat="44.58697" lon="6.63772">
        <ele>2262.765137</ele>
        <time>2011-08-09T11:17:42Z</time>
      </trkpt>
      <trkpt lat="44.58708" lon="6.63757">
        <ele>2260.513428</ele>
        <time>2011-08-09T11:17:44Z</time>
      </trkpt>
      <trkpt lat="44.58722" lon="6.63745">
        <ele>2258.024658</ele>
        <time>2011-08-09T11:17:46Z</time>
      </trkpt>
      <trkpt lat="44.58738" lon="6.6374">
        <ele>2254.999268</ele>
        <time>2011-08-09T11:17:48Z</time>
      </trkpt>
      <trkpt lat="44.58753" lon="6.63733">
        <ele>2252.084717</ele>
        <time>2011-08-09T11:17:50Z</time>
      </trkpt>
      <trkpt lat="44.58765" lon="6.63718">
        <ele>2249.57373</ele>
        <time>2011-08-09T11:17:52Z</time>
      </trkpt>
      <trkpt lat="44.58775" lon="6.63698">
        <ele>2247.602295</ele>
        <time>2011-08-09T11:17:54Z</time>
      </trkpt>
      <trkpt lat="44.58787" lon="6.6368">
        <ele>2245.414063</ele>
        <time>2011-08-09T11:17:56Z</time>
      </trkpt>
      <trkpt lat="44.588" lon="6.63663">
        <ele>2242.724609</ele>
        <time>2011-08-09T11:17:58Z</time>
      </trkpt>
      <trkpt lat="44.58817" lon="6.63637">
        <ele>2239.061279</ele>
        <time>2011-08-09T11:18:00Z</time>
      </trkpt>
      <trkpt lat="44.58828" lon="6.63622">
        <ele>2236.624756</ele>
        <time>2011-08-09T11:18:02Z</time>
      </trkpt>
      <trkpt lat="44.58835" lon="6.63597">
        <ele>2235.409668</ele>
        <time>2011-08-09T11:18:06Z</time>
      </trkpt>
      <trkpt lat="44.58827" lon="6.6358">
        <ele>2235.770264</ele>
        <time>2011-08-09T11:18:08Z</time>
      </trkpt>
      <trkpt lat="44.58827" lon="6.63558">
        <ele>2233.315674</ele>
        <time>2011-08-09T11:18:10Z</time>
      </trkpt>
      <trkpt lat="44.5881" lon="6.6353">
        <ele>2235.45874</ele>
        <time>2011-08-09T11:18:14Z</time>
      </trkpt>
      <trkpt lat="44.58808" lon="6.63498">
        <ele>2236.271973</ele>
        <time>2011-08-09T11:18:19Z</time>
      </trkpt>
      <trkpt lat="44.58818" lon="6.63478">
        <ele>2232.550537</ele>
        <time>2011-08-09T11:18:21Z</time>
      </trkpt>
      <trkpt lat="44.58827" lon="6.63457">
        <ele>2229.326416</ele>
        <time>2011-08-09T11:18:23Z</time>
      </trkpt>
      <trkpt lat="44.58837" lon="6.63432">
        <ele>2225.829346</ele>
        <time>2011-08-09T11:18:25Z</time>
      </trkpt>
      <trkpt lat="44.58847" lon="6.63407">
        <ele>2221.889648</ele>
        <time>2011-08-09T11:18:27Z</time>
      </trkpt>
      <trkpt lat="44.5886" lon="6.63388">
        <ele>2216.734375</ele>
        <time>2011-08-09T11:18:29Z</time>
      </trkpt>
      <trkpt lat="44.58875" lon="6.63377">
        <ele>2210.676514</ele>
        <time>2011-08-09T11:18:31Z</time>
      </trkpt>
      <trkpt lat="44.5889" lon="6.63365">
        <ele>2204.881348</ele>
        <time>2011-08-09T11:18:33Z</time>
      </trkpt>
      <trkpt lat="44.58898" lon="6.63347">
        <ele>2203.726807</ele>
        <time>2011-08-09T11:18:35Z</time>
      </trkpt>
      <trkpt lat="44.58915" lon="6.63307">
        <ele>2200.746582</ele>
        <time>2011-08-09T11:18:39Z</time>
      </trkpt>
      <trkpt lat="44.58922" lon="6.63287">
        <ele>2199.291016</ele>
        <time>2011-08-09T11:18:41Z</time>
      </trkpt>
      <trkpt lat="44.58925" lon="6.63267">
        <ele>2199.06665</ele>
        <time>2011-08-09T11:18:43Z</time>
      </trkpt>
      <trkpt lat="44.58923" lon="6.63242">
        <ele>2201.313232</ele>
        <time>2011-08-09T11:18:47Z</time>
      </trkpt>
      <trkpt lat="44.58937" lon="6.63217">
        <ele>2196.083496</ele>
        <time>2011-08-09T11:18:51Z</time>
      </trkpt>
      <trkpt lat="44.5894" lon="6.63198">
        <ele>2193.426514</ele>
        <time>2011-08-09T11:18:53Z</time>
      </trkpt>
      <trkpt lat="44.58947" lon="6.63168">
        <ele>2188.635254</ele>
        <time>2011-08-09T11:18:57Z</time>
      </trkpt>
      <trkpt lat="44.58962" lon="6.63172">
        <ele>2183.157227</ele>
        <time>2011-08-09T11:18:59Z</time>
      </trkpt>
      <trkpt lat="44.58963" lon="6.63202">
        <ele>2184.685059</ele>
        <time>2011-08-09T11:19:03Z</time>
      </trkpt>
      <trkpt lat="44.5896" lon="6.6322">
        <ele>2187.229004</ele>
        <time>2011-08-09T11:19:05Z</time>
      </trkpt>
      <trkpt lat="44.58967" lon="6.63242">
        <ele>2184.953857</ele>
        <time>2011-08-09T11:19:09Z</time>
      </trkpt>
      <trkpt lat="44.58972" lon="6.63273">
        <ele>2183.305664</ele>
        <time>2011-08-09T11:19:13Z</time>
      </trkpt>
      <trkpt lat="44.5897" lon="6.63305">
        <ele>2183.914307</ele>
        <time>2011-08-09T11:19:18Z</time>
      </trkpt>
      <trkpt lat="44.58987" lon="6.63307">
        <ele>2180.204102</ele>
        <time>2011-08-09T11:20:08Z</time>
      </trkpt>
      <trkpt lat="44.59002" lon="6.63283">
        <ele>2177.330078</ele>
        <time>2011-08-09T11:20:26Z</time>
      </trkpt>
      <trkpt lat="44.59008" lon="6.63255">
        <ele>2174.694336</ele>
        <time>2011-08-09T11:20:32Z</time>
      </trkpt>
      <trkpt lat="44.59003" lon="6.63228">
        <ele>2174.344727</ele>
        <time>2011-08-09T11:20:36Z</time>
      </trkpt>
      <trkpt lat="44.58995" lon="6.632">
        <ele>2173.925537</ele>
        <time>2011-08-09T11:20:40Z</time>
      </trkpt>
      <trkpt lat="44.58998" lon="6.63182">
        <ele>2171.664307</ele>
        <time>2011-08-09T11:20:43Z</time>
      </trkpt>
      <trkpt lat="44.59008" lon="6.63135">
        <ele>2164.374512</ele>
        <time>2011-08-09T11:20:49Z</time>
      </trkpt>
      <trkpt lat="44.5899" lon="6.6312">
        <ele>2164.816895</ele>
        <time>2011-08-09T11:20:53Z</time>
      </trkpt>
      <trkpt lat="44.58972" lon="6.63112">
        <ele>2171.310791</ele>
        <time>2011-08-09T11:20:57Z</time>
      </trkpt>
      <trkpt lat="44.58963" lon="6.63078">
        <ele>2170.580078</ele>
        <time>2011-08-09T11:21:01Z</time>
      </trkpt>
      <trkpt lat="44.58963" lon="6.63055">
        <ele>2167.75</ele>
        <time>2011-08-09T11:21:03Z</time>
      </trkpt>
      <trkpt lat="44.58962" lon="6.6303">
        <ele>2165.361328</ele>
        <time>2011-08-09T11:21:05Z</time>
      </trkpt>
      <trkpt lat="44.58958" lon="6.62978">
        <ele>2160.158447</ele>
        <time>2011-08-09T11:21:09Z</time>
      </trkpt>
      <trkpt lat="44.58953" lon="6.62952">
        <ele>2159.114014</ele>
        <time>2011-08-09T11:21:11Z</time>
      </trkpt>
      <trkpt lat="44.58953" lon="6.62927">
        <ele>2156.343506</ele>
        <time>2011-08-09T11:21:13Z</time>
      </trkpt>
      <trkpt lat="44.58953" lon="6.62873">
        <ele>2149.982666</ele>
        <time>2011-08-09T11:21:17Z</time>
      </trkpt>
      <trkpt lat="44.58952" lon="6.62847">
        <ele>2147.265381</ele>
        <time>2011-08-09T11:21:19Z</time>
      </trkpt>
      <trkpt lat="44.58948" lon="6.62828">
        <ele>2146.526611</ele>
        <time>2011-08-09T11:21:21Z</time>
      </trkpt>
      <trkpt lat="44.58935" lon="6.62808">
        <ele>2151.345459</ele>
        <time>2011-08-09T11:21:25Z</time>
      </trkpt>
      <trkpt lat="44.58937" lon="6.62788">
        <ele>2148.939697</ele>
        <time>2011-08-09T11:21:31Z</time>
      </trkpt>
      <trkpt lat="44.58948" lon="6.62768">
        <ele>2142.051758</ele>
        <time>2011-08-09T11:21:35Z</time>
      </trkpt>
      <trkpt lat="44.58955" lon="6.62743">
        <ele>2139.427246</ele>
        <time>2011-08-09T11:21:37Z</time>
      </trkpt>
      <trkpt lat="44.58963" lon="6.62723">
        <ele>2135.877441</ele>
        <time>2011-08-09T11:21:41Z</time>
      </trkpt>
      <trkpt lat="44.58965" lon="6.627">
        <ele>2135.309814</ele>
        <time>2011-08-09T11:21:50Z</time>
      </trkpt>
      <trkpt lat="44.58962" lon="6.62677">
        <ele>2137.015137</ele>
        <time>2011-08-09T11:21:54Z</time>
      </trkpt>
      <trkpt lat="44.58967" lon="6.62638">
        <ele>2132.968018</ele>
        <time>2011-08-09T11:21:57Z</time>
      </trkpt>
      <trkpt lat="44.58973" lon="6.62597">
        <ele>2126.211914</ele>
        <time>2011-08-09T11:22:02Z</time>
      </trkpt>
      <trkpt lat="44.58972" lon="6.62575">
        <ele>2124.985352</ele>
        <time>2011-08-09T11:22:04Z</time>
      </trkpt>
      <trkpt lat="44.58968" lon="6.62553">
        <ele>2124.295166</ele>
        <time>2011-08-09T11:22:06Z</time>
      </trkpt>
      <trkpt lat="44.58967" lon="6.62528">
        <ele>2122.433594</ele>
        <time>2011-08-09T11:22:08Z</time>
      </trkpt>
      <trkpt lat="44.58967" lon="6.62505">
        <ele>2118.83252</ele>
        <time>2011-08-09T11:22:10Z</time>
      </trkpt>
      <trkpt lat="44.58967" lon="6.62485">
        <ele>2115.626709</ele>
        <time>2011-08-09T11:22:12Z</time>
      </trkpt>
      <trkpt lat="44.58965" lon="6.62465">
        <ele>2112.254639</ele>
        <time>2011-08-09T11:22:14Z</time>
      </trkpt>
      <trkpt lat="44.58957" lon="6.62447">
        <ele>2108.212402</ele>
        <time>2011-08-09T11:22:16Z</time>
      </trkpt>
      <trkpt lat="44.58942" lon="6.62438">
        <ele>2108.202637</ele>
        <time>2011-08-09T11:22:18Z</time>
      </trkpt>
      <trkpt lat="44.58925" lon="6.62433">
        <ele>2109.253662</ele>
        <time>2011-08-09T11:22:20Z</time>
      </trkpt>
      <trkpt lat="44.58887" lon="6.6242">
        <ele>2108.771484</ele>
        <time>2011-08-09T11:22:24Z</time>
      </trkpt>
      <trkpt lat="44.58868" lon="6.62412">
        <ele>2108.277344</ele>
        <time>2011-08-09T11:22:26Z</time>
      </trkpt>
      <trkpt lat="44.58852" lon="6.62398">
        <ele>2106.075195</ele>
        <time>2011-08-09T11:22:28Z</time>
      </trkpt>
      <trkpt lat="44.58818" lon="6.62367">
        <ele>2105.620605</ele>
        <time>2011-08-09T11:22:32Z</time>
      </trkpt>
      <trkpt lat="44.58805" lon="6.62348">
        <ele>2104.970215</ele>
        <time>2011-08-09T11:22:34Z</time>
      </trkpt>
      <trkpt lat="44.58792" lon="6.62333">
        <ele>2105.003906</ele>
        <time>2011-08-09T11:22:36Z</time>
      </trkpt>
      <trkpt lat="44.5878" lon="6.62318">
        <ele>2104.383789</ele>
        <time>2011-08-09T11:22:38Z</time>
      </trkpt>
      <trkpt lat="44.5876" lon="6.62293">
        <ele>2102.577881</ele>
        <time>2011-08-09T11:22:42Z</time>
      </trkpt>
      <trkpt lat="44.58738" lon="6.62282">
        <ele>2101.681152</ele>
        <time>2011-08-09T11:22:46Z</time>
      </trkpt>
      <trkpt lat="44.5871" lon="6.62275">
        <ele>2101.442139</ele>
        <time>2011-08-09T11:22:50Z</time>
      </trkpt>
      <trkpt lat="44.58693" lon="6.62268">
        <ele>2100.923828</ele>
        <time>2011-08-09T11:22:52Z</time>
      </trkpt>
      <trkpt lat="44.58678" lon="6.62257">
        <ele>2099.007324</ele>
        <time>2011-08-09T11:22:54Z</time>
      </trkpt>
      <trkpt lat="44.58667" lon="6.62227">
        <ele>2092.01001</ele>
        <time>2011-08-09T11:22:56Z</time>
      </trkpt>
      <trkpt lat="44.58648" lon="6.62207">
        <ele>2088.946045</ele>
        <time>2011-08-09T11:23:00Z</time>
      </trkpt>
      <trkpt lat="44.58635" lon="6.62202">
        <ele>2089.157715</ele>
        <time>2011-08-09T11:23:02Z</time>
      </trkpt>
      <trkpt lat="44.5862" lon="6.62188">
        <ele>2087.077148</ele>
        <time>2011-08-09T11:23:04Z</time>
      </trkpt>
      <trkpt lat="44.5861" lon="6.62168">
        <ele>2084.592285</ele>
        <time>2011-08-09T11:23:06Z</time>
      </trkpt>
      <trkpt lat="44.5858" lon="6.62105">
        <ele>2080.271973</ele>
        <time>2011-08-09T11:23:12Z</time>
      </trkpt>
      <trkpt lat="44.58573" lon="6.62087">
        <ele>2080.894287</ele>
        <time>2011-08-09T11:23:14Z</time>
      </trkpt>
      <trkpt lat="44.58578" lon="6.6205">
        <ele>2077.517334</ele>
        <time>2011-08-09T11:23:19Z</time>
      </trkpt>
      <trkpt lat="44.58588" lon="6.62037">
        <ele>2074.830811</ele>
        <time>2011-08-09T11:23:21Z</time>
      </trkpt>
      <trkpt lat="44.58597" lon="6.6202">
        <ele>2073.303955</ele>
        <time>2011-08-09T11:23:23Z</time>
      </trkpt>
      <trkpt lat="44.58608" lon="6.61995">
        <ele>2072.823975</ele>
        <time>2011-08-09T11:23:27Z</time>
      </trkpt>
      <trkpt lat="44.58622" lon="6.61985">
        <ele>2072.453369</ele>
        <time>2011-08-09T11:23:31Z</time>
      </trkpt>
      <trkpt lat="44.58635" lon="6.61978">
        <ele>2070.885742</ele>
        <time>2011-08-09T11:23:35Z</time>
      </trkpt>
      <trkpt lat="44.58648" lon="6.61975">
        <ele>2068.491943</ele>
        <time>2011-08-09T11:23:39Z</time>
      </trkpt>
      <trkpt lat="44.58662" lon="6.61968">
        <ele>2066.794434</ele>
        <time>2011-08-09T11:23:43Z</time>
      </trkpt>
      <trkpt lat="44.5871" lon="6.61947">
        <ele>2058.757324</ele>
        <time>2011-08-09T11:23:51Z</time>
      </trkpt>
      <trkpt lat="44.58725" lon="6.61947">
        <ele>2055.071533</ele>
        <time>2011-08-09T11:23:53Z</time>
      </trkpt>
      <trkpt lat="44.58757" lon="6.61947">
        <ele>2049.75</ele>
        <time>2011-08-09T11:23:57Z</time>
      </trkpt>
      <trkpt lat="44.58773" lon="6.61952">
        <ele>2046.657715</ele>
        <time>2011-08-09T11:23:59Z</time>
      </trkpt>
      <trkpt lat="44.58803" lon="6.61958">
        <ele>2042.395142</ele>
        <time>2011-08-09T11:24:03Z</time>
      </trkpt>
      <trkpt lat="44.58817" lon="6.61938">
        <ele>2038.953003</ele>
        <time>2011-08-09T11:24:07Z</time>
      </trkpt>
      <trkpt lat="44.5881" lon="6.61907">
        <ele>2038.019043</ele>
        <time>2011-08-09T11:24:12Z</time>
      </trkpt>
      <trkpt lat="44.588" lon="6.61867">
        <ele>2035.649658</ele>
        <time>2011-08-09T11:24:16Z</time>
      </trkpt>
      <trkpt lat="44.58795" lon="6.61848">
        <ele>2034.577637</ele>
        <time>2011-08-09T11:24:18Z</time>
      </trkpt>
      <trkpt lat="44.58792" lon="6.61813">
        <ele>2030.001465</ele>
        <time>2011-08-09T11:24:22Z</time>
      </trkpt>
      <trkpt lat="44.58775" lon="6.61788">
        <ele>2032.693237</ele>
        <time>2011-08-09T11:24:26Z</time>
      </trkpt>
      <trkpt lat="44.5876" lon="6.61763">
        <ele>2036.75061</ele>
        <time>2011-08-09T11:24:30Z</time>
      </trkpt>
      <trkpt lat="44.58767" lon="6.61735">
        <ele>2031.367676</ele>
        <time>2011-08-09T11:24:34Z</time>
      </trkpt>
      <trkpt lat="44.5878" lon="6.61683">
        <ele>2018.747314</ele>
        <time>2011-08-09T11:24:40Z</time>
      </trkpt>
      <trkpt lat="44.58778" lon="6.61655">
        <ele>2017.188843</ele>
        <time>2011-08-09T11:24:44Z</time>
      </trkpt>
      <trkpt lat="44.58773" lon="6.61635">
        <ele>2019.491821</ele>
        <time>2011-08-09T11:24:46Z</time>
      </trkpt>
      <trkpt lat="44.58767" lon="6.61603">
        <ele>2020.160278</ele>
        <time>2011-08-09T11:24:50Z</time>
      </trkpt>
      <trkpt lat="44.58767" lon="6.61575">
        <ele>2015.542847</ele>
        <time>2011-08-09T11:24:54Z</time>
      </trkpt>
      <trkpt lat="44.58762" lon="6.61538">
        <ele>2013.934204</ele>
        <time>2011-08-09T11:24:59Z</time>
      </trkpt>
      <trkpt lat="44.58758" lon="6.61518">
        <ele>2013.430298</ele>
        <time>2011-08-09T11:25:01Z</time>
      </trkpt>
      <trkpt lat="44.58755" lon="6.61498">
        <ele>2011.885376</ele>
        <time>2011-08-09T11:25:03Z</time>
      </trkpt>
      <trkpt lat="44.58748" lon="6.61445">
        <ele>2003.136353</ele>
        <time>2011-08-09T11:25:09Z</time>
      </trkpt>
      <trkpt lat="44.58743" lon="6.61407">
        <ele>1992.878784</ele>
        <time>2011-08-09T11:25:13Z</time>
      </trkpt>
      <trkpt lat="44.58738" lon="6.61373">
        <ele>1985.215332</ele>
        <time>2011-08-09T11:25:17Z</time>
      </trkpt>
      <trkpt lat="44.58723" lon="6.61345">
        <ele>1988.90686</ele>
        <time>2011-08-09T11:25:21Z</time>
      </trkpt>
      <trkpt lat="44.58707" lon="6.61313">
        <ele>1987.901367</ele>
        <time>2011-08-09T11:25:25Z</time>
      </trkpt>
      <trkpt lat="44.587" lon="6.61297">
        <ele>1986.402954</ele>
        <time>2011-08-09T11:25:27Z</time>
      </trkpt>
      <trkpt lat="44.58692" lon="6.61278">
        <ele>1985.303467</ele>
        <time>2011-08-09T11:25:29Z</time>
      </trkpt>
      <trkpt lat="44.5866" lon="6.6122">
        <ele>1981.400879</ele>
        <time>2011-08-09T11:25:35Z</time>
      </trkpt>
      <trkpt lat="44.58627" lon="6.6116">
        <ele>1978.687988</ele>
        <time>2011-08-09T11:25:41Z</time>
      </trkpt>
      <trkpt lat="44.58617" lon="6.61137">
        <ele>1977.19165</ele>
        <time>2011-08-09T11:25:43Z</time>
      </trkpt>
      <trkpt lat="44.58605" lon="6.61117">
        <ele>1976.948975</ele>
        <time>2011-08-09T11:25:46Z</time>
      </trkpt>
      <trkpt lat="44.5857" lon="6.61053">
        <ele>1977.088257</ele>
        <time>2011-08-09T11:25:52Z</time>
      </trkpt>
      <trkpt lat="44.58563" lon="6.61033">
        <ele>1977.505859</ele>
        <time>2011-08-09T11:25:54Z</time>
      </trkpt>
      <trkpt lat="44.58563" lon="6.61013">
        <ele>1975.300903</ele>
        <time>2011-08-09T11:25:56Z</time>
      </trkpt>
      <trkpt lat="44.58563" lon="6.60993">
        <ele>1973.030151</ele>
        <time>2011-08-09T11:25:58Z</time>
      </trkpt>
      <trkpt lat="44.58563" lon="6.60967">
        <ele>1976.137451</ele>
        <time>2011-08-09T11:26:02Z</time>
      </trkpt>
      <trkpt lat="44.58568" lon="6.60948">
        <ele>1978.442383</ele>
        <time>2011-08-09T11:26:10Z</time>
      </trkpt>
      <trkpt lat="44.58583" lon="6.60953">
        <ele>1975.071899</ele>
        <time>2011-08-09T11:26:18Z</time>
      </trkpt>
      <trkpt lat="44.58595" lon="6.6097">
        <ele>1970.517822</ele>
        <time>2011-08-09T11:27:54Z</time>
      </trkpt>
      <trkpt lat="44.5861" lon="6.60968">
        <ele>1969.575562</ele>
        <time>2011-08-09T11:28:03Z</time>
      </trkpt>
      <trkpt lat="44.58637" lon="6.60965">
        <ele>1968.3302</ele>
        <time>2011-08-09T11:28:07Z</time>
      </trkpt>
      <trkpt lat="44.58658" lon="6.60955">
        <ele>1969.378296</ele>
        <time>2011-08-09T11:28:11Z</time>
      </trkpt>
      <trkpt lat="44.58683" lon="6.60945">
        <ele>1970.136719</ele>
        <time>2011-08-09T11:28:15Z</time>
      </trkpt>
      <trkpt lat="44.58708" lon="6.60947">
        <ele>1967.871704</ele>
        <time>2011-08-09T11:28:19Z</time>
      </trkpt>
      <trkpt lat="44.5875" lon="6.60945">
        <ele>1963.140137</ele>
        <time>2011-08-09T11:28:25Z</time>
      </trkpt>
      <trkpt lat="44.58763" lon="6.6094">
        <ele>1962.301025</ele>
        <time>2011-08-09T11:28:27Z</time>
      </trkpt>
      <trkpt lat="44.58785" lon="6.6092">
        <ele>1961.160767</ele>
        <time>2011-08-09T11:28:31Z</time>
      </trkpt>
      <trkpt lat="44.58792" lon="6.609">
        <ele>1963.560547</ele>
        <time>2011-08-09T11:28:33Z</time>
      </trkpt>
      <trkpt lat="44.58802" lon="6.6088">
        <ele>1965.352661</ele>
        <time>2011-08-09T11:28:35Z</time>
      </trkpt>
      <trkpt lat="44.58825" lon="6.60838">
        <ele>1969.93811</ele>
        <time>2011-08-09T11:28:39Z</time>
      </trkpt>
      <trkpt lat="44.5884" lon="6.60823">
        <ele>1969.164307</ele>
        <time>2011-08-09T11:28:41Z</time>
      </trkpt>
      <trkpt lat="44.58855" lon="6.60808">
        <ele>1970.407471</ele>
        <time>2011-08-09T11:28:43Z</time>
      </trkpt>
      <trkpt lat="44.58868" lon="6.60788">
        <ele>1973.255493</ele>
        <time>2011-08-09T11:28:45Z</time>
      </trkpt>
      <trkpt lat="44.58883" lon="6.60755">
        <ele>1978.556396</ele>
        <time>2011-08-09T11:28:47Z</time>
      </trkpt>
      <trkpt lat="44.58897" lon="6.6074">
        <ele>1976.845337</ele>
        <time>2011-08-09T11:28:49Z</time>
      </trkpt>
      <trkpt lat="44.58923" lon="6.6071">
        <ele>1970.781006</ele>
        <time>2011-08-09T11:28:53Z</time>
      </trkpt>
      <trkpt lat="44.58933" lon="6.60693">
        <ele>1967.365234</ele>
        <time>2011-08-09T11:28:55Z</time>
      </trkpt>
      <trkpt lat="44.58942" lon="6.60673">
        <ele>1964.080688</ele>
        <time>2011-08-09T11:28:57Z</time>
      </trkpt>
      <trkpt lat="44.58948" lon="6.60653">
        <ele>1961.516968</ele>
        <time>2011-08-09T11:28:59Z</time>
      </trkpt>
      <trkpt lat="44.58953" lon="6.60633">
        <ele>1959.964478</ele>
        <time>2011-08-09T11:29:01Z</time>
      </trkpt>
      <trkpt lat="44.58955" lon="6.60612">
        <ele>1960.852295</ele>
        <time>2011-08-09T11:29:03Z</time>
      </trkpt>
      <trkpt lat="44.5896" lon="6.60572">
        <ele>1960.02356</ele>
        <time>2011-08-09T11:29:07Z</time>
      </trkpt>
      <trkpt lat="44.58958" lon="6.60535">
        <ele>1956.088867</ele>
        <time>2011-08-09T11:29:11Z</time>
      </trkpt>
      <trkpt lat="44.58953" lon="6.60517">
        <ele>1956.411865</ele>
        <time>2011-08-09T11:29:13Z</time>
      </trkpt>
      <trkpt lat="44.58945" lon="6.60502">
        <ele>1956.812622</ele>
        <time>2011-08-09T11:29:15Z</time>
      </trkpt>
      <trkpt lat="44.58933" lon="6.60472">
        <ele>1953.209229</ele>
        <time>2011-08-09T11:29:19Z</time>
      </trkpt>
      <trkpt lat="44.58925" lon="6.60457">
        <ele>1951.960327</ele>
        <time>2011-08-09T11:29:21Z</time>
      </trkpt>
      <trkpt lat="44.58908" lon="6.60447">
        <ele>1954.79187</ele>
        <time>2011-08-09T11:29:25Z</time>
      </trkpt>
      <trkpt lat="44.58885" lon="6.60428">
        <ele>1955.619019</ele>
        <time>2011-08-09T11:29:29Z</time>
      </trkpt>
      <trkpt lat="44.58873" lon="6.60415">
        <ele>1955.037476</ele>
        <time>2011-08-09T11:29:32Z</time>
      </trkpt>
      <trkpt lat="44.58862" lon="6.60398">
        <ele>1954.570679</ele>
        <time>2011-08-09T11:29:34Z</time>
      </trkpt>
      <trkpt lat="44.58827" lon="6.60347">
        <ele>1951.986938</ele>
        <time>2011-08-09T11:29:40Z</time>
      </trkpt>
      <trkpt lat="44.58803" lon="6.6031">
        <ele>1949.150879</ele>
        <time>2011-08-09T11:29:44Z</time>
      </trkpt>
      <trkpt lat="44.58778" lon="6.6027">
        <ele>1945.934692</ele>
        <time>2011-08-09T11:29:48Z</time>
      </trkpt>
      <trkpt lat="44.58755" lon="6.60232">
        <ele>1941.204834</ele>
        <time>2011-08-09T11:29:52Z</time>
      </trkpt>
      <trkpt lat="44.58742" lon="6.60217">
        <ele>1940.315918</ele>
        <time>2011-08-09T11:29:54Z</time>
      </trkpt>
      <trkpt lat="44.5873" lon="6.60205">
        <ele>1939.766602</ele>
        <time>2011-08-09T11:29:56Z</time>
      </trkpt>
      <trkpt lat="44.58717" lon="6.60193">
        <ele>1940.151001</ele>
        <time>2011-08-09T11:29:58Z</time>
      </trkpt>
      <trkpt lat="44.58702" lon="6.60183">
        <ele>1942.271606</ele>
        <time>2011-08-09T11:30:00Z</time>
      </trkpt>
      <trkpt lat="44.58688" lon="6.60172">
        <ele>1940.423584</ele>
        <time>2011-08-09T11:30:02Z</time>
      </trkpt>
      <trkpt lat="44.58673" lon="6.6016">
        <ele>1938.602783</ele>
        <time>2011-08-09T11:30:04Z</time>
      </trkpt>
      <trkpt lat="44.58658" lon="6.60152">
        <ele>1938.947021</ele>
        <time>2011-08-09T11:30:06Z</time>
      </trkpt>
      <trkpt lat="44.5864" lon="6.60142">
        <ele>1938.687622</ele>
        <time>2011-08-09T11:30:08Z</time>
      </trkpt>
      <trkpt lat="44.58623" lon="6.60135">
        <ele>1939.846313</ele>
        <time>2011-08-09T11:30:10Z</time>
      </trkpt>
      <trkpt lat="44.58607" lon="6.60128">
        <ele>1941.350708</ele>
        <time>2011-08-09T11:30:12Z</time>
      </trkpt>
      <trkpt lat="44.58593" lon="6.60115">
        <ele>1939.068115</ele>
        <time>2011-08-09T11:30:14Z</time>
      </trkpt>
      <trkpt lat="44.58583" lon="6.60095">
        <ele>1933.585938</ele>
        <time>2011-08-09T11:30:16Z</time>
      </trkpt>
      <trkpt lat="44.58572" lon="6.60077">
        <ele>1930.37915</ele>
        <time>2011-08-09T11:30:18Z</time>
      </trkpt>
      <trkpt lat="44.58558" lon="6.60057">
        <ele>1927.673584</ele>
        <time>2011-08-09T11:30:20Z</time>
      </trkpt>
      <trkpt lat="44.58537" lon="6.60033">
        <ele>1927.57373</ele>
        <time>2011-08-09T11:30:22Z</time>
      </trkpt>
      <trkpt lat="44.58525" lon="6.60015">
        <ele>1925.824951</ele>
        <time>2011-08-09T11:30:24Z</time>
      </trkpt>
      <trkpt lat="44.58512" lon="6.59992">
        <ele>1922.775024</ele>
        <time>2011-08-09T11:30:26Z</time>
      </trkpt>
      <trkpt lat="44.58498" lon="6.5997">
        <ele>1920.671631</ele>
        <time>2011-08-09T11:30:28Z</time>
      </trkpt>
      <trkpt lat="44.58475" lon="6.59927">
        <ele>1917.297119</ele>
        <time>2011-08-09T11:30:32Z</time>
      </trkpt>
      <trkpt lat="44.58457" lon="6.59892">
        <ele>1914.286011</ele>
        <time>2011-08-09T11:30:37Z</time>
      </trkpt>
      <trkpt lat="44.58443" lon="6.5988">
        <ele>1915.44458</ele>
        <time>2011-08-09T11:30:39Z</time>
      </trkpt>
      <trkpt lat="44.5842" lon="6.59858">
        <ele>1915.082275</ele>
        <time>2011-08-09T11:30:43Z</time>
      </trkpt>
      <trkpt lat="44.58405" lon="6.59835">
        <ele>1912.775391</ele>
        <time>2011-08-09T11:30:47Z</time>
      </trkpt>
      <trkpt lat="44.58402" lon="6.59817">
        <ele>1910.230103</ele>
        <time>2011-08-09T11:30:49Z</time>
      </trkpt>
      <trkpt lat="44.58402" lon="6.5978">
        <ele>1904.038452</ele>
        <time>2011-08-09T11:30:53Z</time>
      </trkpt>
      <trkpt lat="44.58398" lon="6.59762">
        <ele>1904.680054</ele>
        <time>2011-08-09T11:30:55Z</time>
      </trkpt>
      <trkpt lat="44.58392" lon="6.59743">
        <ele>1905.95813</ele>
        <time>2011-08-09T11:30:57Z</time>
      </trkpt>
      <trkpt lat="44.58388" lon="6.59723">
        <ele>1906.558716</ele>
        <time>2011-08-09T11:30:59Z</time>
      </trkpt>
      <trkpt lat="44.58395" lon="6.59698">
        <ele>1908.071899</ele>
        <time>2011-08-09T11:31:03Z</time>
      </trkpt>
      <trkpt lat="44.58407" lon="6.59687">
        <ele>1908.955444</ele>
        <time>2011-08-09T11:31:07Z</time>
      </trkpt>
      <trkpt lat="44.58423" lon="6.59678">
        <ele>1909.666748</ele>
        <time>2011-08-09T11:31:11Z</time>
      </trkpt>
      <trkpt lat="44.58443" lon="6.5968">
        <ele>1908.767578</ele>
        <time>2011-08-09T11:31:15Z</time>
      </trkpt>
      <trkpt lat="44.58457" lon="6.59688">
        <ele>1906.616943</ele>
        <time>2011-08-09T11:31:17Z</time>
      </trkpt>
      <trkpt lat="44.5848" lon="6.59695">
        <ele>1904.334595</ele>
        <time>2011-08-09T11:31:21Z</time>
      </trkpt>
      <trkpt lat="44.58535" lon="6.59707">
        <ele>1899.788086</ele>
        <time>2011-08-09T11:31:31Z</time>
      </trkpt>
      <trkpt lat="44.58552" lon="6.59702">
        <ele>1902.676147</ele>
        <time>2011-08-09T11:31:36Z</time>
      </trkpt>
      <trkpt lat="44.5857" lon="6.59698">
        <ele>1905.241943</ele>
        <time>2011-08-09T11:31:40Z</time>
      </trkpt>
      <trkpt lat="44.5859" lon="6.59697">
        <ele>1907.258667</ele>
        <time>2011-08-09T11:31:44Z</time>
      </trkpt>
      <trkpt lat="44.5861" lon="6.597">
        <ele>1907.159302</ele>
        <time>2011-08-09T11:31:48Z</time>
      </trkpt>
      <trkpt lat="44.58628" lon="6.59703">
        <ele>1906.976685</ele>
        <time>2011-08-09T11:31:52Z</time>
      </trkpt>
      <trkpt lat="44.5865" lon="6.5971">
        <ele>1902.363281</ele>
        <time>2011-08-09T11:31:56Z</time>
      </trkpt>
      <trkpt lat="44.58673" lon="6.59717">
        <ele>1897.423828</ele>
        <time>2011-08-09T11:32:00Z</time>
      </trkpt>
      <trkpt lat="44.5869" lon="6.59712">
        <ele>1897.577759</ele>
        <time>2011-08-09T11:32:02Z</time>
      </trkpt>
      <trkpt lat="44.58715" lon="6.59703">
        <ele>1898.481201</ele>
        <time>2011-08-09T11:32:06Z</time>
      </trkpt>
      <trkpt lat="44.5874" lon="6.597">
        <ele>1894.791138</ele>
        <time>2011-08-09T11:32:10Z</time>
      </trkpt>
      <trkpt lat="44.58753" lon="6.59697">
        <ele>1893.055908</ele>
        <time>2011-08-09T11:32:12Z</time>
      </trkpt>
      <trkpt lat="44.58767" lon="6.59687">
        <ele>1893.58606</ele>
        <time>2011-08-09T11:32:14Z</time>
      </trkpt>
      <trkpt lat="44.58778" lon="6.59673">
        <ele>1895.14563</ele>
        <time>2011-08-09T11:32:16Z</time>
      </trkpt>
      <trkpt lat="44.58803" lon="6.59645">
        <ele>1898.217896</ele>
        <time>2011-08-09T11:32:20Z</time>
      </trkpt>
      <trkpt lat="44.58818" lon="6.59637">
        <ele>1895.945068</ele>
        <time>2011-08-09T11:32:22Z</time>
      </trkpt>
      <trkpt lat="44.5883" lon="6.59623">
        <ele>1895.846558</ele>
        <time>2011-08-09T11:32:24Z</time>
      </trkpt>
      <trkpt lat="44.5884" lon="6.59608">
        <ele>1895.558472</ele>
        <time>2011-08-09T11:32:26Z</time>
      </trkpt>
      <trkpt lat="44.5885" lon="6.59592">
        <ele>1895.348389</ele>
        <time>2011-08-09T11:32:28Z</time>
      </trkpt>
      <trkpt lat="44.58858" lon="6.59575">
        <ele>1895.713013</ele>
        <time>2011-08-09T11:32:31Z</time>
      </trkpt>
      <trkpt lat="44.5887" lon="6.59558">
        <ele>1894.190063</ele>
        <time>2011-08-09T11:32:33Z</time>
      </trkpt>
      <trkpt lat="44.5888" lon="6.59543">
        <ele>1891.595703</ele>
        <time>2011-08-09T11:32:35Z</time>
      </trkpt>
      <trkpt lat="44.58888" lon="6.59527">
        <ele>1889.69751</ele>
        <time>2011-08-09T11:32:37Z</time>
      </trkpt>
      <trkpt lat="44.58895" lon="6.59508">
        <ele>1888.572021</ele>
        <time>2011-08-09T11:32:39Z</time>
      </trkpt>
      <trkpt lat="44.58908" lon="6.5947">
        <ele>1885.731934</ele>
        <time>2011-08-09T11:32:43Z</time>
      </trkpt>
      <trkpt lat="44.58918" lon="6.59457">
        <ele>1883.236328</ele>
        <time>2011-08-09T11:32:45Z</time>
      </trkpt>
      <trkpt lat="44.58938" lon="6.59435">
        <ele>1876.531982</ele>
        <time>2011-08-09T11:32:49Z</time>
      </trkpt>
      <trkpt lat="44.58948" lon="6.59418">
        <ele>1872.091675</ele>
        <time>2011-08-09T11:32:51Z</time>
      </trkpt>
      <trkpt lat="44.58953" lon="6.59398">
        <ele>1869.604004</ele>
        <time>2011-08-09T11:32:53Z</time>
      </trkpt>
      <trkpt lat="44.58957" lon="6.5938">
        <ele>1867.855591</ele>
        <time>2011-08-09T11:32:55Z</time>
      </trkpt>
      <trkpt lat="44.58942" lon="6.59353">
        <ele>1874.79834</ele>
        <time>2011-08-09T11:32:59Z</time>
      </trkpt>
      <trkpt lat="44.5893" lon="6.5932">
        <ele>1880.098755</ele>
        <time>2011-08-09T11:33:03Z</time>
      </trkpt>
      <trkpt lat="44.58933" lon="6.59283">
        <ele>1877.297607</ele>
        <time>2011-08-09T11:33:07Z</time>
      </trkpt>
      <trkpt lat="44.58937" lon="6.59243">
        <ele>1873.913574</ele>
        <time>2011-08-09T11:33:11Z</time>
      </trkpt>
      <trkpt lat="44.58942" lon="6.59207">
        <ele>1868.934814</ele>
        <time>2011-08-09T11:33:15Z</time>
      </trkpt>
      <trkpt lat="44.58945" lon="6.59188">
        <ele>1866.150879</ele>
        <time>2011-08-09T11:33:17Z</time>
      </trkpt>
      <trkpt lat="44.58952" lon="6.59163">
        <ele>1860.786865</ele>
        <time>2011-08-09T11:33:19Z</time>
      </trkpt>
      <trkpt lat="44.58945" lon="6.59133">
        <ele>1860.987305</ele>
        <time>2011-08-09T11:33:23Z</time>
      </trkpt>
      <trkpt lat="44.58925" lon="6.59107">
        <ele>1867.025146</ele>
        <time>2011-08-09T11:33:27Z</time>
      </trkpt>
      <trkpt lat="44.58918" lon="6.5909">
        <ele>1868.243408</ele>
        <time>2011-08-09T11:33:29Z</time>
      </trkpt>
      <trkpt lat="44.5891" lon="6.59075">
        <ele>1870.646484</ele>
        <time>2011-08-09T11:33:31Z</time>
      </trkpt>
      <trkpt lat="44.58893" lon="6.59043">
        <ele>1874.848145</ele>
        <time>2011-08-09T11:33:36Z</time>
      </trkpt>
      <trkpt lat="44.58883" lon="6.5901">
        <ele>1875.074951</ele>
        <time>2011-08-09T11:33:40Z</time>
      </trkpt>
      <trkpt lat="44.58882" lon="6.58988">
        <ele>1874.055054</ele>
        <time>2011-08-09T11:33:42Z</time>
      </trkpt>
      <trkpt lat="44.5888" lon="6.5895">
        <ele>1877.450806</ele>
        <time>2011-08-09T11:33:46Z</time>
      </trkpt>
      <trkpt lat="44.58885" lon="6.58932">
        <ele>1875.525269</ele>
        <time>2011-08-09T11:33:48Z</time>
      </trkpt>
      <trkpt lat="44.58898" lon="6.589">
        <ele>1877.564819</ele>
        <time>2011-08-09T11:33:52Z</time>
      </trkpt>
      <trkpt lat="44.58908" lon="6.58887">
        <ele>1875.352539</ele>
        <time>2011-08-09T11:33:54Z</time>
      </trkpt>
      <trkpt lat="44.58928" lon="6.58865">
        <ele>1868.575562</ele>
        <time>2011-08-09T11:33:58Z</time>
      </trkpt>
      <trkpt lat="44.58937" lon="6.5885">
        <ele>1867.400024</ele>
        <time>2011-08-09T11:34:00Z</time>
      </trkpt>
      <trkpt lat="44.58943" lon="6.58833">
        <ele>1867.193359</ele>
        <time>2011-08-09T11:34:02Z</time>
      </trkpt>
      <trkpt lat="44.58952" lon="6.58817">
        <ele>1865.300903</ele>
        <time>2011-08-09T11:34:04Z</time>
      </trkpt>
      <trkpt lat="44.58965" lon="6.58783">
        <ele>1863.168823</ele>
        <time>2011-08-09T11:34:08Z</time>
      </trkpt>
      <trkpt lat="44.58977" lon="6.58753">
        <ele>1861.283081</ele>
        <time>2011-08-09T11:34:12Z</time>
      </trkpt>
      <trkpt lat="44.58983" lon="6.5873">
        <ele>1859.30603</ele>
        <time>2011-08-09T11:34:14Z</time>
      </trkpt>
      <trkpt lat="44.58993" lon="6.58683">
        <ele>1857.519531</ele>
        <time>2011-08-09T11:34:20Z</time>
      </trkpt>
      <trkpt lat="44.58993" lon="6.58652">
        <ele>1858.798096</ele>
        <time>2011-08-09T11:34:24Z</time>
      </trkpt>
      <trkpt lat="44.58992" lon="6.58615">
        <ele>1861.569214</ele>
        <time>2011-08-09T11:34:28Z</time>
      </trkpt>
      <trkpt lat="44.58988" lon="6.58558">
        <ele>1868.005249</ele>
        <time>2011-08-09T11:34:35Z</time>
      </trkpt>
      <trkpt lat="44.58993" lon="6.58538">
        <ele>1867.027588</ele>
        <time>2011-08-09T11:34:37Z</time>
      </trkpt>
      <trkpt lat="44.59002" lon="6.5852">
        <ele>1864.647095</ele>
        <time>2011-08-09T11:34:39Z</time>
      </trkpt>
      <trkpt lat="44.59008" lon="6.58502">
        <ele>1863.268311</ele>
        <time>2011-08-09T11:34:41Z</time>
      </trkpt>
      <trkpt lat="44.59012" lon="6.58483">
        <ele>1863.322144</ele>
        <time>2011-08-09T11:34:43Z</time>
      </trkpt>
      <trkpt lat="44.59013" lon="6.58463">
        <ele>1864.22229</ele>
        <time>2011-08-09T11:34:45Z</time>
      </trkpt>
      <trkpt lat="44.5901" lon="6.58425">
        <ele>1868.263428</ele>
        <time>2011-08-09T11:34:49Z</time>
      </trkpt>
      <trkpt lat="44.59008" lon="6.58363">
        <ele>1872.551758</ele>
        <time>2011-08-09T11:34:55Z</time>
      </trkpt>
      <trkpt lat="44.5901" lon="6.58342">
        <ele>1873.331299</ele>
        <time>2011-08-09T11:34:57Z</time>
      </trkpt>
      <trkpt lat="44.59013" lon="6.58323">
        <ele>1873.400024</ele>
        <time>2011-08-09T11:34:59Z</time>
      </trkpt>
      <trkpt lat="44.59018" lon="6.58305">
        <ele>1872.772705</ele>
        <time>2011-08-09T11:35:01Z</time>
      </trkpt>
      <trkpt lat="44.59025" lon="6.58288">
        <ele>1871.349854</ele>
        <time>2011-08-09T11:35:03Z</time>
      </trkpt>
      <trkpt lat="44.59033" lon="6.58272">
        <ele>1869.509766</ele>
        <time>2011-08-09T11:35:05Z</time>
      </trkpt>
      <trkpt lat="44.59043" lon="6.58257">
        <ele>1867.213135</ele>
        <time>2011-08-09T11:35:07Z</time>
      </trkpt>
      <trkpt lat="44.59052" lon="6.58242">
        <ele>1865.942139</ele>
        <time>2011-08-09T11:35:09Z</time>
      </trkpt>
      <trkpt lat="44.59062" lon="6.58227">
        <ele>1864.51355</ele>
        <time>2011-08-09T11:35:11Z</time>
      </trkpt>
      <trkpt lat="44.59078" lon="6.58207">
        <ele>1862.027344</ele>
        <time>2011-08-09T11:35:13Z</time>
      </trkpt>
      <trkpt lat="44.59108" lon="6.58168">
        <ele>1855.145508</ele>
        <time>2011-08-09T11:35:20Z</time>
      </trkpt>
      <trkpt lat="44.59115" lon="6.58152">
        <ele>1853.421875</ele>
        <time>2011-08-09T11:35:22Z</time>
      </trkpt>
      <trkpt lat="44.5912" lon="6.58133">
        <ele>1852.398926</ele>
        <time>2011-08-09T11:35:24Z</time>
      </trkpt>
      <trkpt lat="44.59122" lon="6.58113">
        <ele>1853.165283</ele>
        <time>2011-08-09T11:35:26Z</time>
      </trkpt>
      <trkpt lat="44.59127" lon="6.58072">
        <ele>1853.91748</ele>
        <time>2011-08-09T11:35:30Z</time>
      </trkpt>
      <trkpt lat="44.59132" lon="6.58052">
        <ele>1852.458862</ele>
        <time>2011-08-09T11:35:32Z</time>
      </trkpt>
      <trkpt lat="44.5914" lon="6.58035">
        <ele>1848.882568</ele>
        <time>2011-08-09T11:35:34Z</time>
      </trkpt>
      <trkpt lat="44.59148" lon="6.58017">
        <ele>1844.679443</ele>
        <time>2011-08-09T11:35:36Z</time>
      </trkpt>
      <trkpt lat="44.59152" lon="6.57997">
        <ele>1842.095703</ele>
        <time>2011-08-09T11:35:38Z</time>
      </trkpt>
      <trkpt lat="44.59152" lon="6.57977">
        <ele>1840.855957</ele>
        <time>2011-08-09T11:35:40Z</time>
      </trkpt>
      <trkpt lat="44.59147" lon="6.57955">
        <ele>1843.619751</ele>
        <time>2011-08-09T11:35:42Z</time>
      </trkpt>
      <trkpt lat="44.59145" lon="6.57933">
        <ele>1842.420898</ele>
        <time>2011-08-09T11:35:44Z</time>
      </trkpt>
      <trkpt lat="44.5914" lon="6.5791">
        <ele>1841.908569</ele>
        <time>2011-08-09T11:35:46Z</time>
      </trkpt>
      <trkpt lat="44.59125" lon="6.5784">
        <ele>1840.500977</ele>
        <time>2011-08-09T11:35:52Z</time>
      </trkpt>
      <trkpt lat="44.59122" lon="6.57817">
        <ele>1839.42749</ele>
        <time>2011-08-09T11:35:54Z</time>
      </trkpt>
      <trkpt lat="44.5912" lon="6.57792">
        <ele>1837.587402</ele>
        <time>2011-08-09T11:35:56Z</time>
      </trkpt>
      <trkpt lat="44.59117" lon="6.57757">
        <ele>1836.235474</ele>
        <time>2011-08-09T11:35:58Z</time>
      </trkpt>
      <trkpt lat="44.59112" lon="6.57733">
        <ele>1836.931396</ele>
        <time>2011-08-09T11:36:00Z</time>
      </trkpt>
      <trkpt lat="44.59103" lon="6.57687">
        <ele>1834.92749</ele>
        <time>2011-08-09T11:36:04Z</time>
      </trkpt>
      <trkpt lat="44.59102" lon="6.57662">
        <ele>1833.502075</ele>
        <time>2011-08-09T11:36:06Z</time>
      </trkpt>
      <trkpt lat="44.59102" lon="6.57638">
        <ele>1831.26062</ele>
        <time>2011-08-09T11:36:08Z</time>
      </trkpt>
      <trkpt lat="44.59103" lon="6.57543">
        <ele>1830.726074</ele>
        <time>2011-08-09T11:36:17Z</time>
      </trkpt>
      <trkpt lat="44.59107" lon="6.57523">
        <ele>1830.348022</ele>
        <time>2011-08-09T11:36:19Z</time>
      </trkpt>
      <trkpt lat="44.59113" lon="6.57502">
        <ele>1827.406982</ele>
        <time>2011-08-09T11:36:21Z</time>
      </trkpt>
      <trkpt lat="44.59118" lon="6.5748">
        <ele>1828.018311</ele>
        <time>2011-08-09T11:36:23Z</time>
      </trkpt>
      <trkpt lat="44.59123" lon="6.57457">
        <ele>1829.621826</ele>
        <time>2011-08-09T11:36:25Z</time>
      </trkpt>
      <trkpt lat="44.59135" lon="6.5741">
        <ele>1832.70813</ele>
        <time>2011-08-09T11:36:29Z</time>
      </trkpt>
      <trkpt lat="44.59143" lon="6.5739">
        <ele>1833.419189</ele>
        <time>2011-08-09T11:36:31Z</time>
      </trkpt>
      <trkpt lat="44.59153" lon="6.57375">
        <ele>1833.042725</ele>
        <time>2011-08-09T11:36:33Z</time>
      </trkpt>
      <trkpt lat="44.59173" lon="6.5737">
        <ele>1827.360962</ele>
        <time>2011-08-09T11:36:37Z</time>
      </trkpt>
      <trkpt lat="44.59187" lon="6.5738">
        <ele>1824.158325</ele>
        <time>2011-08-09T11:37:07Z</time>
      </trkpt>
      <trkpt lat="44.59203" lon="6.5738">
        <ele>1821.781006</ele>
        <time>2011-08-09T11:37:11Z</time>
      </trkpt>
      <trkpt lat="44.59225" lon="6.57382">
        <ele>1818.679199</ele>
        <time>2011-08-09T11:37:16Z</time>
      </trkpt>
      <trkpt lat="44.59263" lon="6.57383">
        <ele>1813.325195</ele>
        <time>2011-08-09T11:37:22Z</time>
      </trkpt>
      <trkpt lat="44.59277" lon="6.57378">
        <ele>1811.599854</ele>
        <time>2011-08-09T11:37:24Z</time>
      </trkpt>
      <trkpt lat="44.59288" lon="6.57367">
        <ele>1812.259521</ele>
        <time>2011-08-09T11:37:26Z</time>
      </trkpt>
      <trkpt lat="44.59298" lon="6.5735">
        <ele>1815.096313</ele>
        <time>2011-08-09T11:37:28Z</time>
      </trkpt>
      <trkpt lat="44.59307" lon="6.57332">
        <ele>1819.254883</ele>
        <time>2011-08-09T11:37:30Z</time>
      </trkpt>
      <trkpt lat="44.59318" lon="6.57322">
        <ele>1820.558105</ele>
        <time>2011-08-09T11:37:32Z</time>
      </trkpt>
      <trkpt lat="44.5934" lon="6.5734">
        <ele>1814.691162</ele>
        <time>2011-08-09T11:37:36Z</time>
      </trkpt>
      <trkpt lat="44.59345" lon="6.57378">
        <ele>1806.602783</ele>
        <time>2011-08-09T11:37:40Z</time>
      </trkpt>
      <trkpt lat="44.5935" lon="6.57397">
        <ele>1803.45752</ele>
        <time>2011-08-09T11:37:42Z</time>
      </trkpt>
      <trkpt lat="44.59358" lon="6.57415">
        <ele>1801.619385</ele>
        <time>2011-08-09T11:37:44Z</time>
      </trkpt>
      <trkpt lat="44.5938" lon="6.5742">
        <ele>1804.08728</ele>
        <time>2011-08-09T11:37:48Z</time>
      </trkpt>
      <trkpt lat="44.5939" lon="6.57407">
        <ele>1807.224243</ele>
        <time>2011-08-09T11:37:50Z</time>
      </trkpt>
      <trkpt lat="44.59397" lon="6.5739">
        <ele>1808.533569</ele>
        <time>2011-08-09T11:37:52Z</time>
      </trkpt>
      <trkpt lat="44.59407" lon="6.57373">
        <ele>1807.796631</ele>
        <time>2011-08-09T11:37:54Z</time>
      </trkpt>
      <trkpt lat="44.59428" lon="6.57362">
        <ele>1804.721558</ele>
        <time>2011-08-09T11:37:56Z</time>
      </trkpt>
      <trkpt lat="44.59443" lon="6.5733">
        <ele>1806.331665</ele>
        <time>2011-08-09T11:38:00Z</time>
      </trkpt>
      <trkpt lat="44.59458" lon="6.57293">
        <ele>1804.035767</ele>
        <time>2011-08-09T11:38:05Z</time>
      </trkpt>
      <trkpt lat="44.59465" lon="6.57275">
        <ele>1803.603149</ele>
        <time>2011-08-09T11:38:07Z</time>
      </trkpt>
      <trkpt lat="44.59468" lon="6.57255">
        <ele>1802.679321</ele>
        <time>2011-08-09T11:38:09Z</time>
      </trkpt>
      <trkpt lat="44.5947" lon="6.57233">
        <ele>1802.424561</ele>
        <time>2011-08-09T11:38:11Z</time>
      </trkpt>
      <trkpt lat="44.59472" lon="6.57212">
        <ele>1802.141724</ele>
        <time>2011-08-09T11:38:13Z</time>
      </trkpt>
      <trkpt lat="44.59472" lon="6.57188">
        <ele>1800.688721</ele>
        <time>2011-08-09T11:38:15Z</time>
      </trkpt>
      <trkpt lat="44.59472" lon="6.57165">
        <ele>1799.176392</ele>
        <time>2011-08-09T11:38:17Z</time>
      </trkpt>
      <trkpt lat="44.59468" lon="6.57143">
        <ele>1797.030884</ele>
        <time>2011-08-09T11:38:19Z</time>
      </trkpt>
      <trkpt lat="44.59458" lon="6.5713">
        <ele>1795.231079</ele>
        <time>2011-08-09T11:38:21Z</time>
      </trkpt>
      <trkpt lat="44.59443" lon="6.5712">
        <ele>1795.073242</ele>
        <time>2011-08-09T11:38:23Z</time>
      </trkpt>
      <trkpt lat="44.59398" lon="6.5709">
        <ele>1792.440796</ele>
        <time>2011-08-09T11:38:29Z</time>
      </trkpt>
      <trkpt lat="44.5938" lon="6.57083">
        <ele>1793.368164</ele>
        <time>2011-08-09T11:38:31Z</time>
      </trkpt>
      <trkpt lat="44.59362" lon="6.57078">
        <ele>1794.893433</ele>
        <time>2011-08-09T11:38:33Z</time>
      </trkpt>
      <trkpt lat="44.59345" lon="6.5707">
        <ele>1794.97229</ele>
        <time>2011-08-09T11:38:35Z</time>
      </trkpt>
      <trkpt lat="44.59323" lon="6.57035">
        <ele>1792.209106</ele>
        <time>2011-08-09T11:38:39Z</time>
      </trkpt>
      <trkpt lat="44.59315" lon="6.56995">
        <ele>1788.798706</ele>
        <time>2011-08-09T11:38:43Z</time>
      </trkpt>
      <trkpt lat="44.59328" lon="6.56965">
        <ele>1782.959351</ele>
        <time>2011-08-09T11:38:47Z</time>
      </trkpt>
      <trkpt lat="44.5934" lon="6.56942">
        <ele>1778.641113</ele>
        <time>2011-08-09T11:38:49Z</time>
      </trkpt>
      <trkpt lat="44.59353" lon="6.56932">
        <ele>1775.953003</ele>
        <time>2011-08-09T11:38:53Z</time>
      </trkpt>
      <trkpt lat="44.59347" lon="6.56915">
        <ele>1774.476685</ele>
        <time>2011-08-09T11:39:34Z</time>
      </trkpt>
      <trkpt lat="44.59335" lon="6.569">
        <ele>1773.323853</ele>
        <time>2011-08-09T11:40:21Z</time>
      </trkpt>
      <trkpt lat="44.59313" lon="6.56887">
        <ele>1773.893921</ele>
        <time>2011-08-09T11:40:27Z</time>
      </trkpt>
      <trkpt lat="44.59283" lon="6.56868">
        <ele>1773.665161</ele>
        <time>2011-08-09T11:40:33Z</time>
      </trkpt>
      <trkpt lat="44.59257" lon="6.56858">
        <ele>1775.996826</ele>
        <time>2011-08-09T11:40:37Z</time>
      </trkpt>
      <trkpt lat="44.59238" lon="6.56845">
        <ele>1774.207642</ele>
        <time>2011-08-09T11:40:39Z</time>
      </trkpt>
      <trkpt lat="44.59212" lon="6.56828">
        <ele>1771.461426</ele>
        <time>2011-08-09T11:40:43Z</time>
      </trkpt>
      <trkpt lat="44.59195" lon="6.56823">
        <ele>1772.269531</ele>
        <time>2011-08-09T11:40:45Z</time>
      </trkpt>
      <trkpt lat="44.59178" lon="6.56817">
        <ele>1771.925415</ele>
        <time>2011-08-09T11:40:47Z</time>
      </trkpt>
      <trkpt lat="44.59163" lon="6.5681">
        <ele>1771.229736</ele>
        <time>2011-08-09T11:40:49Z</time>
      </trkpt>
      <trkpt lat="44.5915" lon="6.568">
        <ele>1769.480957</ele>
        <time>2011-08-09T11:40:51Z</time>
      </trkpt>
      <trkpt lat="44.59138" lon="6.56785">
        <ele>1765.456665</ele>
        <time>2011-08-09T11:40:53Z</time>
      </trkpt>
      <trkpt lat="44.59117" lon="6.56758">
        <ele>1758.085571</ele>
        <time>2011-08-09T11:40:58Z</time>
      </trkpt>
      <trkpt lat="44.59102" lon="6.56753">
        <ele>1758.228027</ele>
        <time>2011-08-09T11:41:00Z</time>
      </trkpt>
      <trkpt lat="44.59072" lon="6.56742">
        <ele>1757.056152</ele>
        <time>2011-08-09T11:41:04Z</time>
      </trkpt>
      <trkpt lat="44.5904" lon="6.56728">
        <ele>1754.515381</ele>
        <time>2011-08-09T11:41:08Z</time>
      </trkpt>
      <trkpt lat="44.59027" lon="6.56713">
        <ele>1749.265259</ele>
        <time>2011-08-09T11:41:10Z</time>
      </trkpt>
      <trkpt lat="44.59013" lon="6.567">
        <ele>1745.38269</ele>
        <time>2011-08-09T11:41:12Z</time>
      </trkpt>
      <trkpt lat="44.59" lon="6.56688">
        <ele>1743.159424</ele>
        <time>2011-08-09T11:41:14Z</time>
      </trkpt>
      <trkpt lat="44.58985" lon="6.56682">
        <ele>1743.63562</ele>
        <time>2011-08-09T11:41:16Z</time>
      </trkpt>
      <trkpt lat="44.5897" lon="6.56677">
        <ele>1744.877808</ele>
        <time>2011-08-09T11:41:18Z</time>
      </trkpt>
      <trkpt lat="44.58953" lon="6.5667">
        <ele>1745.099976</ele>
        <time>2011-08-09T11:41:20Z</time>
      </trkpt>
      <trkpt lat="44.58938" lon="6.5666">
        <ele>1742.900879</ele>
        <time>2011-08-09T11:41:22Z</time>
      </trkpt>
      <trkpt lat="44.58927" lon="6.56645">
        <ele>1737.082642</ele>
        <time>2011-08-09T11:41:24Z</time>
      </trkpt>
      <trkpt lat="44.58913" lon="6.56632">
        <ele>1732.443848</ele>
        <time>2011-08-09T11:41:26Z</time>
      </trkpt>
      <trkpt lat="44.58898" lon="6.56623">
        <ele>1730.858887</ele>
        <time>2011-08-09T11:41:28Z</time>
      </trkpt>
      <trkpt lat="44.58883" lon="6.56617">
        <ele>1730.215088</ele>
        <time>2011-08-09T11:41:30Z</time>
      </trkpt>
      <trkpt lat="44.58853" lon="6.56602">
        <ele>1729.459595</ele>
        <time>2011-08-09T11:41:34Z</time>
      </trkpt>
      <trkpt lat="44.58843" lon="6.56587">
        <ele>1725.125366</ele>
        <time>2011-08-09T11:41:36Z</time>
      </trkpt>
      <trkpt lat="44.58833" lon="6.56573">
        <ele>1721.003662</ele>
        <time>2011-08-09T11:41:38Z</time>
      </trkpt>
      <trkpt lat="44.5882" lon="6.56563">
        <ele>1718.225342</ele>
        <time>2011-08-09T11:41:40Z</time>
      </trkpt>
      <trkpt lat="44.58805" lon="6.56545">
        <ele>1711.976685</ele>
        <time>2011-08-09T11:41:42Z</time>
      </trkpt>
      <trkpt lat="44.5879" lon="6.5654">
        <ele>1711.731201</ele>
        <time>2011-08-09T11:41:44Z</time>
      </trkpt>
      <trkpt lat="44.58775" lon="6.56537">
        <ele>1712.432007</ele>
        <time>2011-08-09T11:41:46Z</time>
      </trkpt>
      <trkpt lat="44.58745" lon="6.56532">
        <ele>1715.596313</ele>
        <time>2011-08-09T11:41:50Z</time>
      </trkpt>
      <trkpt lat="44.58723" lon="6.56513">
        <ele>1716.202637</ele>
        <time>2011-08-09T11:41:54Z</time>
      </trkpt>
      <trkpt lat="44.587" lon="6.56468">
        <ele>1710.804321</ele>
        <time>2011-08-09T11:42:02Z</time>
      </trkpt>
      <trkpt lat="44.58702" lon="6.56448">
        <ele>1703.922485</ele>
        <time>2011-08-09T11:42:04Z</time>
      </trkpt>
      <trkpt lat="44.58715" lon="6.56445">
        <ele>1698.445313</ele>
        <time>2011-08-09T11:42:08Z</time>
      </trkpt>
      <trkpt lat="44.58732" lon="6.56463">
        <ele>1697.762939</ele>
        <time>2011-08-09T11:42:26Z</time>
      </trkpt>
      <trkpt lat="44.5874" lon="6.56478">
        <ele>1699.417969</ele>
        <time>2011-08-09T11:42:37Z</time>
      </trkpt>
      <trkpt lat="44.58748" lon="6.56493">
        <ele>1701.343628</ele>
        <time>2011-08-09T11:42:45Z</time>
      </trkpt>
      <trkpt lat="44.58767" lon="6.565">
        <ele>1698.625732</ele>
        <time>2011-08-09T11:42:51Z</time>
      </trkpt>
      <trkpt lat="44.58787" lon="6.56495">
        <ele>1691.062012</ele>
        <time>2011-08-09T11:42:55Z</time>
      </trkpt>
      <trkpt lat="44.58817" lon="6.56493">
        <ele>1683.035034</ele>
        <time>2011-08-09T11:42:59Z</time>
      </trkpt>
      <trkpt lat="44.58832" lon="6.56493">
        <ele>1679.778564</ele>
        <time>2011-08-09T11:43:01Z</time>
      </trkpt>
      <trkpt lat="44.58863" lon="6.56497">
        <ele>1675.990356</ele>
        <time>2011-08-09T11:43:05Z</time>
      </trkpt>
      <trkpt lat="44.58878" lon="6.565">
        <ele>1675.306396</ele>
        <time>2011-08-09T11:43:07Z</time>
      </trkpt>
      <trkpt lat="44.58893" lon="6.56507">
        <ele>1676.333496</ele>
        <time>2011-08-09T11:43:09Z</time>
      </trkpt>
      <trkpt lat="44.5891" lon="6.5651">
        <ele>1675.972778</ele>
        <time>2011-08-09T11:43:11Z</time>
      </trkpt>
      <trkpt lat="44.58985" lon="6.56527">
        <ele>1672.709351</ele>
        <time>2011-08-09T11:43:19Z</time>
      </trkpt>
      <trkpt lat="44.59018" lon="6.56532">
        <ele>1668.933594</ele>
        <time>2011-08-09T11:43:23Z</time>
      </trkpt>
      <trkpt lat="44.59035" lon="6.5653">
        <ele>1665.626343</ele>
        <time>2011-08-09T11:43:25Z</time>
      </trkpt>
      <trkpt lat="44.59052" lon="6.56525">
        <ele>1661.128052</ele>
        <time>2011-08-09T11:43:27Z</time>
      </trkpt>
      <trkpt lat="44.59065" lon="6.56517">
        <ele>1655.949219</ele>
        <time>2011-08-09T11:43:29Z</time>
      </trkpt>
      <trkpt lat="44.59078" lon="6.56512">
        <ele>1652.351074</ele>
        <time>2011-08-09T11:43:31Z</time>
      </trkpt>
      <trkpt lat="44.59102" lon="6.56523">
        <ele>1653.703003</ele>
        <time>2011-08-09T11:43:35Z</time>
      </trkpt>
      <trkpt lat="44.5916" lon="6.56558">
        <ele>1658.230469</ele>
        <time>2011-08-09T11:43:44Z</time>
      </trkpt>
      <trkpt lat="44.59175" lon="6.56553">
        <ele>1653.684326</ele>
        <time>2011-08-09T11:43:46Z</time>
      </trkpt>
      <trkpt lat="44.59188" lon="6.5655">
        <ele>1650.055054</ele>
        <time>2011-08-09T11:43:48Z</time>
      </trkpt>
      <trkpt lat="44.59203" lon="6.56552">
        <ele>1648.477417</ele>
        <time>2011-08-09T11:43:50Z</time>
      </trkpt>
      <trkpt lat="44.5922" lon="6.56552">
        <ele>1647.130371</ele>
        <time>2011-08-09T11:43:52Z</time>
      </trkpt>
      <trkpt lat="44.59238" lon="6.56548">
        <ele>1644.165405</ele>
        <time>2011-08-09T11:43:54Z</time>
      </trkpt>
      <trkpt lat="44.59255" lon="6.56547">
        <ele>1642.439331</ele>
        <time>2011-08-09T11:43:56Z</time>
      </trkpt>
      <trkpt lat="44.5927" lon="6.56545">
        <ele>1641.072144</ele>
        <time>2011-08-09T11:43:58Z</time>
      </trkpt>
      <trkpt lat="44.59302" lon="6.56538">
        <ele>1636.870117</ele>
        <time>2011-08-09T11:44:02Z</time>
      </trkpt>
      <trkpt lat="44.5935" lon="6.56532">
        <ele>1632.445679</ele>
        <time>2011-08-09T11:44:08Z</time>
      </trkpt>
      <trkpt lat="44.59395" lon="6.5652">
        <ele>1626.052734</ele>
        <time>2011-08-09T11:44:14Z</time>
      </trkpt>
      <trkpt lat="44.59412" lon="6.56513">
        <ele>1622.670532</ele>
        <time>2011-08-09T11:44:16Z</time>
      </trkpt>
      <trkpt lat="44.59435" lon="6.56508">
        <ele>1620.130493</ele>
        <time>2011-08-09T11:44:18Z</time>
      </trkpt>
      <trkpt lat="44.59518" lon="6.56492">
        <ele>1612.317871</ele>
        <time>2011-08-09T11:44:28Z</time>
      </trkpt>
      <trkpt lat="44.59535" lon="6.5649">
        <ele>1612.280396</ele>
        <time>2011-08-09T11:44:30Z</time>
      </trkpt>
      <trkpt lat="44.59552" lon="6.56492">
        <ele>1613.957031</ele>
        <time>2011-08-09T11:44:32Z</time>
      </trkpt>
      <trkpt lat="44.59568" lon="6.56495">
        <ele>1616.614746</ele>
        <time>2011-08-09T11:44:34Z</time>
      </trkpt>
      <trkpt lat="44.59585" lon="6.56492">
        <ele>1615.756836</ele>
        <time>2011-08-09T11:44:37Z</time>
      </trkpt>
      <trkpt lat="44.59618" lon="6.56483">
        <ele>1613.107544</ele>
        <time>2011-08-09T11:44:41Z</time>
      </trkpt>
      <trkpt lat="44.59635" lon="6.56477">
        <ele>1610.530029</ele>
        <time>2011-08-09T11:44:43Z</time>
      </trkpt>
      <trkpt lat="44.5967" lon="6.56463">
        <ele>1605.856079</ele>
        <time>2011-08-09T11:44:47Z</time>
      </trkpt>
      <trkpt lat="44.59687" lon="6.56458">
        <ele>1604.509033</ele>
        <time>2011-08-09T11:44:49Z</time>
      </trkpt>
      <trkpt lat="44.59703" lon="6.56457">
        <ele>1604.931641</ele>
        <time>2011-08-09T11:44:51Z</time>
      </trkpt>
      <trkpt lat="44.59722" lon="6.56453">
        <ele>1604.818726</ele>
        <time>2011-08-09T11:44:53Z</time>
      </trkpt>
      <trkpt lat="44.5974" lon="6.56448">
        <ele>1603.767456</ele>
        <time>2011-08-09T11:44:55Z</time>
      </trkpt>
      <trkpt lat="44.59758" lon="6.56438">
        <ele>1600.152466</ele>
        <time>2011-08-09T11:44:57Z</time>
      </trkpt>
      <trkpt lat="44.59812" lon="6.56405">
        <ele>1587.322998</ele>
        <time>2011-08-09T11:45:03Z</time>
      </trkpt>
      <trkpt lat="44.59827" lon="6.56395">
        <ele>1583.058105</ele>
        <time>2011-08-09T11:45:05Z</time>
      </trkpt>
      <trkpt lat="44.59842" lon="6.56395">
        <ele>1582.646606</ele>
        <time>2011-08-09T11:45:07Z</time>
      </trkpt>
      <trkpt lat="44.59858" lon="6.56398">
        <ele>1580.986206</ele>
        <time>2011-08-09T11:45:09Z</time>
      </trkpt>
      <trkpt lat="44.59875" lon="6.56405">
        <ele>1581.119751</ele>
        <time>2011-08-09T11:45:11Z</time>
      </trkpt>
      <trkpt lat="44.59945" lon="6.5643">
        <ele>1579.052612</ele>
        <time>2011-08-09T11:45:19Z</time>
      </trkpt>
      <trkpt lat="44.59962" lon="6.56432">
        <ele>1576.974487</ele>
        <time>2011-08-09T11:45:21Z</time>
      </trkpt>
      <trkpt lat="44.59997" lon="6.56435">
        <ele>1571.347534</ele>
        <time>2011-08-09T11:45:25Z</time>
      </trkpt>
      <trkpt lat="44.60012" lon="6.56437">
        <ele>1568.848145</ele>
        <time>2011-08-09T11:45:27Z</time>
      </trkpt>
      <trkpt lat="44.60027" lon="6.56445">
        <ele>1569.543091</ele>
        <time>2011-08-09T11:45:29Z</time>
      </trkpt>
      <trkpt lat="44.60073" lon="6.56465">
        <ele>1564.724609</ele>
        <time>2011-08-09T11:45:37Z</time>
      </trkpt>
      <trkpt lat="44.60072" lon="6.5644">
        <ele>1560.584106</ele>
        <time>2011-08-09T11:52:11Z</time>
      </trkpt>
      <trkpt lat="44.60055" lon="6.56432">
        <ele>1561.505493</ele>
        <time>2011-08-09T11:52:22Z</time>
      </trkpt>
      <trkpt lat="44.60038" lon="6.56437">
        <ele>1565.252441</ele>
        <time>2011-08-09T11:52:25Z</time>
      </trkpt>
      <trkpt lat="44.60017" lon="6.56427">
        <ele>1563.630737</ele>
        <time>2011-08-09T11:52:29Z</time>
      </trkpt>
      <trkpt lat="44.60003" lon="6.56405">
        <ele>1556.752319</ele>
        <time>2011-08-09T11:52:34Z</time>
      </trkpt>
      <trkpt lat="44.59992" lon="6.56392">
        <ele>1553.150879</ele>
        <time>2011-08-09T11:52:39Z</time>
      </trkpt>
      <trkpt lat="44.59978" lon="6.56383">
        <ele>1552.024536</ele>
        <time>2011-08-09T11:53:20Z</time>
      </trkpt>
      <trkpt lat="44.59957" lon="6.5638">
        <ele>1554.307129</ele>
        <time>2011-08-09T11:53:24Z</time>
      </trkpt>
      <trkpt lat="44.59933" lon="6.5637">
        <ele>1553.675049</ele>
        <time>2011-08-09T11:53:28Z</time>
      </trkpt>
      <trkpt lat="44.59922" lon="6.5636">
        <ele>1551.071167</ele>
        <time>2011-08-09T11:53:30Z</time>
      </trkpt>
      <trkpt lat="44.59898" lon="6.56347">
        <ele>1548.309326</ele>
        <time>2011-08-09T11:53:34Z</time>
      </trkpt>
      <trkpt lat="44.59877" lon="6.56345">
        <ele>1550.351685</ele>
        <time>2011-08-09T11:53:38Z</time>
      </trkpt>
      <trkpt lat="44.59853" lon="6.56332">
        <ele>1547.828857</ele>
        <time>2011-08-09T11:53:42Z</time>
      </trkpt>
      <trkpt lat="44.59815" lon="6.56317">
        <ele>1541.870483</ele>
        <time>2011-08-09T11:53:48Z</time>
      </trkpt>
      <trkpt lat="44.59775" lon="6.56308">
        <ele>1537.40979</ele>
        <time>2011-08-09T11:53:54Z</time>
      </trkpt>
      <trkpt lat="44.59747" lon="6.56315">
        <ele>1539.914185</ele>
        <time>2011-08-09T11:53:58Z</time>
      </trkpt>
      <trkpt lat="44.5973" lon="6.56318">
        <ele>1540.836182</ele>
        <time>2011-08-09T11:54:00Z</time>
      </trkpt>
      <trkpt lat="44.59715" lon="6.56318">
        <ele>1540.307251</ele>
        <time>2011-08-09T11:54:02Z</time>
      </trkpt>
      <trkpt lat="44.597" lon="6.5632">
        <ele>1540.426636</ele>
        <time>2011-08-09T11:54:04Z</time>
      </trkpt>
      <trkpt lat="44.59683" lon="6.56317">
        <ele>1538.412109</ele>
        <time>2011-08-09T11:54:07Z</time>
      </trkpt>
      <trkpt lat="44.59635" lon="6.56305">
        <ele>1532.390869</ele>
        <time>2011-08-09T11:54:13Z</time>
      </trkpt>
      <trkpt lat="44.59617" lon="6.56297">
        <ele>1529.012939</ele>
        <time>2011-08-09T11:54:15Z</time>
      </trkpt>
      <trkpt lat="44.59602" lon="6.5629">
        <ele>1525.753418</ele>
        <time>2011-08-09T11:54:17Z</time>
      </trkpt>
      <trkpt lat="44.59585" lon="6.5629">
        <ele>1524.483521</ele>
        <time>2011-08-09T11:54:19Z</time>
      </trkpt>
      <trkpt lat="44.5957" lon="6.56295">
        <ele>1525.145386</ele>
        <time>2011-08-09T11:54:21Z</time>
      </trkpt>
      <trkpt lat="44.59555" lon="6.563">
        <ele>1526.251221</ele>
        <time>2011-08-09T11:54:23Z</time>
      </trkpt>
      <trkpt lat="44.5954" lon="6.56297">
        <ele>1524.375732</ele>
        <time>2011-08-09T11:54:25Z</time>
      </trkpt>
      <trkpt lat="44.59528" lon="6.56287">
        <ele>1520.055908</ele>
        <time>2011-08-09T11:54:27Z</time>
      </trkpt>
      <trkpt lat="44.59503" lon="6.56263">
        <ele>1514.919067</ele>
        <time>2011-08-09T11:54:31Z</time>
      </trkpt>
      <trkpt lat="44.59492" lon="6.56248">
        <ele>1512.265869</ele>
        <time>2011-08-09T11:54:33Z</time>
      </trkpt>
      <trkpt lat="44.5947" lon="6.56217">
        <ele>1506.223145</ele>
        <time>2011-08-09T11:54:37Z</time>
      </trkpt>
      <trkpt lat="44.59443" lon="6.56185">
        <ele>1499.739868</ele>
        <time>2011-08-09T11:54:41Z</time>
      </trkpt>
      <trkpt lat="44.5943" lon="6.56178">
        <ele>1498.807861</ele>
        <time>2011-08-09T11:54:43Z</time>
      </trkpt>
      <trkpt lat="44.59413" lon="6.56175">
        <ele>1499.201172</ele>
        <time>2011-08-09T11:54:47Z</time>
      </trkpt>
      <trkpt lat="44.594" lon="6.5617">
        <ele>1498.707275</ele>
        <time>2011-08-09T12:00:13Z</time>
      </trkpt>
      <trkpt lat="44.59378" lon="6.56163">
        <ele>1495.561768</ele>
        <time>2011-08-09T12:00:17Z</time>
      </trkpt>
      <trkpt lat="44.59357" lon="6.56177">
        <ele>1498.485229</ele>
        <time>2011-08-09T12:00:21Z</time>
      </trkpt>
      <trkpt lat="44.59343" lon="6.56183">
        <ele>1499.300659</ele>
        <time>2011-08-09T12:00:24Z</time>
      </trkpt>
      <trkpt lat="44.59313" lon="6.56197">
        <ele>1500.063599</ele>
        <time>2011-08-09T12:00:28Z</time>
      </trkpt>
      <trkpt lat="44.59298" lon="6.562">
        <ele>1499.895386</ele>
        <time>2011-08-09T12:00:30Z</time>
      </trkpt>
      <trkpt lat="44.59268" lon="6.56207">
        <ele>1500.758179</ele>
        <time>2011-08-09T12:00:34Z</time>
      </trkpt>
      <trkpt lat="44.59252" lon="6.56205">
        <ele>1499.905273</ele>
        <time>2011-08-09T12:00:36Z</time>
      </trkpt>
      <trkpt lat="44.59238" lon="6.56198">
        <ele>1498.061157</ele>
        <time>2011-08-09T12:00:38Z</time>
      </trkpt>
      <trkpt lat="44.59223" lon="6.56187">
        <ele>1494.480469</ele>
        <time>2011-08-09T12:00:40Z</time>
      </trkpt>
      <trkpt lat="44.59208" lon="6.56177">
        <ele>1490.738647</ele>
        <time>2011-08-09T12:00:42Z</time>
      </trkpt>
      <trkpt lat="44.59192" lon="6.5617">
        <ele>1486.988892</ele>
        <time>2011-08-09T12:00:44Z</time>
      </trkpt>
      <trkpt lat="44.59177" lon="6.5617">
        <ele>1485.839355</ele>
        <time>2011-08-09T12:00:46Z</time>
      </trkpt>
      <trkpt lat="44.59162" lon="6.56173">
        <ele>1486.229126</ele>
        <time>2011-08-09T12:00:48Z</time>
      </trkpt>
      <trkpt lat="44.59145" lon="6.56177">
        <ele>1486.650635</ele>
        <time>2011-08-09T12:00:50Z</time>
      </trkpt>
      <trkpt lat="44.59132" lon="6.5618">
        <ele>1487.425415</ele>
        <time>2011-08-09T12:00:52Z</time>
      </trkpt>
      <trkpt lat="44.59117" lon="6.56178">
        <ele>1486.74353</ele>
        <time>2011-08-09T12:00:54Z</time>
      </trkpt>
      <trkpt lat="44.59103" lon="6.56168">
        <ele>1483.095215</ele>
        <time>2011-08-09T12:00:56Z</time>
      </trkpt>
      <trkpt lat="44.59082" lon="6.56157">
        <ele>1479.286865</ele>
        <time>2011-08-09T12:00:58Z</time>
      </trkpt>
      <trkpt lat="44.59068" lon="6.56148">
        <ele>1477.562744</ele>
        <time>2011-08-09T12:01:00Z</time>
      </trkpt>
      <trkpt lat="44.59053" lon="6.56143">
        <ele>1477.591187</ele>
        <time>2011-08-09T12:01:02Z</time>
      </trkpt>
      <trkpt lat="44.5904" lon="6.5614">
        <ele>1478.087769</ele>
        <time>2011-08-09T12:01:04Z</time>
      </trkpt>
      <trkpt lat="44.59025" lon="6.56135">
        <ele>1479.013062</ele>
        <time>2011-08-09T12:01:06Z</time>
      </trkpt>
      <trkpt lat="44.5901" lon="6.56122">
        <ele>1476.848877</ele>
        <time>2011-08-09T12:01:09Z</time>
      </trkpt>
      <trkpt lat="44.58998" lon="6.56112">
        <ele>1475.408569</ele>
        <time>2011-08-09T12:01:11Z</time>
      </trkpt>
      <trkpt lat="44.58987" lon="6.561">
        <ele>1474.186768</ele>
        <time>2011-08-09T12:01:13Z</time>
      </trkpt>
      <trkpt lat="44.58975" lon="6.56087">
        <ele>1472.808472</ele>
        <time>2011-08-09T12:01:15Z</time>
      </trkpt>
      <trkpt lat="44.58943" lon="6.56052">
        <ele>1466.502686</ele>
        <time>2011-08-09T12:01:21Z</time>
      </trkpt>
      <trkpt lat="44.5892" lon="6.56037">
        <ele>1463.808594</ele>
        <time>2011-08-09T12:01:25Z</time>
      </trkpt>
      <trkpt lat="44.58907" lon="6.56033">
        <ele>1464.717407</ele>
        <time>2011-08-09T12:01:27Z</time>
      </trkpt>
      <trkpt lat="44.58882" lon="6.56028">
        <ele>1462.141968</ele>
        <time>2011-08-09T12:01:31Z</time>
      </trkpt>
      <trkpt lat="44.58868" lon="6.56032">
        <ele>1463.886719</ele>
        <time>2011-08-09T12:01:33Z</time>
      </trkpt>
      <trkpt lat="44.58843" lon="6.56033">
        <ele>1463.007202</ele>
        <time>2011-08-09T12:01:37Z</time>
      </trkpt>
      <trkpt lat="44.58818" lon="6.5603">
        <ele>1458.253662</ele>
        <time>2011-08-09T12:01:41Z</time>
      </trkpt>
      <trkpt lat="44.58798" lon="6.56017">
        <ele>1456.937622</ele>
        <time>2011-08-09T12:01:43Z</time>
      </trkpt>
      <trkpt lat="44.58787" lon="6.56005">
        <ele>1456.047485</ele>
        <time>2011-08-09T12:01:45Z</time>
      </trkpt>
      <trkpt lat="44.58775" lon="6.5599">
        <ele>1454.563232</ele>
        <time>2011-08-09T12:01:47Z</time>
      </trkpt>
      <trkpt lat="44.58765" lon="6.55968">
        <ele>1452.512085</ele>
        <time>2011-08-09T12:01:49Z</time>
      </trkpt>
      <trkpt lat="44.58765" lon="6.55943">
        <ele>1448.290771</ele>
        <time>2011-08-09T12:01:52Z</time>
      </trkpt>
      <trkpt lat="44.58772" lon="6.5592">
        <ele>1441.555176</ele>
        <time>2011-08-09T12:01:54Z</time>
      </trkpt>
      <trkpt lat="44.58777" lon="6.559">
        <ele>1436.302246</ele>
        <time>2011-08-09T12:01:56Z</time>
      </trkpt>
      <trkpt lat="44.58787" lon="6.55863">
        <ele>1432.440674</ele>
        <time>2011-08-09T12:02:00Z</time>
      </trkpt>
      <trkpt lat="44.58793" lon="6.55845">
        <ele>1429.694336</ele>
        <time>2011-08-09T12:02:02Z</time>
      </trkpt>
      <trkpt lat="44.58802" lon="6.5583">
        <ele>1426.12207</ele>
        <time>2011-08-09T12:02:04Z</time>
      </trkpt>
      <trkpt lat="44.58815" lon="6.55807">
        <ele>1420.851563</ele>
        <time>2011-08-09T12:02:08Z</time>
      </trkpt>
      <trkpt lat="44.5882" lon="6.55775">
        <ele>1420.393188</ele>
        <time>2011-08-09T12:02:12Z</time>
      </trkpt>
      <trkpt lat="44.58825" lon="6.55745">
        <ele>1419.552856</ele>
        <time>2011-08-09T12:02:16Z</time>
      </trkpt>
      <trkpt lat="44.58833" lon="6.55715">
        <ele>1417.055786</ele>
        <time>2011-08-09T12:02:20Z</time>
      </trkpt>
      <trkpt lat="44.58848" lon="6.55687">
        <ele>1410.676514</ele>
        <time>2011-08-09T12:02:24Z</time>
      </trkpt>
      <trkpt lat="44.5886" lon="6.5566">
        <ele>1406.289917</ele>
        <time>2011-08-09T12:02:28Z</time>
      </trkpt>
      <trkpt lat="44.5886" lon="6.5563">
        <ele>1406.804565</ele>
        <time>2011-08-09T12:02:32Z</time>
      </trkpt>
      <trkpt lat="44.58858" lon="6.55605">
        <ele>1407.789185</ele>
        <time>2011-08-09T12:02:36Z</time>
      </trkpt>
      <trkpt lat="44.58865" lon="6.55588">
        <ele>1405.069336</ele>
        <time>2011-08-09T12:03:26Z</time>
      </trkpt>
      <trkpt lat="44.58873" lon="6.55573">
        <ele>1401.678223</ele>
        <time>2011-08-09T12:03:30Z</time>
      </trkpt>
      <trkpt lat="44.58885" lon="6.55553">
        <ele>1397.585693</ele>
        <time>2011-08-09T12:03:34Z</time>
      </trkpt>
      <trkpt lat="44.58905" lon="6.55525">
        <ele>1391.062622</ele>
        <time>2011-08-09T12:03:39Z</time>
      </trkpt>
      <trkpt lat="44.58917" lon="6.55515">
        <ele>1386.904541</ele>
        <time>2011-08-09T12:03:41Z</time>
      </trkpt>
      <trkpt lat="44.5893" lon="6.55495">
        <ele>1382.481201</ele>
        <time>2011-08-09T12:03:45Z</time>
      </trkpt>
      <trkpt lat="44.58922" lon="6.55475">
        <ele>1384.123291</ele>
        <time>2011-08-09T12:03:49Z</time>
      </trkpt>
      <trkpt lat="44.58903" lon="6.55447">
        <ele>1382.871948</ele>
        <time>2011-08-09T12:03:53Z</time>
      </trkpt>
      <trkpt lat="44.58888" lon="6.55428">
        <ele>1381.214966</ele>
        <time>2011-08-09T12:03:58Z</time>
      </trkpt>
      <trkpt lat="44.58865" lon="6.55415">
        <ele>1380.586914</ele>
        <time>2011-08-09T12:04:02Z</time>
      </trkpt>
      <trkpt lat="44.58853" lon="6.55405">
        <ele>1379.084229</ele>
        <time>2011-08-09T12:04:04Z</time>
      </trkpt>
      <trkpt lat="44.58842" lon="6.55392">
        <ele>1376.66333</ele>
        <time>2011-08-09T12:04:06Z</time>
      </trkpt>
      <trkpt lat="44.58837" lon="6.55373">
        <ele>1372.515625</ele>
        <time>2011-08-09T12:04:08Z</time>
      </trkpt>
      <trkpt lat="44.58832" lon="6.55355">
        <ele>1368.13562</ele>
        <time>2011-08-09T12:04:10Z</time>
      </trkpt>
      <trkpt lat="44.58812" lon="6.55335">
        <ele>1363.651978</ele>
        <time>2011-08-09T12:04:14Z</time>
      </trkpt>
      <trkpt lat="44.58785" lon="6.55337">
        <ele>1365.465454</ele>
        <time>2011-08-09T12:04:18Z</time>
      </trkpt>
      <trkpt lat="44.58762" lon="6.55328">
        <ele>1363.815186</ele>
        <time>2011-08-09T12:04:22Z</time>
      </trkpt>
      <trkpt lat="44.5874" lon="6.55308">
        <ele>1358.926392</ele>
        <time>2011-08-09T12:04:26Z</time>
      </trkpt>
      <trkpt lat="44.58728" lon="6.55298">
        <ele>1356.540894</ele>
        <time>2011-08-09T12:04:28Z</time>
      </trkpt>
      <trkpt lat="44.5871" lon="6.55288">
        <ele>1354.411255</ele>
        <time>2011-08-09T12:04:30Z</time>
      </trkpt>
      <trkpt lat="44.58675" lon="6.5527">
        <ele>1349.517456</ele>
        <time>2011-08-09T12:04:36Z</time>
      </trkpt>
      <trkpt lat="44.58662" lon="6.55262">
        <ele>1346.358276</ele>
        <time>2011-08-09T12:04:39Z</time>
      </trkpt>
      <trkpt lat="44.58648" lon="6.55253">
        <ele>1343.138184</ele>
        <time>2011-08-09T12:04:41Z</time>
      </trkpt>
      <trkpt lat="44.58632" lon="6.55247">
        <ele>1340.597778</ele>
        <time>2011-08-09T12:04:43Z</time>
      </trkpt>
      <trkpt lat="44.58617" lon="6.55242">
        <ele>1338.797607</ele>
        <time>2011-08-09T12:04:45Z</time>
      </trkpt>
      <trkpt lat="44.58602" lon="6.55237">
        <ele>1337.378296</ele>
        <time>2011-08-09T12:04:47Z</time>
      </trkpt>
      <trkpt lat="44.58588" lon="6.5523">
        <ele>1335.115112</ele>
        <time>2011-08-09T12:04:49Z</time>
      </trkpt>
      <trkpt lat="44.58575" lon="6.55222">
        <ele>1331.993042</ele>
        <time>2011-08-09T12:04:51Z</time>
      </trkpt>
      <trkpt lat="44.58552" lon="6.55207">
        <ele>1325.394653</ele>
        <time>2011-08-09T12:04:55Z</time>
      </trkpt>
      <trkpt lat="44.58525" lon="6.55205">
        <ele>1324.66748</ele>
        <time>2011-08-09T12:04:59Z</time>
      </trkpt>
      <trkpt lat="44.585" lon="6.55188">
        <ele>1317.516235</ele>
        <time>2011-08-09T12:05:03Z</time>
      </trkpt>
      <trkpt lat="44.58473" lon="6.55175">
        <ele>1313.484253</ele>
        <time>2011-08-09T12:05:07Z</time>
      </trkpt>
      <trkpt lat="44.5845" lon="6.55168">
        <ele>1312.047363</ele>
        <time>2011-08-09T12:05:09Z</time>
      </trkpt>
      <trkpt lat="44.58435" lon="6.55167">
        <ele>1311.315063</ele>
        <time>2011-08-09T12:05:11Z</time>
      </trkpt>
      <trkpt lat="44.58408" lon="6.55163">
        <ele>1309.23645</ele>
        <time>2011-08-09T12:05:16Z</time>
      </trkpt>
      <trkpt lat="44.58417" lon="6.55147">
        <ele>1306.573242</ele>
        <time>2011-08-09T12:05:24Z</time>
      </trkpt>
      <trkpt lat="44.58437" lon="6.55143">
        <ele>1306.397827</ele>
        <time>2011-08-09T12:05:32Z</time>
      </trkpt>
      <trkpt lat="44.58452" lon="6.55138">
        <ele>1305.119385</ele>
        <time>2011-08-09T12:05:36Z</time>
      </trkpt>
      <trkpt lat="44.58468" lon="6.5513">
        <ele>1302.356445</ele>
        <time>2011-08-09T12:05:40Z</time>
      </trkpt>
      <trkpt lat="44.58493" lon="6.5512">
        <ele>1298.528076</ele>
        <time>2011-08-09T12:05:44Z</time>
      </trkpt>
      <trkpt lat="44.5852" lon="6.55093">
        <ele>1291.845581</ele>
        <time>2011-08-09T12:05:48Z</time>
      </trkpt>
      <trkpt lat="44.58545" lon="6.55078">
        <ele>1287.985352</ele>
        <time>2011-08-09T12:05:52Z</time>
      </trkpt>
      <trkpt lat="44.58565" lon="6.55055">
        <ele>1283.720093</ele>
        <time>2011-08-09T12:05:56Z</time>
      </trkpt>
      <trkpt lat="44.58577" lon="6.55043">
        <ele>1282.227905</ele>
        <time>2011-08-09T12:05:58Z</time>
      </trkpt>
      <trkpt lat="44.58588" lon="6.55033">
        <ele>1281.397827</ele>
        <time>2011-08-09T12:06:00Z</time>
      </trkpt>
      <trkpt lat="44.586" lon="6.55023">
        <ele>1281.118164</ele>
        <time>2011-08-09T12:06:03Z</time>
      </trkpt>
      <trkpt lat="44.58617" lon="6.54998">
        <ele>1279.58606</ele>
        <time>2011-08-09T12:06:07Z</time>
      </trkpt>
      <trkpt lat="44.58628" lon="6.54977">
        <ele>1278.496704</ele>
        <time>2011-08-09T12:06:11Z</time>
      </trkpt>
      <trkpt lat="44.58642" lon="6.54965">
        <ele>1278.262573</ele>
        <time>2011-08-09T12:06:17Z</time>
      </trkpt>
      <trkpt lat="44.58657" lon="6.54963">
        <ele>1279.279053</ele>
        <time>2011-08-09T12:06:25Z</time>
      </trkpt>
      <trkpt lat="44.58672" lon="6.5496">
        <ele>1280.104736</ele>
        <time>2011-08-09T12:06:38Z</time>
      </trkpt>
      <trkpt lat="44.58693" lon="6.54958">
        <ele>1281.339722</ele>
        <time>2011-08-09T12:06:56Z</time>
      </trkpt>
      <trkpt lat="44.5872" lon="6.5496">
        <ele>1283.174561</ele>
        <time>2011-08-09T12:09:21Z</time>
      </trkpt>
      <trkpt lat="44.58738" lon="6.54955">
        <ele>1283.911987</ele>
        <time>2011-08-09T12:09:29Z</time>
      </trkpt>
      <trkpt lat="44.58753" lon="6.54955">
        <ele>1285.089355</ele>
        <time>2011-08-09T12:09:33Z</time>
      </trkpt>
      <trkpt lat="44.58768" lon="6.54958">
        <ele>1286.22583</ele>
        <time>2011-08-09T12:09:37Z</time>
      </trkpt>
      <trkpt lat="44.58787" lon="6.54962">
        <ele>1284.539063</ele>
        <time>2011-08-09T12:09:41Z</time>
      </trkpt>
      <trkpt lat="44.58817" lon="6.54968">
        <ele>1281.604492</ele>
        <time>2011-08-09T12:09:48Z</time>
      </trkpt>
      <trkpt lat="44.58838" lon="6.5498">
        <ele>1279.391846</ele>
        <time>2011-08-09T12:09:52Z</time>
      </trkpt>
      <trkpt lat="44.58888" lon="6.55007">
        <ele>1277.0354</ele>
        <time>2011-08-09T12:09:59Z</time>
      </trkpt>
      <trkpt lat="44.58902" lon="6.5501">
        <ele>1275.765869</ele>
        <time>2011-08-09T12:10:01Z</time>
      </trkpt>
      <trkpt lat="44.58925" lon="6.55018">
        <ele>1273.94104</ele>
        <time>2011-08-09T12:10:05Z</time>
      </trkpt>
      <trkpt lat="44.58965" lon="6.55035">
        <ele>1269.539917</ele>
        <time>2011-08-09T12:10:14Z</time>
      </trkpt>
      <trkpt lat="44.58985" lon="6.5505">
        <ele>1269.220703</ele>
        <time>2011-08-09T12:10:18Z</time>
      </trkpt>
      <trkpt lat="44.58997" lon="6.5506">
        <ele>1269.233154</ele>
        <time>2011-08-09T12:10:20Z</time>
      </trkpt>
      <trkpt lat="44.5903" lon="6.5509">
        <ele>1269.010254</ele>
        <time>2011-08-09T12:10:26Z</time>
      </trkpt>
      <trkpt lat="44.59055" lon="6.55102">
        <ele>1266.281372</ele>
        <time>2011-08-09T12:10:30Z</time>
      </trkpt>
      <trkpt lat="44.5908" lon="6.55115">
        <ele>1264.648193</ele>
        <time>2011-08-09T12:10:34Z</time>
      </trkpt>
      <trkpt lat="44.59093" lon="6.55123">
        <ele>1266.181885</ele>
        <time>2011-08-09T12:10:36Z</time>
      </trkpt>
      <trkpt lat="44.59115" lon="6.5513">
        <ele>1266.400757</ele>
        <time>2011-08-09T12:10:38Z</time>
      </trkpt>
      <trkpt lat="44.59147" lon="6.55127">
        <ele>1262.743042</ele>
        <time>2011-08-09T12:10:42Z</time>
      </trkpt>
      <trkpt lat="44.59163" lon="6.55127">
        <ele>1261.394775</ele>
        <time>2011-08-09T12:10:44Z</time>
      </trkpt>
      <trkpt lat="44.59182" lon="6.55128">
        <ele>1258.391846</ele>
        <time>2011-08-09T12:10:46Z</time>
      </trkpt>
      <trkpt lat="44.59198" lon="6.55132">
        <ele>1256.179932</ele>
        <time>2011-08-09T12:10:48Z</time>
      </trkpt>
      <trkpt lat="44.59232" lon="6.55142">
        <ele>1251.577026</ele>
        <time>2011-08-09T12:10:52Z</time>
      </trkpt>
      <trkpt lat="44.59245" lon="6.55152">
        <ele>1250.89563</ele>
        <time>2011-08-09T12:10:55Z</time>
      </trkpt>
      <trkpt lat="44.59257" lon="6.55167">
        <ele>1251.347534</ele>
        <time>2011-08-09T12:10:57Z</time>
      </trkpt>
      <trkpt lat="44.59268" lon="6.55183">
        <ele>1251.720703</ele>
        <time>2011-08-09T12:10:59Z</time>
      </trkpt>
      <trkpt lat="44.59278" lon="6.55197">
        <ele>1252.903198</ele>
        <time>2011-08-09T12:11:01Z</time>
      </trkpt>
      <trkpt lat="44.59292" lon="6.55205">
        <ele>1251.021362</ele>
        <time>2011-08-09T12:11:03Z</time>
      </trkpt>
      <trkpt lat="44.59307" lon="6.55208">
        <ele>1247.973511</ele>
        <time>2011-08-09T12:11:05Z</time>
      </trkpt>
      <trkpt lat="44.59322" lon="6.55208">
        <ele>1244.50708</ele>
        <time>2011-08-09T12:11:07Z</time>
      </trkpt>
      <trkpt lat="44.59348" lon="6.55215">
        <ele>1239.513306</ele>
        <time>2011-08-09T12:11:11Z</time>
      </trkpt>
      <trkpt lat="44.59363" lon="6.5522">
        <ele>1235.63269</ele>
        <time>2011-08-09T12:11:13Z</time>
      </trkpt>
      <trkpt lat="44.59375" lon="6.55232">
        <ele>1232.671143</ele>
        <time>2011-08-09T12:11:17Z</time>
      </trkpt>
      <trkpt lat="44.59375" lon="6.55203">
        <ele>1231.004517</ele>
        <time>2011-08-09T12:11:56Z</time>
      </trkpt>
      <trkpt lat="44.5937" lon="6.55172">
        <ele>1227.615356</ele>
        <time>2011-08-09T12:12:00Z</time>
      </trkpt>
      <trkpt lat="44.59363" lon="6.55152">
        <ele>1224.482544</ele>
        <time>2011-08-09T12:12:04Z</time>
      </trkpt>
      <trkpt lat="44.59348" lon="6.55132">
        <ele>1221.733154</ele>
        <time>2011-08-09T12:12:08Z</time>
      </trkpt>
      <trkpt lat="44.59327" lon="6.55112">
        <ele>1220.753906</ele>
        <time>2011-08-09T12:12:12Z</time>
      </trkpt>
      <trkpt lat="44.59315" lon="6.55085">
        <ele>1216.997192</ele>
        <time>2011-08-09T12:12:16Z</time>
      </trkpt>
      <trkpt lat="44.593" lon="6.55067">
        <ele>1215.698364</ele>
        <time>2011-08-09T12:12:20Z</time>
      </trkpt>
      <trkpt lat="44.59282" lon="6.55055">
        <ele>1216.722168</ele>
        <time>2011-08-09T12:12:24Z</time>
      </trkpt>
      <trkpt lat="44.59263" lon="6.55038">
        <ele>1216.696045</ele>
        <time>2011-08-09T12:12:29Z</time>
      </trkpt>
      <trkpt lat="44.59253" lon="6.55023">
        <ele>1215.463501</ele>
        <time>2011-08-09T12:12:33Z</time>
      </trkpt>
      <trkpt lat="44.5925" lon="6.54995">
        <ele>1210.35498</ele>
        <time>2011-08-09T12:12:45Z</time>
      </trkpt>
      <trkpt lat="44.59243" lon="6.54975">
        <ele>1209.464966</ele>
        <time>2011-08-09T12:12:49Z</time>
      </trkpt>
      <trkpt lat="44.59245" lon="6.5495">
        <ele>1206.769043</ele>
        <time>2011-08-09T12:12:53Z</time>
      </trkpt>
      <trkpt lat="44.59252" lon="6.54933">
        <ele>1203.813843</ele>
        <time>2011-08-09T12:12:55Z</time>
      </trkpt>
      <trkpt lat="44.5926" lon="6.54918">
        <ele>1201.466187</ele>
        <time>2011-08-09T12:12:57Z</time>
      </trkpt>
      <trkpt lat="44.59253" lon="6.54937">
        <ele>1203.766968</ele>
        <time>2011-08-09T12:13:09Z</time>
      </trkpt>
      <trkpt lat="44.59262" lon="6.54917">
        <ele>1201.125854</ele>
        <time>2011-08-09T12:20:51Z</time>
      </trkpt>
      <trkpt lat="44.59277" lon="6.54907">
        <ele>1198.330078</ele>
        <time>2011-08-09T12:21:34Z</time>
      </trkpt>
      <trkpt lat="44.59293" lon="6.54902">
        <ele>1195.304077</ele>
        <time>2011-08-09T12:21:38Z</time>
      </trkpt>
      <trkpt lat="44.59307" lon="6.54895">
        <ele>1192.859131</ele>
        <time>2011-08-09T12:21:42Z</time>
      </trkpt>
      <trkpt lat="44.59322" lon="6.54888">
        <ele>1190.472412</ele>
        <time>2011-08-09T12:21:46Z</time>
      </trkpt>
      <trkpt lat="44.59345" lon="6.54878">
        <ele>1186.727051</ele>
        <time>2011-08-09T12:21:50Z</time>
      </trkpt>
      <trkpt lat="44.59363" lon="6.54868">
        <ele>1183.898438</ele>
        <time>2011-08-09T12:21:55Z</time>
      </trkpt>
      <trkpt lat="44.59377" lon="6.54858">
        <ele>1182.072754</ele>
        <time>2011-08-09T12:21:59Z</time>
      </trkpt>
      <trkpt lat="44.5937" lon="6.54877">
        <ele>1183.120972</ele>
        <time>2011-08-09T12:22:07Z</time>
      </trkpt>
      <trkpt lat="44.59357" lon="6.5489">
        <ele>1185.278931</ele>
        <time>2011-08-09T12:22:11Z</time>
      </trkpt>
      <trkpt lat="44.59345" lon="6.5491">
        <ele>1187.45105</ele>
        <time>2011-08-09T12:22:15Z</time>
      </trkpt>
      <trkpt lat="44.5934" lon="6.54937">
        <ele>1188.995605</ele>
        <time>2011-08-09T12:22:19Z</time>
      </trkpt>
      <trkpt lat="44.59345" lon="6.54965">
        <ele>1191.233154</ele>
        <time>2011-08-09T12:22:23Z</time>
      </trkpt>
      <trkpt lat="44.5937" lon="6.54972">
        <ele>1188.888184</ele>
        <time>2011-08-09T12:22:27Z</time>
      </trkpt>
      <trkpt lat="44.59403" lon="6.54973">
        <ele>1184.927856</ele>
        <time>2011-08-09T12:22:33Z</time>
      </trkpt>
      <trkpt lat="44.59425" lon="6.54985">
        <ele>1183.096558</ele>
        <time>2011-08-09T12:22:37Z</time>
      </trkpt>
      <trkpt lat="44.59445" lon="6.55">
        <ele>1181.632324</ele>
        <time>2011-08-09T12:22:42Z</time>
      </trkpt>
      <trkpt lat="44.5947" lon="6.5501">
        <ele>1178.260742</ele>
        <time>2011-08-09T12:22:46Z</time>
      </trkpt>
      <trkpt lat="44.59492" lon="6.55012">
        <ele>1173.411499</ele>
        <time>2011-08-09T12:22:50Z</time>
      </trkpt>
      <trkpt lat="44.59505" lon="6.55008">
        <ele>1168.67749</ele>
        <time>2011-08-09T12:22:52Z</time>
      </trkpt>
      <trkpt lat="44.59532" lon="6.55015">
        <ele>1160.910645</ele>
        <time>2011-08-09T12:22:56Z</time>
      </trkpt>
      <trkpt lat="44.5955" lon="6.55032">
        <ele>1156.676514</ele>
        <time>2011-08-09T12:23:00Z</time>
      </trkpt>
      <trkpt lat="44.5956" lon="6.55045">
        <ele>1154.184448</ele>
        <time>2011-08-09T12:23:04Z</time>
      </trkpt>
      <trkpt lat="44.59568" lon="6.55005">
        <ele>1149.62561</ele>
        <time>2011-08-09T12:23:22Z</time>
      </trkpt>
      <trkpt lat="44.59563" lon="6.54977">
        <ele>1150.204956</ele>
        <time>2011-08-09T12:23:26Z</time>
      </trkpt>
      <trkpt lat="44.59557" lon="6.54942">
        <ele>1150.828735</ele>
        <time>2011-08-09T12:23:30Z</time>
      </trkpt>
      <trkpt lat="44.59557" lon="6.54922">
        <ele>1150.381348</ele>
        <time>2011-08-09T12:23:32Z</time>
      </trkpt>
      <trkpt lat="44.59558" lon="6.54898">
        <ele>1149.448242</ele>
        <time>2011-08-09T12:23:34Z</time>
      </trkpt>
      <trkpt lat="44.59567" lon="6.54878">
        <ele>1146.841553</ele>
        <time>2011-08-09T12:23:36Z</time>
      </trkpt>
      <trkpt lat="44.5958" lon="6.54858">
        <ele>1142.736328</ele>
        <time>2011-08-09T12:23:38Z</time>
      </trkpt>
      <trkpt lat="44.59597" lon="6.54862">
        <ele>1138.405762</ele>
        <time>2011-08-09T12:23:42Z</time>
      </trkpt>
      <trkpt lat="44.59603" lon="6.54878">
        <ele>1137.512329</ele>
        <time>2011-08-09T12:23:46Z</time>
      </trkpt>
      <trkpt lat="44.59607" lon="6.54898">
        <ele>1137.526733</ele>
        <time>2011-08-09T12:24:19Z</time>
      </trkpt>
      <trkpt lat="44.59607" lon="6.54925">
        <ele>1138.123291</ele>
        <time>2011-08-09T12:24:27Z</time>
      </trkpt>
      <trkpt lat="44.59607" lon="6.54945">
        <ele>1138.570679</ele>
        <time>2011-08-09T12:24:33Z</time>
      </trkpt>
      <trkpt lat="44.59603" lon="6.54967">
        <ele>1139.626831</ele>
        <time>2011-08-09T12:24:37Z</time>
      </trkpt>
      <trkpt lat="44.59598" lon="6.54987">
        <ele>1141.023193</ele>
        <time>2011-08-09T12:24:41Z</time>
      </trkpt>
      <trkpt lat="44.59597" lon="6.55007">
        <ele>1141.595947</ele>
        <time>2011-08-09T12:24:45Z</time>
      </trkpt>
      <trkpt lat="44.59597" lon="6.55032">
        <ele>1141.46814</ele>
        <time>2011-08-09T12:24:49Z</time>
      </trkpt>
      <trkpt lat="44.596" lon="6.5506">
        <ele>1139.776855</ele>
        <time>2011-08-09T12:24:56Z</time>
      </trkpt>
      <trkpt lat="44.59602" lon="6.55088">
        <ele>1138.194092</ele>
        <time>2011-08-09T12:25:02Z</time>
      </trkpt>
      <trkpt lat="44.596" lon="6.55115">
        <ele>1137.7677</ele>
        <time>2011-08-09T12:25:08Z</time>
      </trkpt>
      <trkpt lat="44.59595" lon="6.55135">
        <ele>1139.105103</ele>
        <time>2011-08-09T12:25:12Z</time>
      </trkpt>
      <trkpt lat="44.59587" lon="6.55153">
        <ele>1142.027954</ele>
        <time>2011-08-09T12:25:16Z</time>
      </trkpt>
      <trkpt lat="44.59575" lon="6.55168">
        <ele>1145.579468</ele>
        <time>2011-08-09T12:25:20Z</time>
      </trkpt>
      <trkpt lat="44.59565" lon="6.5519">
        <ele>1147.231079</ele>
        <time>2011-08-09T12:25:24Z</time>
      </trkpt>
      <trkpt lat="44.59558" lon="6.55213">
        <ele>1147.973999</ele>
        <time>2011-08-09T12:25:28Z</time>
      </trkpt>
      <trkpt lat="44.59562" lon="6.55238">
        <ele>1145.646484</ele>
        <time>2011-08-09T12:25:32Z</time>
      </trkpt>
      <trkpt lat="44.59572" lon="6.55263">
        <ele>1143.69812</ele>
        <time>2011-08-09T12:25:36Z</time>
      </trkpt>
      <trkpt lat="44.59582" lon="6.55293">
        <ele>1147.906738</ele>
        <time>2011-08-09T12:25:43Z</time>
      </trkpt>
      <trkpt lat="44.59593" lon="6.55303">
        <ele>1149.442505</ele>
        <time>2011-08-09T12:25:47Z</time>
      </trkpt>
      <trkpt lat="44.59607" lon="6.5531">
        <ele>1150.507935</ele>
        <time>2011-08-09T12:25:53Z</time>
      </trkpt>
      <trkpt lat="44.59623" lon="6.55312">
        <ele>1150.81189</ele>
        <time>2011-08-09T12:26:03Z</time>
      </trkpt>
      <trkpt lat="44.59637" lon="6.5532">
        <ele>1152.598511</ele>
        <time>2011-08-09T12:26:11Z</time>
      </trkpt>
      <trkpt lat="44.59652" lon="6.55328">
        <ele>1154.460938</ele>
        <time>2011-08-09T12:26:22Z</time>
      </trkpt>
      <trkpt lat="44.59665" lon="6.5534">
        <ele>1156.551758</ele>
        <time>2011-08-09T12:26:32Z</time>
      </trkpt>
      <trkpt lat="44.59677" lon="6.5535">
        <ele>1158.214844</ele>
        <time>2011-08-09T12:26:40Z</time>
      </trkpt>
      <trkpt lat="44.59692" lon="6.55358">
        <ele>1159.303589</ele>
        <time>2011-08-09T12:28:00Z</time>
      </trkpt>
      <trkpt lat="44.59705" lon="6.55367">
        <ele>1159.37793</ele>
        <time>2011-08-09T12:28:10Z</time>
      </trkpt>
      <trkpt lat="44.59725" lon="6.55377">
        <ele>1158.362915</ele>
        <time>2011-08-09T12:28:19Z</time>
      </trkpt>
      <trkpt lat="44.59737" lon="6.55387">
        <ele>1158.958984</ele>
        <time>2011-08-09T12:28:23Z</time>
      </trkpt>
      <trkpt lat="44.59755" lon="6.55405">
        <ele>1159.379517</ele>
        <time>2011-08-09T12:28:29Z</time>
      </trkpt>
      <trkpt lat="44.59775" lon="6.55427">
        <ele>1161.46875</ele>
        <time>2011-08-09T12:28:38Z</time>
      </trkpt>
      <trkpt lat="44.59795" lon="6.55445">
        <ele>1164.192993</ele>
        <time>2011-08-09T12:28:46Z</time>
      </trkpt>
      <trkpt lat="44.5981" lon="6.55452">
        <ele>1163.964844</ele>
        <time>2011-08-09T12:28:52Z</time>
      </trkpt>
      <trkpt lat="44.59833" lon="6.5546">
        <ele>1163.38501</ele>
        <time>2011-08-09T12:29:02Z</time>
      </trkpt>
      <trkpt lat="44.5985" lon="6.55467">
        <ele>1163.383179</ele>
        <time>2011-08-09T12:29:08Z</time>
      </trkpt>
      <trkpt lat="44.5987" lon="6.55475">
        <ele>1163.261475</ele>
        <time>2011-08-09T12:29:16Z</time>
      </trkpt>
      <trkpt lat="44.59885" lon="6.55487">
        <ele>1165.72583</ele>
        <time>2011-08-09T12:29:22Z</time>
      </trkpt>
      <trkpt lat="44.59898" lon="6.55503">
        <ele>1170.258545</ele>
        <time>2011-08-09T12:29:28Z</time>
      </trkpt>
      <trkpt lat="44.59912" lon="6.55517">
        <ele>1173.221802</ele>
        <time>2011-08-09T12:29:34Z</time>
      </trkpt>
      <trkpt lat="44.59925" lon="6.55512">
        <ele>1170.885742</ele>
        <time>2011-08-09T12:29:53Z</time>
      </trkpt>
      <trkpt lat="44.59938" lon="6.55495">
        <ele>1164.719604</ele>
        <time>2011-08-09T12:29:59Z</time>
      </trkpt>
      <trkpt lat="44.59953" lon="6.55487">
        <ele>1161.710693</ele>
        <time>2011-08-09T12:30:03Z</time>
      </trkpt>
      <trkpt lat="44.59972" lon="6.5548">
        <ele>1159.652588</ele>
        <time>2011-08-09T12:30:07Z</time>
      </trkpt>
      <trkpt lat="44.59988" lon="6.55478">
        <ele>1159.865234</ele>
        <time>2011-08-09T12:30:11Z</time>
      </trkpt>
      <trkpt lat="44.60003" lon="6.5548">
        <ele>1161.390015</ele>
        <time>2011-08-09T12:30:13Z</time>
      </trkpt>
      <trkpt lat="44.60022" lon="6.55485">
        <ele>1163.861938</ele>
        <time>2011-08-09T12:30:17Z</time>
      </trkpt>
      <trkpt lat="44.60052" lon="6.55492">
        <ele>1167.169922</ele>
        <time>2011-08-09T12:30:23Z</time>
      </trkpt>
      <trkpt lat="44.60072" lon="6.55495">
        <ele>1167.539917</ele>
        <time>2011-08-09T12:30:27Z</time>
      </trkpt>
      <trkpt lat="44.60088" lon="6.55492">
        <ele>1165.025269</ele>
        <time>2011-08-09T12:30:32Z</time>
      </trkpt>
      <trkpt lat="44.60107" lon="6.55493">
        <ele>1164.751465</ele>
        <time>2011-08-09T12:30:38Z</time>
      </trkpt>
      <trkpt lat="44.60123" lon="6.55497">
        <ele>1165.401611</ele>
        <time>2011-08-09T12:30:44Z</time>
      </trkpt>
      <trkpt lat="44.60145" lon="6.55502">
        <ele>1166.021362</ele>
        <time>2011-08-09T12:30:52Z</time>
      </trkpt>
      <trkpt lat="44.60168" lon="6.55505">
        <ele>1164.606567</ele>
        <time>2011-08-09T12:30:58Z</time>
      </trkpt>
      <trkpt lat="44.60193" lon="6.55508">
        <ele>1162.689575</ele>
        <time>2011-08-09T12:31:07Z</time>
      </trkpt>
      <trkpt lat="44.60207" lon="6.55515">
        <ele>1163.215332</ele>
        <time>2011-08-09T12:31:13Z</time>
      </trkpt>
      <trkpt lat="44.6022" lon="6.5553">
        <ele>1167.135986</ele>
        <time>2011-08-09T12:31:21Z</time>
      </trkpt>
      <trkpt lat="44.60233" lon="6.55545">
        <ele>1171.063721</ele>
        <time>2011-08-09T12:31:29Z</time>
      </trkpt>
      <trkpt lat="44.60252" lon="6.55565">
        <ele>1175.794922</ele>
        <time>2011-08-09T12:31:39Z</time>
      </trkpt>
      <trkpt lat="44.60268" lon="6.55568">
        <ele>1174.033081</ele>
        <time>2011-08-09T12:31:47Z</time>
      </trkpt>
      <trkpt lat="44.60282" lon="6.55572">
        <ele>1173.495483</ele>
        <time>2011-08-09T12:31:55Z</time>
      </trkpt>
      <trkpt lat="44.60298" lon="6.5558">
        <ele>1174.299438</ele>
        <time>2011-08-09T12:32:06Z</time>
      </trkpt>
      <trkpt lat="44.60313" lon="6.55582">
        <ele>1173.239746</ele>
        <time>2011-08-09T12:32:16Z</time>
      </trkpt>
      <trkpt lat="44.60332" lon="6.55587">
        <ele>1173.474854</ele>
        <time>2011-08-09T12:32:28Z</time>
      </trkpt>
      <trkpt lat="44.60347" lon="6.5559">
        <ele>1173.67041</ele>
        <time>2011-08-09T12:32:36Z</time>
      </trkpt>
      <trkpt lat="44.60362" lon="6.55602">
        <ele>1175.231934</ele>
        <time>2011-08-09T12:32:45Z</time>
      </trkpt>
      <trkpt lat="44.60378" lon="6.55608">
        <ele>1175.436646</ele>
        <time>2011-08-09T12:32:53Z</time>
      </trkpt>
      <trkpt lat="44.60392" lon="6.5562">
        <ele>1176.685425</ele>
        <time>2011-08-09T12:33:01Z</time>
      </trkpt>
      <trkpt lat="44.60415" lon="6.55638">
        <ele>1178.262085</ele>
        <time>2011-08-09T12:33:11Z</time>
      </trkpt>
      <trkpt lat="44.60432" lon="6.55657">
        <ele>1179.900757</ele>
        <time>2011-08-09T12:33:17Z</time>
      </trkpt>
      <trkpt lat="44.60448" lon="6.55673">
        <ele>1181.248901</ele>
        <time>2011-08-09T12:33:24Z</time>
      </trkpt>
      <trkpt lat="44.60463" lon="6.55687">
        <ele>1180.945068</ele>
        <time>2011-08-09T12:33:30Z</time>
      </trkpt>
      <trkpt lat="44.6048" lon="6.55705">
        <ele>1180.954468</ele>
        <time>2011-08-09T12:33:38Z</time>
      </trkpt>
      <trkpt lat="44.60492" lon="6.55722">
        <ele>1181.671631</ele>
        <time>2011-08-09T12:33:44Z</time>
      </trkpt>
      <trkpt lat="44.60485" lon="6.55705">
        <ele>1180.117676</ele>
        <time>2011-08-09T12:36:07Z</time>
      </trkpt>
      <trkpt lat="44.60477" lon="6.55688">
        <ele>1178.967896</ele>
        <time>2011-08-09T12:36:13Z</time>
      </trkpt>
      <trkpt lat="44.6047" lon="6.5567">
        <ele>1177.284668</ele>
        <time>2011-08-09T12:36:17Z</time>
      </trkpt>
      <trkpt lat="44.60453" lon="6.55633">
        <ele>1173.547729</ele>
        <time>2011-08-09T12:36:23Z</time>
      </trkpt>
      <trkpt lat="44.6044" lon="6.556">
        <ele>1168.153564</ele>
        <time>2011-08-09T12:36:30Z</time>
      </trkpt>
      <trkpt lat="44.60435" lon="6.55575">
        <ele>1162.444214</ele>
        <time>2011-08-09T12:36:34Z</time>
      </trkpt>
      <trkpt lat="44.60427" lon="6.55555">
        <ele>1156.623901</ele>
        <time>2011-08-09T12:36:38Z</time>
      </trkpt>
      <trkpt lat="44.60412" lon="6.55538">
        <ele>1153.715698</ele>
        <time>2011-08-09T12:36:42Z</time>
      </trkpt>
      <trkpt lat="44.60398" lon="6.55523">
        <ele>1150.393188</ele>
        <time>2011-08-09T12:36:46Z</time>
      </trkpt>
      <trkpt lat="44.60415" lon="6.5553">
        <ele>1150.140747</ele>
        <time>2011-08-09T12:37:23Z</time>
      </trkpt>
      <trkpt lat="44.60432" lon="6.55538">
        <ele>1149.581909</ele>
        <time>2011-08-09T12:37:29Z</time>
      </trkpt>
      <trkpt lat="44.6045" lon="6.55552">
        <ele>1150.864868</ele>
        <time>2011-08-09T12:37:35Z</time>
      </trkpt>
      <trkpt lat="44.60463" lon="6.55563">
        <ele>1152.222412</ele>
        <time>2011-08-09T12:37:39Z</time>
      </trkpt>
      <trkpt lat="44.60488" lon="6.55585">
        <ele>1154.376953</ele>
        <time>2011-08-09T12:37:45Z</time>
      </trkpt>
      <trkpt lat="44.60507" lon="6.55592">
        <ele>1151.797363</ele>
        <time>2011-08-09T12:37:47Z</time>
      </trkpt>
      <trkpt lat="44.60528" lon="6.55602">
        <ele>1148.782715</ele>
        <time>2011-08-09T12:37:51Z</time>
      </trkpt>
      <trkpt lat="44.60545" lon="6.55612">
        <ele>1147.211914</ele>
        <time>2011-08-09T12:37:55Z</time>
      </trkpt>
      <trkpt lat="44.60558" lon="6.55628">
        <ele>1148.391357</ele>
        <time>2011-08-09T12:37:57Z</time>
      </trkpt>
      <trkpt lat="44.6057" lon="6.55643">
        <ele>1149.407837</ele>
        <time>2011-08-09T12:38:03Z</time>
      </trkpt>
      <trkpt lat="44.6057" lon="6.55622">
        <ele>1143.632935</ele>
        <time>2011-08-09T12:38:40Z</time>
      </trkpt>
      <trkpt lat="44.60563" lon="6.55602">
        <ele>1139.930664</ele>
        <time>2011-08-09T12:38:46Z</time>
      </trkpt>
      <trkpt lat="44.60557" lon="6.55585">
        <ele>1136.340454</ele>
        <time>2011-08-09T12:38:50Z</time>
      </trkpt>
      <trkpt lat="44.60548" lon="6.55563">
        <ele>1130.37085</ele>
        <time>2011-08-09T12:38:56Z</time>
      </trkpt>
      <trkpt lat="44.60537" lon="6.55547">
        <ele>1126.978394</ele>
        <time>2011-08-09T12:39:03Z</time>
      </trkpt>
      <trkpt lat="44.60523" lon="6.55535">
        <ele>1125.689941</ele>
        <time>2011-08-09T12:39:09Z</time>
      </trkpt>
      <trkpt lat="44.6051" lon="6.5552">
        <ele>1123.121216</ele>
        <time>2011-08-09T12:39:15Z</time>
      </trkpt>
      <trkpt lat="44.60493" lon="6.555">
        <ele>1119.830566</ele>
        <time>2011-08-09T12:39:19Z</time>
      </trkpt>
      <trkpt lat="44.60483" lon="6.55483">
        <ele>1115.827637</ele>
        <time>2011-08-09T12:39:23Z</time>
      </trkpt>
      <trkpt lat="44.6047" lon="6.55472">
        <ele>1114.024414</ele>
        <time>2011-08-09T12:39:31Z</time>
      </trkpt>
      <trkpt lat="44.60455" lon="6.55455">
        <ele>1110.522705</ele>
        <time>2011-08-09T12:39:35Z</time>
      </trkpt>
      <trkpt lat="44.6044" lon="6.55447">
        <ele>1110.87146</ele>
        <time>2011-08-09T12:39:39Z</time>
      </trkpt>
      <trkpt lat="44.6045" lon="6.5543">
        <ele>1103.891602</ele>
        <time>2011-08-09T12:40:08Z</time>
      </trkpt>
      <trkpt lat="44.60465" lon="6.5543">
        <ele>1101.291626</ele>
        <time>2011-08-09T12:40:14Z</time>
      </trkpt>
      <trkpt lat="44.60478" lon="6.55433">
        <ele>1099.901733</ele>
        <time>2011-08-09T12:40:18Z</time>
      </trkpt>
      <trkpt lat="44.60492" lon="6.55442">
        <ele>1099.989136</ele>
        <time>2011-08-09T12:40:22Z</time>
      </trkpt>
      <trkpt lat="44.60513" lon="6.55448">
        <ele>1097.837646</ele>
        <time>2011-08-09T12:40:26Z</time>
      </trkpt>
      <trkpt lat="44.60545" lon="6.55452">
        <ele>1092.326416</ele>
        <time>2011-08-09T12:40:33Z</time>
      </trkpt>
      <trkpt lat="44.60565" lon="6.5545">
        <ele>1087.39978</ele>
        <time>2011-08-09T12:40:37Z</time>
      </trkpt>
      <trkpt lat="44.60587" lon="6.5545">
        <ele>1082.552734</ele>
        <time>2011-08-09T12:40:41Z</time>
      </trkpt>
      <trkpt lat="44.60603" lon="6.55457">
        <ele>1080.797729</ele>
        <time>2011-08-09T12:41:11Z</time>
      </trkpt>
      <trkpt lat="44.60622" lon="6.55455">
        <ele>1075.951904</ele>
        <time>2011-08-09T12:41:15Z</time>
      </trkpt>
      <trkpt lat="44.60637" lon="6.55463">
        <ele>1075.2229</ele>
        <time>2011-08-09T12:41:21Z</time>
      </trkpt>
      <trkpt lat="44.60652" lon="6.55473">
        <ele>1074.928589</ele>
        <time>2011-08-09T12:41:30Z</time>
      </trkpt>
      <trkpt lat="44.60668" lon="6.55472">
        <ele>1070.191284</ele>
        <time>2011-08-09T12:41:38Z</time>
      </trkpt>
      <trkpt lat="44.60687" lon="6.55465">
        <ele>1063.289185</ele>
        <time>2011-08-09T12:41:46Z</time>
      </trkpt>
      <trkpt lat="44.60702" lon="6.55468">
        <ele>1061.026367</ele>
        <time>2011-08-09T12:41:50Z</time>
      </trkpt>
      <trkpt lat="44.60722" lon="6.55468">
        <ele>1056.398315</ele>
        <time>2011-08-09T12:41:56Z</time>
      </trkpt>
      <trkpt lat="44.60735" lon="6.55463">
        <ele>1051.75415</ele>
        <time>2011-08-09T12:42:02Z</time>
      </trkpt>
      <trkpt lat="44.60725" lon="6.55443">
        <ele>1046.338135</ele>
        <time>2011-08-09T12:43:25Z</time>
      </trkpt>
      <trkpt lat="44.60715" lon="6.55427">
        <ele>1042.621216</ele>
        <time>2011-08-09T12:43:29Z</time>
      </trkpt>
      <trkpt lat="44.60705" lon="6.55412">
        <ele>1039.79834</ele>
        <time>2011-08-09T12:43:33Z</time>
      </trkpt>
      <trkpt lat="44.60695" lon="6.55395">
        <ele>1037.32312</ele>
        <time>2011-08-09T12:43:39Z</time>
      </trkpt>
      <trkpt lat="44.60713" lon="6.55395">
        <ele>1032.703247</ele>
        <time>2011-08-09T12:44:16Z</time>
      </trkpt>
      <trkpt lat="44.60727" lon="6.554">
        <ele>1030.86731</ele>
        <time>2011-08-09T12:44:20Z</time>
      </trkpt>
      <trkpt lat="44.60745" lon="6.55405">
        <ele>1027.816895</ele>
        <time>2011-08-09T12:44:24Z</time>
      </trkpt>
      <trkpt lat="44.60762" lon="6.55422">
        <ele>1029.259033</ele>
        <time>2011-08-09T12:44:28Z</time>
      </trkpt>
      <trkpt lat="44.60775" lon="6.55435">
        <ele>1031.84375</ele>
        <time>2011-08-09T12:44:33Z</time>
      </trkpt>
      <trkpt lat="44.6079" lon="6.55445">
        <ele>1035.917847</ele>
        <time>2011-08-09T12:44:39Z</time>
      </trkpt>
      <trkpt lat="44.60807" lon="6.55442">
        <ele>1033.969604</ele>
        <time>2011-08-09T12:44:47Z</time>
      </trkpt>
      <trkpt lat="44.60827" lon="6.55438">
        <ele>1032.900757</ele>
        <time>2011-08-09T12:44:55Z</time>
      </trkpt>
      <trkpt lat="44.60843" lon="6.55432">
        <ele>1032.05481</ele>
        <time>2011-08-09T12:45:01Z</time>
      </trkpt>
      <trkpt lat="44.6086" lon="6.55428">
        <ele>1033.031006</ele>
        <time>2011-08-09T12:45:07Z</time>
      </trkpt>
      <trkpt lat="44.60877" lon="6.55427">
        <ele>1034.647705</ele>
        <time>2011-08-09T12:45:13Z</time>
      </trkpt>
      <trkpt lat="44.60892" lon="6.55423">
        <ele>1035.58252</ele>
        <time>2011-08-09T12:45:20Z</time>
      </trkpt>
      <trkpt lat="44.60907" lon="6.55415">
        <ele>1035.218506</ele>
        <time>2011-08-09T12:45:27Z</time>
      </trkpt>
      <trkpt lat="44.60922" lon="6.55407">
        <ele>1034.721802</ele>
        <time>2011-08-09T12:45:34Z</time>
      </trkpt>
      <trkpt lat="44.60947" lon="6.554">
        <ele>1035.89502</ele>
        <time>2011-08-09T12:45:44Z</time>
      </trkpt>
      <trkpt lat="44.60962" lon="6.55383">
        <ele>1033.431641</ele>
        <time>2011-08-09T12:45:50Z</time>
      </trkpt>
      <trkpt lat="44.6098" lon="6.55378">
        <ele>1035.565063</ele>
        <time>2011-08-09T12:45:56Z</time>
      </trkpt>
      <trkpt lat="44.60998" lon="6.55383">
        <ele>1040.086548</ele>
        <time>2011-08-09T12:46:02Z</time>
      </trkpt>
      <trkpt lat="44.61015" lon="6.5539">
        <ele>1044.349731</ele>
        <time>2011-08-09T12:46:09Z</time>
      </trkpt>
      <trkpt lat="44.61028" lon="6.55377">
        <ele>1045.016479</ele>
        <time>2011-08-09T12:46:15Z</time>
      </trkpt>
      <trkpt lat="44.61037" lon="6.5536">
        <ele>1043.766357</ele>
        <time>2011-08-09T12:46:21Z</time>
      </trkpt>
      <trkpt lat="44.61048" lon="6.55337">
        <ele>1042.561279</ele>
        <time>2011-08-09T12:46:30Z</time>
      </trkpt>
      <trkpt lat="44.6106" lon="6.55325">
        <ele>1042.612793</ele>
        <time>2011-08-09T12:46:40Z</time>
      </trkpt>
      <trkpt lat="44.61073" lon="6.55328">
        <ele>1045.441772</ele>
        <time>2011-08-09T12:46:48Z</time>
      </trkpt>
      <trkpt lat="44.61088" lon="6.55337">
        <ele>1049.474609</ele>
        <time>2011-08-09T12:46:56Z</time>
      </trkpt>
      <trkpt lat="44.61105" lon="6.55345">
        <ele>1052.566772</ele>
        <time>2011-08-09T12:47:06Z</time>
      </trkpt>
      <trkpt lat="44.6112" lon="6.55353">
        <ele>1054.587402</ele>
        <time>2011-08-09T12:47:15Z</time>
      </trkpt>
      <trkpt lat="44.61133" lon="6.55363">
        <ele>1056.224976</ele>
        <time>2011-08-09T12:47:23Z</time>
      </trkpt>
      <trkpt lat="44.61147" lon="6.55377">
        <ele>1057.809082</ele>
        <time>2011-08-09T12:47:31Z</time>
      </trkpt>
      <trkpt lat="44.61163" lon="6.55392">
        <ele>1058.880127</ele>
        <time>2011-08-09T12:48:23Z</time>
      </trkpt>
      <trkpt lat="44.61177" lon="6.55408">
        <ele>1059.935791</ele>
        <time>2011-08-09T12:48:32Z</time>
      </trkpt>
      <trkpt lat="44.61185" lon="6.55427">
        <ele>1061.363525</ele>
        <time>2011-08-09T12:48:40Z</time>
      </trkpt>
      <trkpt lat="44.61195" lon="6.55442">
        <ele>1062.788696</ele>
        <time>2011-08-09T12:48:46Z</time>
      </trkpt>
      <trkpt lat="44.61213" lon="6.55468">
        <ele>1064.686157</ele>
        <time>2011-08-09T12:48:54Z</time>
      </trkpt>
      <trkpt lat="44.61228" lon="6.55482">
        <ele>1065.589233</ele>
        <time>2011-08-09T12:48:58Z</time>
      </trkpt>
      <trkpt lat="44.61248" lon="6.55493">
        <ele>1065.937134</ele>
        <time>2011-08-09T12:49:03Z</time>
      </trkpt>
      <trkpt lat="44.61268" lon="6.55507">
        <ele>1065.588623</ele>
        <time>2011-08-09T12:49:09Z</time>
      </trkpt>
      <trkpt lat="44.61297" lon="6.5552">
        <ele>1063.8302</ele>
        <time>2011-08-09T12:49:15Z</time>
      </trkpt>
      <trkpt lat="44.61312" lon="6.55527">
        <ele>1062.700562</ele>
        <time>2011-08-09T12:49:19Z</time>
      </trkpt>
      <trkpt lat="44.61327" lon="6.55537">
        <ele>1061.586304</ele>
        <time>2011-08-09T12:49:26Z</time>
      </trkpt>
      <trkpt lat="44.61345" lon="6.55535">
        <ele>1061.377808</ele>
        <time>2011-08-09T12:49:32Z</time>
      </trkpt>
      <trkpt lat="44.61362" lon="6.55533">
        <ele>1061.484375</ele>
        <time>2011-08-09T12:49:36Z</time>
      </trkpt>
      <trkpt lat="44.6138" lon="6.55533">
        <ele>1061.991821</ele>
        <time>2011-08-09T12:49:40Z</time>
      </trkpt>
      <trkpt lat="44.614" lon="6.55537">
        <ele>1062.199463</ele>
        <time>2011-08-09T12:49:44Z</time>
      </trkpt>
      <trkpt lat="44.61418" lon="6.55542">
        <ele>1061.882935</ele>
        <time>2011-08-09T12:49:48Z</time>
      </trkpt>
      <trkpt lat="44.61445" lon="6.5555">
        <ele>1061.380859</ele>
        <time>2011-08-09T12:49:54Z</time>
      </trkpt>
      <trkpt lat="44.61463" lon="6.5556">
        <ele>1061.939331</ele>
        <time>2011-08-09T12:49:58Z</time>
      </trkpt>
      <trkpt lat="44.61488" lon="6.55573">
        <ele>1062.955322</ele>
        <time>2011-08-09T12:50:05Z</time>
      </trkpt>
      <trkpt lat="44.61507" lon="6.55585">
        <ele>1063.311401</ele>
        <time>2011-08-09T12:50:10Z</time>
      </trkpt>
      <trkpt lat="44.6152" lon="6.55602">
        <ele>1063.096069</ele>
        <time>2011-08-09T12:50:17Z</time>
      </trkpt>
      <trkpt lat="44.61532" lon="6.5562">
        <ele>1063.073608</ele>
        <time>2011-08-09T12:50:21Z</time>
      </trkpt>
      <trkpt lat="44.61542" lon="6.55648">
        <ele>1062.827148</ele>
        <time>2011-08-09T12:50:27Z</time>
      </trkpt>
      <trkpt lat="44.61553" lon="6.55667">
        <ele>1063.485962</ele>
        <time>2011-08-09T12:50:31Z</time>
      </trkpt>
      <trkpt lat="44.61567" lon="6.55685">
        <ele>1065.077148</ele>
        <time>2011-08-09T12:50:35Z</time>
      </trkpt>
      <trkpt lat="44.61567" lon="6.55708">
        <ele>1065.236084</ele>
        <time>2011-08-09T12:50:39Z</time>
      </trkpt>
      <trkpt lat="44.61558" lon="6.55723">
        <ele>1064.570313</ele>
        <time>2011-08-09T12:50:44Z</time>
      </trkpt>
      <trkpt lat="44.61552" lon="6.55745">
        <ele>1063.969604</ele>
        <time>2011-08-09T12:50:50Z</time>
      </trkpt>
      <trkpt lat="44.61542" lon="6.55765">
        <ele>1063.093018</ele>
        <time>2011-08-09T12:50:56Z</time>
      </trkpt>
      <trkpt lat="44.61548" lon="6.55783">
        <ele>1063.519165</ele>
        <time>2011-08-09T12:51:35Z</time>
      </trkpt>
      <trkpt lat="44.61562" lon="6.55788">
        <ele>1064.416504</ele>
        <time>2011-08-09T12:51:43Z</time>
      </trkpt>
      <trkpt lat="44.61577" lon="6.55788">
        <ele>1065.04187</ele>
        <time>2011-08-09T12:51:49Z</time>
      </trkpt>
      <trkpt lat="44.61613" lon="6.55793">
        <ele>1064.407104</ele>
        <time>2011-08-09T12:52:01Z</time>
      </trkpt>
      <trkpt lat="44.61628" lon="6.55805">
        <ele>1063.610718</ele>
        <time>2011-08-09T12:52:07Z</time>
      </trkpt>
      <trkpt lat="44.61647" lon="6.55803">
        <ele>1064.354614</ele>
        <time>2011-08-09T12:52:14Z</time>
      </trkpt>
      <trkpt lat="44.61662" lon="6.55808">
        <ele>1064.321533</ele>
        <time>2011-08-09T12:52:18Z</time>
      </trkpt>
      <trkpt lat="44.61675" lon="6.55813">
        <ele>1065.079224</ele>
        <time>2011-08-09T12:52:22Z</time>
      </trkpt>
      <trkpt lat="44.6169" lon="6.55808">
        <ele>1067.075073</ele>
        <time>2011-08-09T12:52:26Z</time>
      </trkpt>
      <trkpt lat="44.61708" lon="6.55807">
        <ele>1069.089233</ele>
        <time>2011-08-09T12:52:30Z</time>
      </trkpt>
      <trkpt lat="44.61723" lon="6.55822">
        <ele>1069.181519</ele>
        <time>2011-08-09T12:52:34Z</time>
      </trkpt>
      <trkpt lat="44.61737" lon="6.55835">
        <ele>1069.135742</ele>
        <time>2011-08-09T12:52:38Z</time>
      </trkpt>
      <trkpt lat="44.61758" lon="6.55847">
        <ele>1069.670898</ele>
        <time>2011-08-09T12:52:42Z</time>
      </trkpt>
      <trkpt lat="44.61777" lon="6.55862">
        <ele>1068.816528</ele>
        <time>2011-08-09T12:52:47Z</time>
      </trkpt>
      <trkpt lat="44.61795" lon="6.55883">
        <ele>1066.618774</ele>
        <time>2011-08-09T12:52:51Z</time>
      </trkpt>
      <trkpt lat="44.61812" lon="6.559">
        <ele>1063.265869</ele>
        <time>2011-08-09T12:52:55Z</time>
      </trkpt>
      <trkpt lat="44.61827" lon="6.559">
        <ele>1062.427734</ele>
        <time>2011-08-09T12:53:03Z</time>
      </trkpt>
      <trkpt lat="44.61848" lon="6.5589">
        <ele>1062.478027</ele>
        <time>2011-08-09T12:53:22Z</time>
      </trkpt>
      <trkpt lat="44.61862" lon="6.55887">
        <ele>1061.940796</ele>
        <time>2011-08-09T12:53:24Z</time>
      </trkpt>
      <trkpt lat="44.61888" lon="6.55882">
        <ele>1060.53125</ele>
        <time>2011-08-09T12:53:28Z</time>
      </trkpt>
      <trkpt lat="44.61917" lon="6.55883">
        <ele>1058.096191</ele>
        <time>2011-08-09T12:53:32Z</time>
      </trkpt>
      <trkpt lat="44.61942" lon="6.55887">
        <ele>1055.378784</ele>
        <time>2011-08-09T12:53:36Z</time>
      </trkpt>
      <trkpt lat="44.61975" lon="6.55892">
        <ele>1051.584106</ele>
        <time>2011-08-09T12:53:40Z</time>
      </trkpt>
      <trkpt lat="44.61995" lon="6.55907">
        <ele>1049.03418</ele>
        <time>2011-08-09T12:53:45Z</time>
      </trkpt>
      <trkpt lat="44.61993" lon="6.55935">
        <ele>1047.499146</ele>
        <time>2011-08-09T12:53:49Z</time>
      </trkpt>
      <trkpt lat="44.6199" lon="6.55962">
        <ele>1045.786377</ele>
        <time>2011-08-09T12:53:57Z</time>
      </trkpt>
      <trkpt lat="44.61985" lon="6.5598">
        <ele>1044.292114</ele>
        <time>2011-08-09T12:54:01Z</time>
      </trkpt>
      <trkpt lat="44.61973" lon="6.55995">
        <ele>1043.52002</ele>
        <time>2011-08-09T12:54:05Z</time>
      </trkpt>
      <trkpt lat="44.61957" lon="6.56018">
        <ele>1042.252441</ele>
        <time>2011-08-09T12:54:11Z</time>
      </trkpt>
      <trkpt lat="44.61938" lon="6.56037">
        <ele>1041.785522</ele>
        <time>2011-08-09T12:54:17Z</time>
      </trkpt>
      <trkpt lat="44.61933" lon="6.5606">
        <ele>1040.114746</ele>
        <time>2011-08-09T12:54:21Z</time>
      </trkpt>
      <trkpt lat="44.61937" lon="6.56085">
        <ele>1037.253174</ele>
        <time>2011-08-09T12:54:25Z</time>
      </trkpt>
      <trkpt lat="44.61943" lon="6.56113">
        <ele>1032.944702</ele>
        <time>2011-08-09T12:54:30Z</time>
      </trkpt>
      <trkpt lat="44.61952" lon="6.56135">
        <ele>1029.054199</ele>
        <time>2011-08-09T12:54:34Z</time>
      </trkpt>
      <trkpt lat="44.61968" lon="6.5613">
        <ele>1028.285767</ele>
        <time>2011-08-09T12:54:38Z</time>
      </trkpt>
      <trkpt lat="44.6198" lon="6.56117">
        <ele>1029.948608</ele>
        <time>2011-08-09T12:54:42Z</time>
      </trkpt>
      <trkpt lat="44.61995" lon="6.5611">
        <ele>1030.525146</ele>
        <time>2011-08-09T12:54:46Z</time>
      </trkpt>
      <trkpt lat="44.62022" lon="6.56103">
        <ele>1029.701172</ele>
        <time>2011-08-09T12:54:54Z</time>
      </trkpt>
      <trkpt lat="44.62037" lon="6.5609">
        <ele>1030.328613</ele>
        <time>2011-08-09T12:55:00Z</time>
      </trkpt>
      <trkpt lat="44.6205" lon="6.56083">
        <ele>1030.418945</ele>
        <time>2011-08-09T12:55:04Z</time>
      </trkpt>
      <trkpt lat="44.62065" lon="6.56077">
        <ele>1029.459473</ele>
        <time>2011-08-09T12:55:08Z</time>
      </trkpt>
      <trkpt lat="44.62082" lon="6.56073">
        <ele>1027.652466</ele>
        <time>2011-08-09T12:55:12Z</time>
      </trkpt>
      <trkpt lat="44.62095" lon="6.56067">
        <ele>1026.952026</ele>
        <time>2011-08-09T12:55:16Z</time>
      </trkpt>
      <trkpt lat="44.62108" lon="6.5606">
        <ele>1026.070435</ele>
        <time>2011-08-09T12:55:21Z</time>
      </trkpt>
      <trkpt lat="44.62123" lon="6.56052">
        <ele>1025.164429</ele>
        <time>2011-08-09T12:55:25Z</time>
      </trkpt>
      <trkpt lat="44.6214" lon="6.56035">
        <ele>1026.228149</ele>
        <time>2011-08-09T12:55:28Z</time>
      </trkpt>
      <trkpt lat="44.62158" lon="6.56018">
        <ele>1023.083984</ele>
        <time>2011-08-09T12:55:33Z</time>
      </trkpt>
      <trkpt lat="44.62172" lon="6.56">
        <ele>1017.758179</ele>
        <time>2011-08-09T12:55:37Z</time>
      </trkpt>
      <trkpt lat="44.62163" lon="6.5598">
        <ele>1019.867188</ele>
        <time>2011-08-09T12:55:41Z</time>
      </trkpt>
      <trkpt lat="44.62145" lon="6.55947">
        <ele>1023.032959</ele>
        <time>2011-08-09T12:55:47Z</time>
      </trkpt>
      <trkpt lat="44.62135" lon="6.55917">
        <ele>1022.792236</ele>
        <time>2011-08-09T12:55:51Z</time>
      </trkpt>
      <trkpt lat="44.6213" lon="6.55897">
        <ele>1022.830139</ele>
        <time>2011-08-09T12:55:53Z</time>
      </trkpt>
      <trkpt lat="44.62138" lon="6.55868">
        <ele>1018.277832</ele>
        <time>2011-08-09T12:55:57Z</time>
      </trkpt>
      <trkpt lat="44.62157" lon="6.55848">
        <ele>1012.156006</ele>
        <time>2011-08-09T12:56:02Z</time>
      </trkpt>
      <trkpt lat="44.62168" lon="6.55827">
        <ele>1011.184814</ele>
        <time>2011-08-09T12:56:06Z</time>
      </trkpt>
      <trkpt lat="44.62177" lon="6.55802">
        <ele>1011.585388</ele>
        <time>2011-08-09T12:56:10Z</time>
      </trkpt>
      <trkpt lat="44.6219" lon="6.55768">
        <ele>1011.836548</ele>
        <time>2011-08-09T12:56:16Z</time>
      </trkpt>
      <trkpt lat="44.62203" lon="6.55788">
        <ele>1009.490967</ele>
        <time>2011-08-09T12:56:52Z</time>
      </trkpt>
      <trkpt lat="44.62215" lon="6.55802">
        <ele>1008.061646</ele>
        <time>2011-08-09T12:56:54Z</time>
      </trkpt>
      <trkpt lat="44.62245" lon="6.55835">
        <ele>1003.008545</ele>
        <time>2011-08-09T12:57:01Z</time>
      </trkpt>
      <trkpt lat="44.62263" lon="6.55857">
        <ele>999.482361</ele>
        <time>2011-08-09T12:57:05Z</time>
      </trkpt>
      <trkpt lat="44.62297" lon="6.5589">
        <ele>993.646362</ele>
        <time>2011-08-09T12:57:11Z</time>
      </trkpt>
      <trkpt lat="44.62305" lon="6.55905">
        <ele>991.625061</ele>
        <time>2011-08-09T12:57:13Z</time>
      </trkpt>
      <trkpt lat="44.62313" lon="6.55922">
        <ele>989.698975</ele>
        <time>2011-08-09T12:57:15Z</time>
      </trkpt>
      <trkpt lat="44.62325" lon="6.55942">
        <ele>987.609497</ele>
        <time>2011-08-09T12:57:17Z</time>
      </trkpt>
      <trkpt lat="44.62335" lon="6.5597">
        <ele>984.708984</ele>
        <time>2011-08-09T12:57:21Z</time>
      </trkpt>
      <trkpt lat="44.62335" lon="6.56005">
        <ele>981.684204</ele>
        <time>2011-08-09T12:57:26Z</time>
      </trkpt>
      <trkpt lat="44.62343" lon="6.56042">
        <ele>978.315186</ele>
        <time>2011-08-09T12:57:30Z</time>
      </trkpt>
      <trkpt lat="44.6235" lon="6.56058">
        <ele>976.819092</ele>
        <time>2011-08-09T12:57:32Z</time>
      </trkpt>
      <trkpt lat="44.62362" lon="6.5608">
        <ele>974.278748</ele>
        <time>2011-08-09T12:57:36Z</time>
      </trkpt>
      <trkpt lat="44.62377" lon="6.5609">
        <ele>972.059875</ele>
        <time>2011-08-09T12:57:40Z</time>
      </trkpt>
      <trkpt lat="44.62393" lon="6.56095">
        <ele>969.97937</ele>
        <time>2011-08-09T12:57:44Z</time>
      </trkpt>
      <trkpt lat="44.6239" lon="6.56125">
        <ele>966.737366</ele>
        <time>2011-08-09T12:57:50Z</time>
      </trkpt>
      <trkpt lat="44.62373" lon="6.56167">
        <ele>963.644958</ele>
        <time>2011-08-09T12:57:54Z</time>
      </trkpt>
      <trkpt lat="44.62365" lon="6.56185">
        <ele>962.105286</ele>
        <time>2011-08-09T12:57:56Z</time>
      </trkpt>
      <trkpt lat="44.62353" lon="6.56218">
        <ele>958.836609</ele>
        <time>2011-08-09T12:58:00Z</time>
      </trkpt>
      <trkpt lat="44.62368" lon="6.5625">
        <ele>952.182739</ele>
        <time>2011-08-09T12:58:04Z</time>
      </trkpt>
      <trkpt lat="44.62388" lon="6.56297">
        <ele>944.398193</ele>
        <time>2011-08-09T12:58:09Z</time>
      </trkpt>
      <trkpt lat="44.62428" lon="6.56387">
        <ele>933.153809</ele>
        <time>2011-08-09T12:58:17Z</time>
      </trkpt>
      <trkpt lat="44.62442" lon="6.56405">
        <ele>931.469604</ele>
        <time>2011-08-09T12:58:21Z</time>
      </trkpt>
      <trkpt lat="44.62457" lon="6.56422">
        <ele>929.906189</ele>
        <time>2011-08-09T12:58:25Z</time>
      </trkpt>
      <trkpt lat="44.62477" lon="6.56445">
        <ele>927.879944</ele>
        <time>2011-08-09T12:58:30Z</time>
      </trkpt>
      <trkpt lat="44.62492" lon="6.56473">
        <ele>925.374634</ele>
        <time>2011-08-09T12:58:34Z</time>
      </trkpt>
      <trkpt lat="44.62507" lon="6.56492">
        <ele>924.110535</ele>
        <time>2011-08-09T12:58:38Z</time>
      </trkpt>
      <trkpt lat="44.6252" lon="6.56503">
        <ele>923.643799</ele>
        <time>2011-08-09T12:58:42Z</time>
      </trkpt>
      <trkpt lat="44.62535" lon="6.5652">
        <ele>922.485291</ele>
        <time>2011-08-09T13:00:27Z</time>
      </trkpt>
      <trkpt lat="44.62548" lon="6.56527">
        <ele>921.086548</ele>
        <time>2011-08-09T13:00:31Z</time>
      </trkpt>
      <trkpt lat="44.62572" lon="6.56533">
        <ele>919.267273</ele>
        <time>2011-08-09T13:00:35Z</time>
      </trkpt>
      <trkpt lat="44.62588" lon="6.56537">
        <ele>917.057678</ele>
        <time>2011-08-09T13:00:37Z</time>
      </trkpt>
      <trkpt lat="44.62603" lon="6.56537">
        <ele>914.674622</ele>
        <time>2011-08-09T13:00:41Z</time>
      </trkpt>
      <trkpt lat="44.62592" lon="6.56547">
        <ele>915.561829</ele>
        <time>2011-08-09T13:00:50Z</time>
      </trkpt>
      <trkpt lat="44.62577" lon="6.56548">
        <ele>917.561707</ele>
        <time>2011-08-09T13:00:54Z</time>
      </trkpt>
      <trkpt lat="44.62548" lon="6.56552">
        <ele>918.392822</ele>
        <time>2011-08-09T13:01:00Z</time>
      </trkpt>
      <trkpt lat="44.6253" lon="6.56542">
        <ele>919.998047</ele>
        <time>2011-08-09T13:01:04Z</time>
      </trkpt>
      <trkpt lat="44.62512" lon="6.56543">
        <ele>919.155762</ele>
        <time>2011-08-09T13:01:09Z</time>
      </trkpt>
      <trkpt lat="44.62497" lon="6.56563">
        <ele>916.882446</ele>
        <time>2011-08-09T13:01:13Z</time>
      </trkpt>
      <trkpt lat="44.62482" lon="6.56587">
        <ele>915.790649</ele>
        <time>2011-08-09T13:01:17Z</time>
      </trkpt>
      <trkpt lat="44.62462" lon="6.56622">
        <ele>915.43634</ele>
        <time>2011-08-09T13:01:23Z</time>
      </trkpt>
      <trkpt lat="44.62425" lon="6.56682">
        <ele>916.699036</ele>
        <time>2011-08-09T13:01:34Z</time>
      </trkpt>
      <trkpt lat="44.62408" lon="6.56712">
        <ele>919.253662</ele>
        <time>2011-08-09T13:01:40Z</time>
      </trkpt>
      <trkpt lat="44.62402" lon="6.56735">
        <ele>920.711182</ele>
        <time>2011-08-09T13:01:44Z</time>
      </trkpt>
      <trkpt lat="44.62403" lon="6.56762">
        <ele>921.298401</ele>
        <time>2011-08-09T13:01:48Z</time>
      </trkpt>
      <trkpt lat="44.6241" lon="6.56783">
        <ele>920.806335</ele>
        <time>2011-08-09T13:01:52Z</time>
      </trkpt>
      <trkpt lat="44.62418" lon="6.56812">
        <ele>919.96228</ele>
        <time>2011-08-09T13:01:56Z</time>
      </trkpt>
      <trkpt lat="44.62423" lon="6.56837">
        <ele>918.671997</ele>
        <time>2011-08-09T13:02:01Z</time>
      </trkpt>
      <trkpt lat="44.62423" lon="6.56863">
        <ele>918.337463</ele>
        <time>2011-08-09T13:02:05Z</time>
      </trkpt>
      <trkpt lat="44.62422" lon="6.56908">
        <ele>921.957886</ele>
        <time>2011-08-09T13:02:11Z</time>
      </trkpt>
      <trkpt lat="44.62433" lon="6.5693">
        <ele>919.534607</ele>
        <time>2011-08-09T13:02:16Z</time>
      </trkpt>
      <trkpt lat="44.62458" lon="6.56975">
        <ele>917.362488</ele>
        <time>2011-08-09T13:02:24Z</time>
      </trkpt>
      <trkpt lat="44.62463" lon="6.56995">
        <ele>917.117249</ele>
        <time>2011-08-09T13:02:26Z</time>
      </trkpt>
      <trkpt lat="44.62473" lon="6.57035">
        <ele>919.421692</ele>
        <time>2011-08-09T13:02:33Z</time>
      </trkpt>
      <trkpt lat="44.62482" lon="6.57062">
        <ele>919.796387</ele>
        <time>2011-08-09T13:02:37Z</time>
      </trkpt>
      <trkpt lat="44.62488" lon="6.57087">
        <ele>921.47168</ele>
        <time>2011-08-09T13:02:41Z</time>
      </trkpt>
      <trkpt lat="44.62495" lon="6.57113">
        <ele>923.610229</ele>
        <time>2011-08-09T13:02:45Z</time>
      </trkpt>
      <trkpt lat="44.62508" lon="6.57157">
        <ele>925.78241</ele>
        <time>2011-08-09T13:02:51Z</time>
      </trkpt>
      <trkpt lat="44.62517" lon="6.57182">
        <ele>927.45343</ele>
        <time>2011-08-09T13:02:56Z</time>
      </trkpt>
      <trkpt lat="44.6253" lon="6.57205">
        <ele>926.949524</ele>
        <time>2011-08-09T13:03:00Z</time>
      </trkpt>
      <trkpt lat="44.62547" lon="6.57228">
        <ele>925.700745</ele>
        <time>2011-08-09T13:03:04Z</time>
      </trkpt>
      <trkpt lat="44.62567" lon="6.57257">
        <ele>926.41626</ele>
        <time>2011-08-09T13:03:10Z</time>
      </trkpt>
      <trkpt lat="44.62587" lon="6.57278">
        <ele>925.886597</ele>
        <time>2011-08-09T13:03:14Z</time>
      </trkpt>
      <trkpt lat="44.62605" lon="6.57293">
        <ele>925.715393</ele>
        <time>2011-08-09T13:03:19Z</time>
      </trkpt>
      <trkpt lat="44.62695" lon="6.57368">
        <ele>929.84729</ele>
        <time>2011-08-09T13:03:40Z</time>
      </trkpt>
      <trkpt lat="44.62712" lon="6.57382">
        <ele>930.808899</ele>
        <time>2011-08-09T13:03:44Z</time>
      </trkpt>
      <trkpt lat="44.62732" lon="6.57388">
        <ele>930.373535</ele>
        <time>2011-08-09T13:03:48Z</time>
      </trkpt>
      <trkpt lat="44.62752" lon="6.57393">
        <ele>929.656006</ele>
        <time>2011-08-09T13:03:52Z</time>
      </trkpt>
      <trkpt lat="44.62763" lon="6.57405">
        <ele>930.601013</ele>
        <time>2011-08-09T13:03:54Z</time>
      </trkpt>
      <trkpt lat="44.62783" lon="6.57428">
        <ele>932.509338</ele>
        <time>2011-08-09T13:04:01Z</time>
      </trkpt>
      <trkpt lat="44.628" lon="6.57438">
        <ele>932.490173</ele>
        <time>2011-08-09T13:04:05Z</time>
      </trkpt>
      <trkpt lat="44.62847" lon="6.57467">
        <ele>934.150085</ele>
        <time>2011-08-09T13:04:17Z</time>
      </trkpt>
      <trkpt lat="44.62858" lon="6.57477">
        <ele>935.215881</ele>
        <time>2011-08-09T13:04:21Z</time>
      </trkpt>
      <trkpt lat="44.62877" lon="6.57485">
        <ele>936.207458</ele>
        <time>2011-08-09T13:04:27Z</time>
      </trkpt>
      <trkpt lat="44.62895" lon="6.57482">
        <ele>935.533997</ele>
        <time>2011-08-09T13:04:34Z</time>
      </trkpt>
      <trkpt lat="44.62912" lon="6.57468">
        <ele>933.353271</ele>
        <time>2011-08-09T13:04:40Z</time>
      </trkpt>
      <trkpt lat="44.62925" lon="6.57457">
        <ele>931.37085</ele>
        <time>2011-08-09T13:04:44Z</time>
      </trkpt>
      <trkpt lat="44.6294" lon="6.57442">
        <ele>929.134521</ele>
        <time>2011-08-09T13:04:48Z</time>
      </trkpt>
      <trkpt lat="44.62955" lon="6.5743">
        <ele>927.603149</ele>
        <time>2011-08-09T13:04:53Z</time>
      </trkpt>
      <trkpt lat="44.62972" lon="6.57423">
        <ele>926.796082</ele>
        <time>2011-08-09T13:04:57Z</time>
      </trkpt>
      <trkpt lat="44.6299" lon="6.57418">
        <ele>926.316101</ele>
        <time>2011-08-09T13:05:01Z</time>
      </trkpt>
      <trkpt lat="44.63003" lon="6.57422">
        <ele>926.540039</ele>
        <time>2011-08-09T13:05:06Z</time>
      </trkpt>
      <trkpt lat="44.63013" lon="6.57435">
        <ele>928.007568</ele>
        <time>2011-08-09T13:05:10Z</time>
      </trkpt>
      <trkpt lat="44.6302" lon="6.57452">
        <ele>930.092712</ele>
        <time>2011-08-09T13:05:14Z</time>
      </trkpt>
      <trkpt lat="44.6303" lon="6.57468">
        <ele>932.211121</ele>
        <time>2011-08-09T13:05:18Z</time>
      </trkpt>
      <trkpt lat="44.63042" lon="6.57483">
        <ele>934.145813</ele>
        <time>2011-08-09T13:05:22Z</time>
      </trkpt>
      <trkpt lat="44.63058" lon="6.57503">
        <ele>936.074524</ele>
        <time>2011-08-09T13:05:26Z</time>
      </trkpt>
      <trkpt lat="44.63073" lon="6.57518">
        <ele>937.321533</ele>
        <time>2011-08-09T13:05:30Z</time>
      </trkpt>
      <trkpt lat="44.63088" lon="6.57533">
        <ele>938.248291</ele>
        <time>2011-08-09T13:05:35Z</time>
      </trkpt>
      <trkpt lat="44.63102" lon="6.5755">
        <ele>939.541199</ele>
        <time>2011-08-09T13:05:39Z</time>
      </trkpt>
      <trkpt lat="44.63112" lon="6.57572">
        <ele>940.626892</ele>
        <time>2011-08-09T13:05:43Z</time>
      </trkpt>
      <trkpt lat="44.63127" lon="6.57602">
        <ele>942.131226</ele>
        <time>2011-08-09T13:05:49Z</time>
      </trkpt>
      <trkpt lat="44.63143" lon="6.5761">
        <ele>942.50354</ele>
        <time>2011-08-09T13:05:53Z</time>
      </trkpt>
      <trkpt lat="44.63157" lon="6.57613">
        <ele>942.652344</ele>
        <time>2011-08-09T13:05:55Z</time>
      </trkpt>
      <trkpt lat="44.63172" lon="6.57618">
        <ele>942.9646</ele>
        <time>2011-08-09T13:06:00Z</time>
      </trkpt>
      <trkpt lat="44.63185" lon="6.57615">
        <ele>942.071289</ele>
        <time>2011-08-09T13:06:04Z</time>
      </trkpt>
      <trkpt lat="44.63202" lon="6.57613">
        <ele>941.144165</ele>
        <time>2011-08-09T13:06:08Z</time>
      </trkpt>
      <trkpt lat="44.63223" lon="6.57612">
        <ele>939.912537</ele>
        <time>2011-08-09T13:06:14Z</time>
      </trkpt>
      <trkpt lat="44.6324" lon="6.5761">
        <ele>938.699707</ele>
        <time>2011-08-09T13:06:18Z</time>
      </trkpt>
      <trkpt lat="44.63258" lon="6.57617">
        <ele>939.539124</ele>
        <time>2011-08-09T13:06:23Z</time>
      </trkpt>
      <trkpt lat="44.63275" lon="6.57625">
        <ele>940.144531</ele>
        <time>2011-08-09T13:06:27Z</time>
      </trkpt>
      <trkpt lat="44.63292" lon="6.57633">
        <ele>940.578186</ele>
        <time>2011-08-09T13:06:31Z</time>
      </trkpt>
      <trkpt lat="44.63308" lon="6.57638">
        <ele>939.837341</ele>
        <time>2011-08-09T13:06:35Z</time>
      </trkpt>
      <trkpt lat="44.6334" lon="6.57647">
        <ele>937.370361</ele>
        <time>2011-08-09T13:06:41Z</time>
      </trkpt>
      <trkpt lat="44.63358" lon="6.57663">
        <ele>938.958435</ele>
        <time>2011-08-09T13:06:46Z</time>
      </trkpt>
      <trkpt lat="44.63378" lon="6.57682">
        <ele>940.540588</ele>
        <time>2011-08-09T13:06:50Z</time>
      </trkpt>
      <trkpt lat="44.63423" lon="6.57728">
        <ele>944.349121</ele>
        <time>2011-08-09T13:06:58Z</time>
      </trkpt>
      <trkpt lat="44.63447" lon="6.57745">
        <ele>944.225403</ele>
        <time>2011-08-09T13:07:03Z</time>
      </trkpt>
      <trkpt lat="44.63503" lon="6.57783">
        <ele>944.548706</ele>
        <time>2011-08-09T13:07:11Z</time>
      </trkpt>
      <trkpt lat="44.63518" lon="6.57797">
        <ele>945.2901</ele>
        <time>2011-08-09T13:07:13Z</time>
      </trkpt>
      <trkpt lat="44.63535" lon="6.57808">
        <ele>945.43866</ele>
        <time>2011-08-09T13:07:15Z</time>
      </trkpt>
      <trkpt lat="44.63573" lon="6.57837">
        <ele>945.471802</ele>
        <time>2011-08-09T13:07:19Z</time>
      </trkpt>
      <trkpt lat="44.63592" lon="6.57838">
        <ele>944.697571</ele>
        <time>2011-08-09T13:07:22Z</time>
      </trkpt>
      <trkpt lat="44.63608" lon="6.57837">
        <ele>943.591492</ele>
        <time>2011-08-09T13:07:24Z</time>
      </trkpt>
      <trkpt lat="44.63625" lon="6.57833">
        <ele>942.275391</ele>
        <time>2011-08-09T13:07:26Z</time>
      </trkpt>
      <trkpt lat="44.63653" lon="6.57828">
        <ele>940.119629</ele>
        <time>2011-08-09T13:07:30Z</time>
      </trkpt>
      <trkpt lat="44.6367" lon="6.57832">
        <ele>939.564392</ele>
        <time>2011-08-09T13:07:32Z</time>
      </trkpt>
      <trkpt lat="44.63682" lon="6.57842">
        <ele>940.218262</ele>
        <time>2011-08-09T13:07:34Z</time>
      </trkpt>
      <trkpt lat="44.63693" lon="6.57852">
        <ele>940.818054</ele>
        <time>2011-08-09T13:07:37Z</time>
      </trkpt>
      <trkpt lat="44.63727" lon="6.57883">
        <ele>940.203796</ele>
        <time>2011-08-09T13:07:43Z</time>
      </trkpt>
      <trkpt lat="44.63752" lon="6.57897">
        <ele>937.816833</ele>
        <time>2011-08-09T13:07:47Z</time>
      </trkpt>
      <trkpt lat="44.63793" lon="6.5792">
        <ele>934.28717</ele>
        <time>2011-08-09T13:07:53Z</time>
      </trkpt>
      <trkpt lat="44.63803" lon="6.57952">
        <ele>937.375916</ele>
        <time>2011-08-09T13:07:58Z</time>
      </trkpt>
      <trkpt lat="44.63808" lon="6.57985">
        <ele>941.843201</ele>
        <time>2011-08-09T13:08:02Z</time>
      </trkpt>
      <trkpt lat="44.63832" lon="6.57993">
        <ele>940.035156</ele>
        <time>2011-08-09T13:08:06Z</time>
      </trkpt>
      <trkpt lat="44.63858" lon="6.57997">
        <ele>935.702087</ele>
        <time>2011-08-09T13:08:10Z</time>
      </trkpt>
      <trkpt lat="44.63887" lon="6.58005">
        <ele>931.68927</ele>
        <time>2011-08-09T13:08:14Z</time>
      </trkpt>
      <trkpt lat="44.63902" lon="6.58017">
        <ele>930.809143</ele>
        <time>2011-08-09T13:08:16Z</time>
      </trkpt>
      <trkpt lat="44.64082" lon="6.58132">
        <ele>915.777771</ele>
        <time>2011-08-09T13:08:34Z</time>
      </trkpt>
      <trkpt lat="44.64148" lon="6.58173">
        <ele>906.551453</ele>
        <time>2011-08-09T13:08:41Z</time>
      </trkpt>
      <trkpt lat="44.6417" lon="6.58192">
        <ele>904.151306</ele>
        <time>2011-08-09T13:08:43Z</time>
      </trkpt>
      <trkpt lat="44.64208" lon="6.58232">
        <ele>901.631958</ele>
        <time>2011-08-09T13:08:47Z</time>
      </trkpt>
      <trkpt lat="44.64228" lon="6.58255">
        <ele>900.932007</ele>
        <time>2011-08-09T13:08:49Z</time>
      </trkpt>
      <trkpt lat="44.64247" lon="6.58278">
        <ele>902.040588</ele>
        <time>2011-08-09T13:08:51Z</time>
      </trkpt>
      <trkpt lat="44.64285" lon="6.58322">
        <ele>905.015137</ele>
        <time>2011-08-09T13:08:55Z</time>
      </trkpt>
      <trkpt lat="44.64308" lon="6.58335">
        <ele>902.644836</ele>
        <time>2011-08-09T13:08:57Z</time>
      </trkpt>
      <trkpt lat="44.64393" lon="6.5838">
        <ele>898.378174</ele>
        <time>2011-08-09T13:09:03Z</time>
      </trkpt>
      <trkpt lat="44.64445" lon="6.5838">
        <ele>889.627747</ele>
        <time>2011-08-09T13:09:07Z</time>
      </trkpt>
      <trkpt lat="44.64495" lon="6.58387">
        <ele>884.26593</ele>
        <time>2011-08-09T13:09:12Z</time>
      </trkpt>
      <trkpt lat="44.64518" lon="6.58402">
        <ele>882.617981</ele>
        <time>2011-08-09T13:09:14Z</time>
      </trkpt>
      <trkpt lat="44.6454" lon="6.58422">
        <ele>882.04718</ele>
        <time>2011-08-09T13:09:16Z</time>
      </trkpt>
      <trkpt lat="44.64562" lon="6.58443">
        <ele>883.970764</ele>
        <time>2011-08-09T13:09:18Z</time>
      </trkpt>
      <trkpt lat="44.64583" lon="6.58463">
        <ele>883.789978</ele>
        <time>2011-08-09T13:09:20Z</time>
      </trkpt>
      <trkpt lat="44.64605" lon="6.58477">
        <ele>881.95105</ele>
        <time>2011-08-09T13:09:22Z</time>
      </trkpt>
      <trkpt lat="44.6463" lon="6.58488">
        <ele>880.23053</ele>
        <time>2011-08-09T13:09:24Z</time>
      </trkpt>
      <trkpt lat="44.64698" lon="6.58515">
        <ele>881.002258</ele>
        <time>2011-08-09T13:09:30Z</time>
      </trkpt>
      <trkpt lat="44.64837" lon="6.58563">
        <ele>879.119934</ele>
        <time>2011-08-09T13:09:48Z</time>
      </trkpt>
      <trkpt lat="44.64862" lon="6.58563">
        <ele>878.982483</ele>
        <time>2011-08-09T13:09:52Z</time>
      </trkpt>
      <trkpt lat="44.64887" lon="6.5856">
        <ele>878.87854</ele>
        <time>2011-08-09T13:09:56Z</time>
      </trkpt>
      <trkpt lat="44.65012" lon="6.58538">
        <ele>879.729553</ele>
        <time>2011-08-09T13:10:27Z</time>
      </trkpt>
      <trkpt lat="44.6503" lon="6.58533">
        <ele>879.045288</ele>
        <time>2011-08-09T13:11:45Z</time>
      </trkpt>
      <trkpt lat="44.6505" lon="6.5854">
        <ele>879.020935</ele>
        <time>2011-08-09T13:11:51Z</time>
      </trkpt>
      <trkpt lat="44.6506" lon="6.5856">
        <ele>879.557556</ele>
        <time>2011-08-09T13:11:56Z</time>
      </trkpt>
      <trkpt lat="44.65077" lon="6.58587">
        <ele>879.93689</ele>
        <time>2011-08-09T13:12:00Z</time>
      </trkpt>
      <trkpt lat="44.65097" lon="6.58612">
        <ele>879.713928</ele>
        <time>2011-08-09T13:12:04Z</time>
      </trkpt>
      <trkpt lat="44.65128" lon="6.58657">
        <ele>878.330261</ele>
        <time>2011-08-09T13:12:10Z</time>
      </trkpt>
      <trkpt lat="44.6514" lon="6.58672">
        <ele>877.885986</ele>
        <time>2011-08-09T13:12:12Z</time>
      </trkpt>
      <trkpt lat="44.65155" lon="6.58698">
        <ele>877</ele>
        <time>2011-08-09T13:12:14Z</time>
      </trkpt>
      <trkpt lat="44.65163" lon="6.58715">
        <ele>877.005005</ele>
        <time>2011-08-09T13:12:16Z</time>
      </trkpt>
      <trkpt lat="44.65478" lon="6.5933">
        <ele>870.501648</ele>
        <time>2011-08-09T13:13:35Z</time>
      </trkpt>
      <trkpt lat="44.65497" lon="6.59368">
        <ele>868.152832</ele>
        <time>2011-08-09T13:13:39Z</time>
      </trkpt>
      <trkpt lat="44.65622" lon="6.59612">
        <ele>873.11676</ele>
        <time>2011-08-09T13:14:10Z</time>
      </trkpt>
      <trkpt lat="44.65702" lon="6.59767">
        <ele>870.292542</ele>
        <time>2011-08-09T13:14:31Z</time>
      </trkpt>
      <trkpt lat="44.65723" lon="6.5981">
        <ele>871.146118</ele>
        <time>2011-08-09T13:14:37Z</time>
      </trkpt>
      <trkpt lat="44.66003" lon="6.60367">
        <ele>884.223999</ele>
        <time>2011-08-09T13:15:54Z</time>
      </trkpt>
      <trkpt lat="44.66012" lon="6.60393">
        <ele>885.512329</ele>
        <time>2011-08-09T13:15:58Z</time>
      </trkpt>
      <trkpt lat="44.66017" lon="6.6042">
        <ele>886.98761</ele>
        <time>2011-08-09T13:16:02Z</time>
      </trkpt>
      <trkpt lat="44.6602" lon="6.60447">
        <ele>888.245667</ele>
        <time>2011-08-09T13:16:06Z</time>
      </trkpt>
      <trkpt lat="44.6604" lon="6.60603">
        <ele>893.829468</ele>
        <time>2011-08-09T13:16:27Z</time>
      </trkpt>
      <trkpt lat="44.66042" lon="6.60633">
        <ele>894.203064</ele>
        <time>2011-08-09T13:16:31Z</time>
      </trkpt>
      <trkpt lat="44.66042" lon="6.60662">
        <ele>894.446106</ele>
        <time>2011-08-09T13:16:35Z</time>
      </trkpt>
      <trkpt lat="44.6604" lon="6.60713">
        <ele>894.552612</ele>
        <time>2011-08-09T13:16:43Z</time>
      </trkpt>
      <trkpt lat="44.66037" lon="6.60758">
        <ele>894.587891</ele>
        <time>2011-08-09T13:16:51Z</time>
      </trkpt>
      <trkpt lat="44.66037" lon="6.60783">
        <ele>894.566345</ele>
        <time>2011-08-09T13:16:55Z</time>
      </trkpt>
      <trkpt lat="44.66035" lon="6.60805">
        <ele>894.584656</ele>
        <time>2011-08-09T13:17:00Z</time>
      </trkpt>
      <trkpt lat="44.66033" lon="6.60825">
        <ele>894.604431</ele>
        <time>2011-08-09T13:17:04Z</time>
      </trkpt>
      <trkpt lat="44.66035" lon="6.60848">
        <ele>894.547302</ele>
        <time>2011-08-09T13:17:08Z</time>
      </trkpt>
      <trkpt lat="44.66037" lon="6.6087">
        <ele>894.595642</ele>
        <time>2011-08-09T13:17:12Z</time>
      </trkpt>
      <trkpt lat="44.6604" lon="6.60893">
        <ele>894.86731</ele>
        <time>2011-08-09T13:17:16Z</time>
      </trkpt>
      <trkpt lat="44.66042" lon="6.60915">
        <ele>895.152954</ele>
        <time>2011-08-09T13:17:20Z</time>
      </trkpt>
      <trkpt lat="44.66047" lon="6.6094">
        <ele>895.410522</ele>
        <time>2011-08-09T13:17:24Z</time>
      </trkpt>
      <trkpt lat="44.66052" lon="6.60972">
        <ele>895.768005</ele>
        <time>2011-08-09T13:17:30Z</time>
      </trkpt>
      <trkpt lat="44.6606" lon="6.61035">
        <ele>896.521973</ele>
        <time>2011-08-09T13:17:43Z</time>
      </trkpt>
      <trkpt lat="44.66062" lon="6.61057">
        <ele>896.807617</ele>
        <time>2011-08-09T13:17:47Z</time>
      </trkpt>
      <trkpt lat="44.66062" lon="6.61078">
        <ele>897.132324</ele>
        <time>2011-08-09T13:17:51Z</time>
      </trkpt>
      <trkpt lat="44.66063" lon="6.61142">
        <ele>898.293213</ele>
        <time>2011-08-09T13:18:01Z</time>
      </trkpt>
      <trkpt lat="44.66065" lon="6.61163">
        <ele>898.76593</ele>
        <time>2011-08-09T13:18:05Z</time>
      </trkpt>
      <trkpt lat="44.66073" lon="6.6123">
        <ele>900.263794</ele>
        <time>2011-08-09T13:18:18Z</time>
      </trkpt>
      <trkpt lat="44.66083" lon="6.61298">
        <ele>901.915222</ele>
        <time>2011-08-09T13:18:28Z</time>
      </trkpt>
      <trkpt lat="44.6609" lon="6.61353">
        <ele>903.802246</ele>
        <time>2011-08-09T13:18:36Z</time>
      </trkpt>
      <trkpt lat="44.66105" lon="6.61482">
        <ele>906.927429</ele>
        <time>2011-08-09T13:18:55Z</time>
      </trkpt>
      <trkpt lat="44.66107" lon="6.61507">
        <ele>907.164001</ele>
        <time>2011-08-09T13:18:59Z</time>
      </trkpt>
      <trkpt lat="44.66108" lon="6.61547">
        <ele>906.949341</ele>
        <time>2011-08-09T13:19:05Z</time>
      </trkpt>
      <trkpt lat="44.66108" lon="6.61582">
        <ele>907.069763</ele>
        <time>2011-08-09T13:19:09Z</time>
      </trkpt>
      <trkpt lat="44.66108" lon="6.6161">
        <ele>907.335083</ele>
        <time>2011-08-09T13:19:13Z</time>
      </trkpt>
      <trkpt lat="44.6611" lon="6.61638">
        <ele>907.400574</ele>
        <time>2011-08-09T13:19:17Z</time>
      </trkpt>
      <trkpt lat="44.66112" lon="6.61667">
        <ele>907.277588</ele>
        <time>2011-08-09T13:19:21Z</time>
      </trkpt>
      <trkpt lat="44.66118" lon="6.61695">
        <ele>906.898926</ele>
        <time>2011-08-09T13:19:26Z</time>
      </trkpt>
      <trkpt lat="44.66133" lon="6.6172">
        <ele>905.8349</ele>
        <time>2011-08-09T13:19:30Z</time>
      </trkpt>
      <trkpt lat="44.66148" lon="6.61748">
        <ele>904.762268</ele>
        <time>2011-08-09T13:19:34Z</time>
      </trkpt>
      <trkpt lat="44.6617" lon="6.61792">
        <ele>903.874939</ele>
        <time>2011-08-09T13:19:40Z</time>
      </trkpt>
      <trkpt lat="44.66183" lon="6.61823">
        <ele>903.236389</ele>
        <time>2011-08-09T13:19:44Z</time>
      </trkpt>
      <trkpt lat="44.66185" lon="6.61845">
        <ele>903.069214</ele>
        <time>2011-08-09T13:19:46Z</time>
      </trkpt>
      <trkpt lat="44.66202" lon="6.61862">
        <ele>901.915771</ele>
        <time>2011-08-09T13:19:51Z</time>
      </trkpt>
      <trkpt lat="44.66218" lon="6.61882">
        <ele>900.753662</ele>
        <time>2011-08-09T13:19:55Z</time>
      </trkpt>
      <trkpt lat="44.66207" lon="6.61913">
        <ele>901.44873</ele>
        <time>2011-08-09T13:19:59Z</time>
      </trkpt>
      <trkpt lat="44.66197" lon="6.61927">
        <ele>902.080322</ele>
        <time>2011-08-09T13:20:01Z</time>
      </trkpt>
      <trkpt lat="44.66182" lon="6.61953">
        <ele>902.913452</ele>
        <time>2011-08-09T13:20:05Z</time>
      </trkpt>
      <trkpt lat="44.66167" lon="6.61982">
        <ele>903.37207</ele>
        <time>2011-08-09T13:20:09Z</time>
      </trkpt>
      <trkpt lat="44.66145" lon="6.61998">
        <ele>904.465454</ele>
        <time>2011-08-09T13:20:13Z</time>
      </trkpt>
      <trkpt lat="44.66125" lon="6.62015">
        <ele>905.482483</ele>
        <time>2011-08-09T13:20:17Z</time>
      </trkpt>
      <trkpt lat="44.66103" lon="6.62023">
        <ele>906.734924</ele>
        <time>2011-08-09T13:20:21Z</time>
      </trkpt>
      <trkpt lat="44.6608" lon="6.6203">
        <ele>907.850708</ele>
        <time>2011-08-09T13:20:25Z</time>
      </trkpt>
      <trkpt lat="44.66063" lon="6.62063">
        <ele>908.609985</ele>
        <time>2011-08-09T13:20:29Z</time>
      </trkpt>
      <trkpt lat="44.66062" lon="6.62098">
        <ele>908.087891</ele>
        <time>2011-08-09T13:20:33Z</time>
      </trkpt>
      <trkpt lat="44.66062" lon="6.62138">
        <ele>907.35022</ele>
        <time>2011-08-09T13:20:38Z</time>
      </trkpt>
      <trkpt lat="44.66062" lon="6.62158">
        <ele>906.981384</ele>
        <time>2011-08-09T13:20:39Z</time>
      </trkpt>
      <trkpt lat="44.66058" lon="6.62195">
        <ele>906.599365</ele>
        <time>2011-08-09T13:20:44Z</time>
      </trkpt>
      <trkpt lat="44.66055" lon="6.62232">
        <ele>906.726257</ele>
        <time>2011-08-09T13:20:48Z</time>
      </trkpt>
      <trkpt lat="44.66052" lon="6.62267">
        <ele>907.077454</ele>
        <time>2011-08-09T13:20:52Z</time>
      </trkpt>
      <trkpt lat="44.66047" lon="6.62302">
        <ele>907.880432</ele>
        <time>2011-08-09T13:20:56Z</time>
      </trkpt>
      <trkpt lat="44.66038" lon="6.62335">
        <ele>908.568359</ele>
        <time>2011-08-09T13:21:00Z</time>
      </trkpt>
      <trkpt lat="44.66027" lon="6.62373">
        <ele>909.246033</ele>
        <time>2011-08-09T13:21:04Z</time>
      </trkpt>
      <trkpt lat="44.66013" lon="6.62398">
        <ele>910.178833</ele>
        <time>2011-08-09T13:21:08Z</time>
      </trkpt>
      <trkpt lat="44.66002" lon="6.6242">
        <ele>910.839905</ele>
        <time>2011-08-09T13:21:13Z</time>
      </trkpt>
      <trkpt lat="44.65995" lon="6.6244">
        <ele>911.155029</ele>
        <time>2011-08-09T13:21:17Z</time>
      </trkpt>
      <trkpt lat="44.65985" lon="6.62457">
        <ele>911.765015</ele>
        <time>2011-08-09T13:21:21Z</time>
      </trkpt>
      <trkpt lat="44.65972" lon="6.62485">
        <ele>912.437378</ele>
        <time>2011-08-09T13:21:27Z</time>
      </trkpt>
      <trkpt lat="44.6596" lon="6.62502">
        <ele>912.741211</ele>
        <time>2011-08-09T13:21:34Z</time>
      </trkpt>
      <trkpt lat="44.6595" lon="6.62525">
        <ele>912.555176</ele>
        <time>2011-08-09T13:21:40Z</time>
      </trkpt>
      <trkpt lat="44.65952" lon="6.62547">
        <ele>912.206116</ele>
        <time>2011-08-09T13:25:42Z</time>
      </trkpt>
      <trkpt lat="44.65958" lon="6.6258">
        <ele>912</ele>
        <time>2011-08-09T13:25:50Z</time>
      </trkpt>
      <trkpt lat="44.65962" lon="6.62602">
        <ele>912</ele>
        <time>2011-08-09T13:25:54Z</time>
      </trkpt>
      <trkpt lat="44.65963" lon="6.62623">
        <ele>912</ele>
        <time>2011-08-09T13:25:58Z</time>
      </trkpt>
      <trkpt lat="44.65963" lon="6.62647">
        <ele>912</ele>
        <time>2011-08-09T13:26:02Z</time>
      </trkpt>
      <trkpt lat="44.65965" lon="6.62667">
        <ele>912</ele>
        <time>2011-08-09T13:26:06Z</time>
      </trkpt>
      <trkpt lat="44.65965" lon="6.62688">
        <ele>912.011169</ele>
        <time>2011-08-09T13:26:10Z</time>
      </trkpt>
      <trkpt lat="44.65967" lon="6.62715">
        <ele>912.66272</ele>
        <time>2011-08-09T13:26:14Z</time>
      </trkpt>
      <trkpt lat="44.65968" lon="6.62737">
        <ele>913.23407</ele>
        <time>2011-08-09T13:26:19Z</time>
      </trkpt>
      <trkpt lat="44.65972" lon="6.6276">
        <ele>913.968445</ele>
        <time>2011-08-09T13:26:23Z</time>
      </trkpt>
      <trkpt lat="44.65973" lon="6.6278">
        <ele>914.652649</ele>
        <time>2011-08-09T13:26:27Z</time>
      </trkpt>
      <trkpt lat="44.6598" lon="6.62883">
        <ele>921.28833</ele>
        <time>2011-08-09T13:26:45Z</time>
      </trkpt>
      <trkpt lat="44.65983" lon="6.62905">
        <ele>922.875854</ele>
        <time>2011-08-09T13:26:49Z</time>
      </trkpt>
      <trkpt lat="44.65987" lon="6.62925">
        <ele>924.402954</ele>
        <time>2011-08-09T13:26:54Z</time>
      </trkpt>
      <trkpt lat="44.65987" lon="6.62945">
        <ele>925.778748</ele>
        <time>2011-08-09T13:26:58Z</time>
      </trkpt>
      <trkpt lat="44.65997" lon="6.62962">
        <ele>927.61554</ele>
        <time>2011-08-09T13:27:04Z</time>
      </trkpt>
      <trkpt lat="44.66008" lon="6.62942">
        <ele>926.867249</ele>
        <time>2011-08-09T13:27:08Z</time>
      </trkpt>
      <trkpt lat="44.6602" lon="6.62912">
        <ele>925.159058</ele>
        <time>2011-08-09T13:27:12Z</time>
      </trkpt>
      <trkpt lat="44.66028" lon="6.62897">
        <ele>924.385437</ele>
        <time>2011-08-09T13:27:14Z</time>
      </trkpt>
      <trkpt lat="44.66037" lon="6.62882">
        <ele>923.65863</ele>
        <time>2011-08-09T13:27:16Z</time>
      </trkpt>
      <trkpt lat="44.66057" lon="6.6286">
        <ele>922.842712</ele>
        <time>2011-08-09T13:27:20Z</time>
      </trkpt>
      <trkpt lat="44.66077" lon="6.62848">
        <ele>922.807312</ele>
        <time>2011-08-09T13:27:24Z</time>
      </trkpt>
      <trkpt lat="44.66058" lon="6.62838">
        <ele>920.92511</ele>
        <time>2011-08-09T13:27:32Z</time>
      </trkpt>
      <trkpt lat="44.6604" lon="6.62828">
        <ele>919.262207</ele>
        <time>2011-08-09T13:27:44Z</time>
      </trkpt>
      <trkpt lat="44.66025" lon="6.6284">
        <ele>919.594604</ele>
        <time>2011-08-09T13:27:48Z</time>
      </trkpt>
    </trkseg>
  </trk>
</gpx>